Darstellungsparameter: Aktuell verwendete Einstellungen:
Skalierung der Graphiken ... ?
xyx+y,   Skalierungsfaktor:      Skalierung: Modus: x, Faktor: 1
Darstellungszeitraum ... ?
Vom - - bis: - -   Zeitraum: 26.01.2019 - 25.07.2019
Min/Max/Avg-Anzeige ... ?
Zeige MMA aktuell
Zeige MMA Monat
Zeige MMA alles
Zeige --A aktuell
Zeige --A Monat
Zeige --A alles
Keine MMA-Anzeige
MMA:
Minimum Maximum Average (ber die Originaldaten)
MMA-Basis: 26.01.2019 - 25.07.2019
Quicknavigation für Darstellung... ?
Tage:      1T, 2T, 3T, 5T -1T -2T -3T -5T +1T +2T +3T +5T
Wochen: 1W, 2W, 3W -1W -2W -3W +1W +2W +3W
Monate: 1M, 3M, 6M -1M -3M -6M +1M +3M +6M
Jahre:    1J, 3J, 5J, 10J -1J -3J -5J -10J +1J +3J +5J +10J
Nutze für die Darstellung ... ?
Originaldaten oder Mittelwerte auf ...
Stundenbasis Tagesbasis Wochenbasis
Monatsbasis Jahresbasis      Datenbasis: Original-Daten
Darstellen als:
Statistik (Auto) Statistik J:M      Darstellung:
Zur Graphik,    zurück zur Übersicht aller Sensoren.
 
Tabellarische Datenbersicht: ?
 
Sensor: Nr:Datum:Temp:Feuchte:Taupunkt:
Aussen-T/F 1 26-01-2019 00:00:00 1.8 C 94 % 0.94 C
2 26-01-2019 00:05:00 1.8 C 94 % 0.94 C
3 26-01-2019 00:10:00 1.8 C 94 % 0.94 C
4 26-01-2019 00:15:00 1.8 C 94 % 0.94 C
5 26-01-2019 00:20:00 1.8 C 94 % 0.94 C
6 26-01-2019 00:25:00 1.8 C 94 % 0.94 C
7 26-01-2019 00:30:00 1.9 C 94 % 1.04 C
8 26-01-2019 00:35:00 1.9 C 94 % 1.04 C
9 26-01-2019 00:40:00 1.9 C 94 % 1.04 C
10 26-01-2019 00:45:00 1.9 C 95 % 1.19 C
11 26-01-2019 00:50:00 1.9 C 95 % 1.19 C
12 26-01-2019 00:55:00 1.9 C 95 % 1.19 C
13 26-01-2019 01:00:00 1.9 C 95 % 1.19 C
14 26-01-2019 01:05:00 1.9 C 95 % 1.19 C
15 26-01-2019 01:10:00 1.9 C 95 % 1.19 C
16 26-01-2019 01:15:00 2 C 95 % 1.29 C
17 26-01-2019 01:20:00 2 C 95 % 1.29 C
18 26-01-2019 01:25:00 2.1 C 95 % 1.38 C
19 26-01-2019 01:30:00 2.1 C 95 % 1.38 C
20 26-01-2019 01:35:00 2.1 C 95 % 1.38 C
21 26-01-2019 01:40:00 2.1 C 94 % 1.24 C
22 26-01-2019 01:45:00 2.1 C 94 % 1.24 C
23 26-01-2019 01:50:00 2.1 C 94 % 1.24 C
24 26-01-2019 01:55:00 2.2 C 94 % 1.34 C
25 26-01-2019 02:00:00 2.2 C 94 % 1.34 C
Sensor: Nr:Datum:Temp:Feuchte:Taupunkt:
Aussen-T/F 26 26-01-2019 02:05:00 2.2 C 94 % 1.34 C
27 26-01-2019 02:10:00 2.3 C 94 % 1.44 C
28 26-01-2019 02:15:00 2.3 C 94 % 1.44 C
29 26-01-2019 02:20:00 2.3 C 94 % 1.44 C
30 26-01-2019 02:25:00 2.3 C 94 % 1.44 C
31 26-01-2019 02:30:00 2.3 C 94 % 1.44 C
32 26-01-2019 02:35:00 2.4 C 94 % 1.54 C
33 26-01-2019 02:40:00 2.4 C 94 % 1.54 C
34 26-01-2019 02:45:00 2.4 C 94 % 1.54 C
35 26-01-2019 02:50:00 2.4 C 94 % 1.54 C
36 26-01-2019 02:55:00 2.4 C 94 % 1.54 C
37 26-01-2019 03:00:00 2.5 C 94 % 1.63 C
38 26-01-2019 03:05:00 2.5 C 94 % 1.63 C
39 26-01-2019 03:10:00 2.5 C 94 % 1.63 C
40 26-01-2019 03:15:00 2.5 C 93 % 1.49 C
41 26-01-2019 03:20:00 2.6 C 93 % 1.59 C
42 26-01-2019 03:25:00 2.6 C 94 % 1.73 C
43 26-01-2019 03:30:00 2.6 C 94 % 1.73 C
44 26-01-2019 03:35:00 2.7 C 93 % 1.68 C
45 26-01-2019 03:40:00 2.7 C 93 % 1.68 C
46 26-01-2019 03:45:00 2.7 C 93 % 1.68 C
47 26-01-2019 03:50:00 2.8 C 93 % 1.78 C
48 26-01-2019 03:55:00 2.8 C 93 % 1.78 C
49 26-01-2019 04:00:00 2.8 C 93 % 1.78 C
50 26-01-2019 04:05:00 2.8 C 93 % 1.78 C
Sensor: Nr:Datum:Temp:Feuchte:Taupunkt:
Aussen-T/F 51 26-01-2019 04:10:00 2.8 C 93 % 1.78 C
52 26-01-2019 04:15:00 2.9 C 93 % 1.88 C
53 26-01-2019 04:20:00 2.9 C 93 % 1.88 C
54 26-01-2019 04:25:00 2.9 C 93 % 1.88 C
55 26-01-2019 04:30:00 3 C 93 % 1.98 C
56 26-01-2019 04:35:00 3 C 93 % 1.98 C
57 26-01-2019 04:40:00 3.1 C 93 % 2.08 C
58 26-01-2019 04:45:00 3.1 C 92 % 1.93 C
59 26-01-2019 04:50:00 3.2 C 93 % 2.18 C
60 26-01-2019 04:55:00 3.2 C 92 % 2.03 C
61 26-01-2019 05:00:00 3.3 C 92 % 2.13 C
62 26-01-2019 05:05:00 3.3 C 92 % 2.13 C
63 26-01-2019 05:10:00 3.3 C 92 % 2.13 C
64 26-01-2019 05:15:00 3.4 C 92 % 2.23 C
65 26-01-2019 05:20:00 3.4 C 92 % 2.23 C
66 26-01-2019 05:25:00 3.4 C 92 % 2.23 C
67 26-01-2019 05:30:00 3.4 C 92 % 2.23 C
68 26-01-2019 05:35:00 3.4 C 92 % 2.23 C
69 26-01-2019 05:40:00 3.4 C 92 % 2.23 C
70 26-01-2019 05:45:00 3.4 C 92 % 2.23 C
71 26-01-2019 05:50:00 3.3 C 92 % 2.13 C
72 26-01-2019 05:55:00 3.3 C 92 % 2.13 C
73 26-01-2019 06:00:00 3.3 C 92 % 2.13 C
74 26-01-2019 06:05:00 3.3 C 92 % 2.13 C
75 26-01-2019 06:10:00 3.3 C 92 % 2.13 C
Sensor: Nr:Datum:Temp:Feuchte:Taupunkt:
Aussen-T/F 76 26-01-2019 06:15:00 3.3 C 92 % 2.13 C
77 26-01-2019 06:20:00 3.2 C 92 % 2.03 C
78 26-01-2019 06:25:00 3.2 C 93 % 2.18 C
79 26-01-2019 06:30:00 3.2 C 93 % 2.18 C
80 26-01-2019 06:35:00 3.2 C 93 % 2.18 C
81 26-01-2019 06:40:00 3.2 C 93 % 2.18 C
82 26-01-2019 06:45:00 3.2 C 93 % 2.18 C
83 26-01-2019 06:50:00 3.3 C 93 % 2.28 C
84 26-01-2019 06:55:00 3.2 C 93 % 2.18 C
85 26-01-2019 07:00:00 3.2 C 93 % 2.18 C
86 26-01-2019 07:05:00 3.2 C 93 % 2.18 C
87 26-01-2019 07:10:00 3.2 C 93 % 2.18 C
88 26-01-2019 07:15:00 3.2 C 93 % 2.18 C
89 26-01-2019 07:20:00 3.2 C 93 % 2.18 C
90 26-01-2019 07:25:00 3.2 C 94 % 2.33 C
91 26-01-2019 07:30:00 3.3 C 94 % 2.43 C
92 26-01-2019 07:35:00 3.3 C 94 % 2.43 C
93 26-01-2019 07:40:00 3.3 C 94 % 2.43 C
94 26-01-2019 07:45:00 3.3 C 94 % 2.43 C
95 26-01-2019 07:50:00 3.3 C 94 % 2.43 C
96 26-01-2019 07:55:00 3.4 C 94 % 2.53 C
97 26-01-2019 08:00:00 3.4 C 94 % 2.53 C
98 26-01-2019 08:05:00 3.6 C 94 % 2.73 C
99 26-01-2019 08:10:00 3.7 C 94 % 2.83 C
100 26-01-2019 08:15:00 3.7 C 94 % 2.83 C
Sensor: Nr:Datum:Temp:Feuchte:Taupunkt:
Aussen-T/F 101 26-01-2019 08:20:00 3.7 C 94 % 2.83 C
102 26-01-2019 08:25:00 3.8 C 94 % 2.93 C
103 26-01-2019 08:30:00 3.8 C 94 % 2.93 C
104 26-01-2019 08:35:00 3.8 C 94 % 2.93 C
105 26-01-2019 08:40:00 3.8 C 94 % 2.93 C
106 26-01-2019 08:45:00 3.9 C 94 % 3.02 C
107 26-01-2019 08:50:00 3.9 C 94 % 3.02 C
108 26-01-2019 08:55:00 4 C 93 % 2.97 C
109 26-01-2019 09:00:00 4.1 C 93 % 3.07 C
110 26-01-2019 09:05:00 4.1 C 93 % 3.07 C
111 26-01-2019 09:10:00 4.1 C 93 % 3.07 C
112 26-01-2019 09:15:00 4.2 C 93 % 3.17 C
113 26-01-2019 09:20:00 4.2 C 93 % 3.17 C
114 26-01-2019 09:25:00 4.2 C 93 % 3.17 C
115 26-01-2019 09:30:00 4.2 C 93 % 3.17 C
116 26-01-2019 09:35:00 4.3 C 93 % 3.27 C
117 26-01-2019 09:40:00 4.4 C 93 % 3.37 C
118 26-01-2019 09:45:00 4.6 C 93 % 3.57 C
119 26-01-2019 09:50:00 4.7 C 93 % 3.67 C
120 26-01-2019 09:55:00 4.8 C 92 % 3.61 C
121 26-01-2019 10:00:00 4.9 C 92 % 3.71 C
122 26-01-2019 10:05:00 4.9 C 92 % 3.71 C
123 26-01-2019 10:10:00 4.9 C 91 % 3.56 C
124 26-01-2019 10:15:00 4.9 C 92 % 3.71 C
125 26-01-2019 10:20:00 4.9 C 92 % 3.71 C
Sensor: Nr:Datum:Temp:Feuchte:Taupunkt:
Aussen-T/F 126 26-01-2019 10:25:00 4.8 C 92 % 3.61 C
127 26-01-2019 10:30:00 4.8 C 92 % 3.61 C
128 26-01-2019 10:35:00 4.8 C 92 % 3.61 C
129 26-01-2019 10:40:00 4.8 C 92 % 3.61 C
130 26-01-2019 10:45:00 4.7 C 92 % 3.51 C
131 26-01-2019 10:50:00 4.8 C 92 % 3.61 C
132 26-01-2019 10:55:00 4.8 C 92 % 3.61 C
133 26-01-2019 11:00:00 4.9 C 92 % 3.71 C
134 26-01-2019 11:05:00 4.9 C 92 % 3.71 C
135 26-01-2019 11:10:00 5 C 92 % 3.81 C
136 26-01-2019 11:15:00 5.1 C 92 % 3.91 C
137 26-01-2019 11:20:00 5.1 C 92 % 3.91 C
138 26-01-2019 11:25:00 5.2 C 92 % 4.01 C
139 26-01-2019 11:30:00 5.2 C 92 % 4.01 C
140 26-01-2019 11:35:00 5.2 C 92 % 4.01 C
141 26-01-2019 11:40:00 5.3 C 92 % 4.11 C
142 26-01-2019 11:45:00 5.3 C 92 % 4.11 C
143 26-01-2019 11:50:00 5.4 C 92 % 4.21 C
144 26-01-2019 11:55:00 5.4 C 92 % 4.21 C
145 26-01-2019 12:00:00 5.4 C 92 % 4.21 C
146 26-01-2019 12:05:00 5.5 C 92 % 4.31 C
147 26-01-2019 12:10:00 5.6 C 91 % 4.25 C
148 26-01-2019 12:15:00 5.6 C 91 % 4.25 C
149 26-01-2019 12:20:00 5.7 C 91 % 4.35 C
150 26-01-2019 12:25:00 5.8 C 91 % 4.45 C
Sensor: Nr:Datum:Temp:Feuchte:Taupunkt:
Aussen-T/F 151 26-01-2019 12:30:00 5.9 C 91 % 4.55 C
152 26-01-2019 12:35:00 5.9 C 90 % 4.39 C
153 26-01-2019 12:40:00 6 C 90 % 4.49 C
154 26-01-2019 12:45:00 6 C 90 % 4.49 C
155 26-01-2019 12:50:00 6.1 C 90 % 4.59 C
156 26-01-2019 12:55:00 6.2 C 90 % 4.69 C
157 26-01-2019 13:00:00 6.2 C 90 % 4.69 C
158 26-01-2019 13:05:00 6.1 C 90 % 4.59 C
159 26-01-2019 13:10:00 6.1 C 90 % 4.59 C
160 26-01-2019 13:15:00 6 C 90 % 4.49 C
161 26-01-2019 13:20:00 5.9 C 90 % 4.39 C
162 26-01-2019 13:25:00 5.9 C 90 % 4.39 C
163 26-01-2019 13:30:00 5.9 C 90 % 4.39 C
164 26-01-2019 13:35:00 5.9 C 90 % 4.39 C
165 26-01-2019 13:40:00 5.9 C 90 % 4.39 C
166 26-01-2019 13:45:00 5.9 C 90 % 4.39 C
167 26-01-2019 13:50:00 5.8 C 90 % 4.29 C
168 26-01-2019 13:55:00 5.8 C 90 % 4.29 C
169 26-01-2019 14:00:00 5.8 C 90 % 4.29 C
170 26-01-2019 14:05:00 5.8 C 90 % 4.29 C
171 26-01-2019 14:10:00 5.8 C 91 % 4.45 C
172 26-01-2019 14:15:00 5.8 C 91 % 4.45 C
173 26-01-2019 14:20:00 5.9 C 91 % 4.55 C
174 26-01-2019 14:25:00 5.9 C 91 % 4.55 C
175 26-01-2019 14:30:00 5.9 C 91 % 4.55 C
Sensor: Nr:Datum:Temp:Feuchte:Taupunkt:
Aussen-T/F 176 26-01-2019 14:35:00 6 C 91 % 4.65 C
177 26-01-2019 14:40:00 6.1 C 91 % 4.74 C
178 26-01-2019 14:45:00 6.1 C 90 % 4.59 C
179 26-01-2019 14:50:00 6.2 C 91 % 4.84 C
180 26-01-2019 14:55:00 6.2 C 90 % 4.69 C
181 26-01-2019 15:00:00 6.3 C 90 % 4.78 C
182 26-01-2019 15:05:00 6.3 C 90 % 4.78 C
183 26-01-2019 15:10:00 6.3 C 89 % 4.62 C
184 26-01-2019 15:15:00 6.3 C 89 % 4.62 C
185 26-01-2019 15:20:00 6.3 C 89 % 4.62 C
186 26-01-2019 15:25:00 6.2 C 89 % 4.53 C
187 26-01-2019 15:30:00 6.2 C 89 % 4.53 C
188 26-01-2019 15:35:00 6.2 C 89 % 4.53 C
189 26-01-2019 15:40:00 6.2 C 89 % 4.53 C
190 26-01-2019 15:45:00 6.1 C 89 % 4.43 C
191 26-01-2019 15:50:00 6.1 C 89 % 4.43 C
192 26-01-2019 15:55:00 6.1 C 90 % 4.59 C
193 26-01-2019 16:00:00 6.1 C 90 % 4.59 C
194 26-01-2019 16:05:00 6.1 C 90 % 4.59 C
195 26-01-2019 16:10:00 6 C 90 % 4.49 C
196 26-01-2019 16:15:00 6 C 90 % 4.49 C
197 26-01-2019 16:20:00 6 C 90 % 4.49 C
198 26-01-2019 16:25:00 5.9 C 90 % 4.39 C
199 26-01-2019 16:30:00 5.9 C 90 % 4.39 C
200 26-01-2019 16:35:00 5.9 C 90 % 4.39 C
Sensor: Nr:Datum:Temp:Feuchte:Taupunkt:
Aussen-T/F 201 26-01-2019 16:40:00 5.9 C 90 % 4.39 C
202 26-01-2019 16:45:00 5.9 C 90 % 4.39 C
203 26-01-2019 16:50:00 5.9 C 90 % 4.39 C
204 26-01-2019 16:55:00 5.9 C 90 % 4.39 C
205 26-01-2019 17:00:00 5.9 C 90 % 4.39 C
206 26-01-2019 17:05:00 5.9 C 90 % 4.39 C
207 26-01-2019 17:10:00 5.8 C 89 % 4.13 C
208 26-01-2019 17:15:00 5.7 C 90 % 4.19 C
209 26-01-2019 17:20:00 5.7 C 90 % 4.19 C
210 26-01-2019 17:25:00 5.6 C 90 % 4.09 C
211 26-01-2019 17:30:00 5.6 C 90 % 4.09 C
212 26-01-2019 17:35:00 5.6 C 90 % 4.09 C
213 26-01-2019 17:40:00 5.4 C 90 % 3.89 C
214 26-01-2019 17:45:00 5.3 C 90 % 3.8 C
215 26-01-2019 17:50:00 5.2 C 90 % 3.7 C
216 26-01-2019 17:55:00 5.1 C 90 % 3.6 C
217 26-01-2019 18:00:00 5.1 C 91 % 3.76 C
218 26-01-2019 18:05:00 5 C 91 % 3.66 C
219 26-01-2019 18:10:00 4.9 C 92 % 3.71 C
220 26-01-2019 18:15:00 4.9 C 92 % 3.71 C
221 26-01-2019 18:20:00 4.9 C 92 % 3.71 C
222 26-01-2019 18:25:00 4.8 C 92 % 3.61 C
223 26-01-2019 18:30:00 4.8 C 92 % 3.61 C
224 26-01-2019 18:35:00 4.7 C 93 % 3.67 C
225 26-01-2019 18:40:00 4.7 C 93 % 3.67 C
Sensor: Nr:Datum:Temp:Feuchte:Taupunkt:
Aussen-T/F 226 26-01-2019 18:45:00 4.9 C 93 % 3.87 C
227 26-01-2019 18:50:00 5 C 94 % 4.12 C
228 26-01-2019 18:55:00 5 C 93 % 3.96 C
229 26-01-2019 19:00:00 5.1 C 93 % 4.06 C
230 26-01-2019 19:05:00 5.1 C 94 % 4.22 C
231 26-01-2019 19:10:00 5.1 C 94 % 4.22 C
232 26-01-2019 19:15:00 5.1 C 93 % 4.06 C
233 26-01-2019 19:20:00 5 C 93 % 3.96 C
234 26-01-2019 19:25:00 5 C 94 % 4.12 C
235 26-01-2019 19:30:00 5 C 94 % 4.12 C
236 26-01-2019 19:35:00 5 C 94 % 4.12 C
237 26-01-2019 19:40:00 5 C 94 % 4.12 C
238 26-01-2019 19:45:00 4.9 C 94 % 4.02 C
239 26-01-2019 19:50:00 4.9 C 94 % 4.02 C
240 26-01-2019 19:55:00 4.9 C 94 % 4.02 C
241 26-01-2019 20:00:00 5 C 94 % 4.12 C
242 26-01-2019 20:05:00 5.1 C 94 % 4.22 C
243 26-01-2019 20:10:00 5.2 C 95 % 4.47 C
244 26-01-2019 20:15:00 5.3 C 94 % 4.41 C
245 26-01-2019 20:20:00 5.4 C 94 % 4.51 C
246 26-01-2019 20:25:00 5.4 C 94 % 4.51 C
247 26-01-2019 20:30:00 5.4 C 94 % 4.51 C
248 26-01-2019 20:35:00 5.3 C 94 % 4.41 C
249 26-01-2019 20:40:00 5.4 C 94 % 4.51 C
250 26-01-2019 20:45:00 5.4 C 94 % 4.51 C
Sensor: Nr:Datum:Temp:Feuchte:Taupunkt:
Aussen-T/F 251 26-01-2019 20:50:00 5.4 C 94 % 4.51 C
252 26-01-2019 20:55:00 5.5 C 94 % 4.61 C
253 26-01-2019 21:00:00 5.5 C 93 % 4.46 C
254 26-01-2019 21:05:00 5.5 C 93 % 4.46 C
255 26-01-2019 21:10:00 5.5 C 93 % 4.46 C
256 26-01-2019 21:15:00 5.5 C 93 % 4.46 C
257 26-01-2019 21:20:00 5.6 C 93 % 4.56 C
258 26-01-2019 21:25:00 5.6 C 93 % 4.56 C
259 26-01-2019 21:30:00 5.7 C 93 % 4.66 C
260 26-01-2019 21:35:00 5.7 C 93 % 4.66 C
261 26-01-2019 21:40:00 5.7 C 93 % 4.66 C
262 26-01-2019 21:45:00 5.7 C 93 % 4.66 C
263 26-01-2019 21:50:00 5.8 C 92 % 4.6 C
264 26-01-2019 21:55:00 5.8 C 92 % 4.6 C
265 26-01-2019 22:00:00 5.9 C 92 % 4.7 C
266 26-01-2019 22:05:00 5.9 C 92 % 4.7 C
267 26-01-2019 22:10:00 5.9 C 91 % 4.55 C
268 26-01-2019 22:15:00 5.9 C 91 % 4.55 C
269 26-01-2019 22:20:00 5.9 C 91 % 4.55 C
270 26-01-2019 22:25:00 6.1 C 91 % 4.74 C
271 26-01-2019 22:30:00 6.1 C 91 % 4.74 C
272 26-01-2019 22:35:00 6.1 C 91 % 4.74 C
273 26-01-2019 22:40:00 6.1 C 91 % 4.74 C
274 26-01-2019 22:45:00 6 C 91 % 4.65 C
275 26-01-2019 22:50:00 5.9 C 91 % 4.55 C
Sensor: Nr:Datum:Temp:Feuchte:Taupunkt:
Aussen-T/F 276 26-01-2019 22:55:00 5.9 C 91 % 4.55 C
277 26-01-2019 23:00:00 5.8 C 92 % 4.6 C
278 26-01-2019 23:05:00 5.8 C 92 % 4.6 C
279 26-01-2019 23:10:00 5.7 C 92 % 4.5 C
280 26-01-2019 23:15:00 5.6 C 92 % 4.41 C
281 26-01-2019 23:20:00 5.5 C 93 % 4.46 C
282 26-01-2019 23:25:00 5.5 C 93 % 4.46 C
283 26-01-2019 23:30:00 5.4 C 93 % 4.36 C
284 26-01-2019 23:35:00 5.4 C 93 % 4.36 C
285 26-01-2019 23:40:00 5.4 C 93 % 4.36 C
286 26-01-2019 23:45:00 5.4 C 94 % 4.51 C
287 26-01-2019 23:50:00 5.4 C 94 % 4.51 C
288 26-01-2019 23:55:00 5.5 C 94 % 4.61 C
289 27-01-2019 00:00:00 5.6 C 94 % 4.71 C
290 27-01-2019 00:05:00 5.7 C 94 % 4.81 C
291 27-01-2019 00:10:00 5.8 C 93 % 4.76 C
292 27-01-2019 00:15:00 5.8 C 93 % 4.76 C
293 27-01-2019 00:20:00 5.8 C 93 % 4.76 C
294 27-01-2019 00:25:00 5.9 C 93 % 4.86 C
295 27-01-2019 00:30:00 5.9 C 92 % 4.7 C
296 27-01-2019 00:35:00 5.9 C 92 % 4.7 C
297 27-01-2019 00:40:00 5.8 C 92 % 4.6 C
298 27-01-2019 00:45:00 5.8 C 92 % 4.6 C
299 27-01-2019 00:50:00 5.8 C 92 % 4.6 C
300 27-01-2019 00:55:00 5.8 C 92 % 4.6 C
Sensor: Nr:Datum:Temp:Feuchte:Taupunkt:
Aussen-T/F 301 27-01-2019 01:00:00 5.7 C 93 % 4.66 C
302 27-01-2019 01:05:00 5.7 C 93 % 4.66 C
303 27-01-2019 01:10:00 5.7 C 93 % 4.66 C
304 27-01-2019 01:15:00 5.8 C 93 % 4.76 C
305 27-01-2019 01:20:00 5.7 C 93 % 4.66 C
306 27-01-2019 01:25:00 5.7 C 93 % 4.66 C
307 27-01-2019 01:30:00 5.6 C 93 % 4.56 C
308 27-01-2019 01:35:00 5.7 C 93 % 4.66 C
309 27-01-2019 01:40:00 5.7 C 93 % 4.66 C
310 27-01-2019 01:45:00 5.7 C 93 % 4.66 C
311 27-01-2019 01:50:00 5.7 C 93 % 4.66 C
312 27-01-2019 01:55:00 5.7 C 93 % 4.66 C
313 27-01-2019 02:00:00 5.7 C 93 % 4.66 C
314 27-01-2019 02:05:00 5.8 C 93 % 4.76 C
315 27-01-2019 02:10:00 5.8 C 93 % 4.76 C
316 27-01-2019 02:15:00 5.8 C 93 % 4.76 C
317 27-01-2019 02:20:00 5.9 C 92 % 4.7 C
318 27-01-2019 02:25:00 5.9 C 92 % 4.7 C
319 27-01-2019 02:30:00 6 C 92 % 4.8 C
320 27-01-2019 02:35:00 6.1 C 92 % 4.9 C
321 27-01-2019 02:40:00 6.1 C 92 % 4.9 C
322 27-01-2019 02:45:00 6.1 C 92 % 4.9 C
323 27-01-2019 02:50:00 6.2 C 92 % 5 C
324 27-01-2019 02:55:00 6.3 C 91 % 4.94 C
325 27-01-2019 03:00:00 6.3 C 91 % 4.94 C
Sensor: Nr:Datum:Temp:Feuchte:Taupunkt:
Aussen-T/F 326 27-01-2019 03:05:00 6.3 C 91 % 4.94 C
327 27-01-2019 03:10:00 6.3 C 91 % 4.94 C
328 27-01-2019 03:15:00 6.3 C 91 % 4.94 C
329 27-01-2019 03:20:00 6.4 C 91 % 5.04 C
330 27-01-2019 03:25:00 6.4 C 91 % 5.04 C
331 27-01-2019 03:30:00 6.5 C 90 % 4.98 C
332 27-01-2019 03:35:00 6.5 C 90 % 4.98 C
333 27-01-2019 03:40:00 6.5 C 90 % 4.98 C
334 27-01-2019 03:45:00 6.5 C 91 % 5.14 C
335 27-01-2019 03:50:00 6.5 C 91 % 5.14 C
336 27-01-2019 03:55:00 6.5 C 90 % 4.98 C
337 27-01-2019 04:00:00 6.5 C 90 % 4.98 C
338 27-01-2019 04:05:00 6.4 C 90 % 4.88 C
339 27-01-2019 04:10:00 6.4 C 90 % 4.88 C
340 27-01-2019 04:15:00 6.4 C 91 % 5.04 C
341 27-01-2019 04:20:00 6.3 C 91 % 4.94 C
342 27-01-2019 04:25:00 6.2 C 91 % 4.84 C
343 27-01-2019 04:30:00 6.2 C 92 % 5 C
344 27-01-2019 04:35:00 6.1 C 91 % 4.74 C
345 27-01-2019 04:40:00 6 C 92 % 4.8 C
346 27-01-2019 04:45:00 5.9 C 92 % 4.7 C
347 27-01-2019 04:50:00 5.9 C 92 % 4.7 C
348 27-01-2019 04:55:00 5.9 C 92 % 4.7 C
349 27-01-2019 05:00:00 5.9 C 92 % 4.7 C
350 27-01-2019 05:05:00 5.9 C 92 % 4.7 C
Sensor: Nr:Datum:Temp:Feuchte:Taupunkt:
Aussen-T/F 351 27-01-2019 05:10:00 5.9 C 92 % 4.7 C
352 27-01-2019 05:15:00 5.9 C 92 % 4.7 C
353 27-01-2019 05:20:00 5.9 C 92 % 4.7 C
354 27-01-2019 05:25:00 5.9 C 92 % 4.7 C
355 27-01-2019 05:30:00 5.9 C 91 % 4.55 C
356 27-01-2019 05:35:00 5.9 C 91 % 4.55 C
357 27-01-2019 05:40:00 5.9 C 91 % 4.55 C
358 27-01-2019 05:45:00 5.9 C 91 % 4.55 C
359 27-01-2019 05:50:00 5.9 C 91 % 4.55 C
360 27-01-2019 05:55:00 5.9 C 91 % 4.55 C
361 27-01-2019 06:00:00 5.9 C 91 % 4.55 C
362 27-01-2019 06:05:00 6 C 91 % 4.65 C
363 27-01-2019 06:10:00 6.1 C 91 % 4.74 C
364 27-01-2019 06:15:00 6.1 C 90 % 4.59 C
365 27-01-2019 06:20:00 6.1 C 90 % 4.59 C
366 27-01-2019 06:25:00 6.1 C 90 % 4.59 C
367 27-01-2019 06:30:00 6.2 C 90 % 4.69 C
368 27-01-2019 06:35:00 6.2 C 90 % 4.69 C
369 27-01-2019 06:40:00 6.2 C 90 % 4.69 C
370 27-01-2019 06:45:00 6.2 C 90 % 4.69 C
371 27-01-2019 06:50:00 6.2 C 91 % 4.84 C
372 27-01-2019 06:55:00 6.3 C 91 % 4.94 C
373 27-01-2019 07:00:00 6.4 C 91 % 5.04 C
374 27-01-2019 07:05:00 6.4 C 90 % 4.88 C
375 27-01-2019 07:10:00 6.4 C 90 % 4.88 C
Sensor: Nr:Datum:Temp:Feuchte:Taupunkt:
Aussen-T/F 376 27-01-2019 07:15:00 6.5 C 91 % 5.14 C
377 27-01-2019 07:20:00 6.5 C 91 % 5.14 C
378 27-01-2019 07:25:00 6.6 C 91 % 5.24 C
379 27-01-2019 07:30:00 6.6 C 91 % 5.24 C
380 27-01-2019 07:35:00 6.6 C 91 % 5.24 C
381 27-01-2019 07:40:00 6.6 C 91 % 5.24 C
382 27-01-2019 07:45:00 6.6 C 91 % 5.24 C
383 27-01-2019 07:50:00 6.6 C 91 % 5.24 C
384 27-01-2019 07:55:00 6.4 C 91 % 5.04 C
385 27-01-2019 08:00:00 6.4 C 91 % 5.04 C
386 27-01-2019 08:05:00 6.4 C 91 % 5.04 C
387 27-01-2019 08:10:00 6.6 C 91 % 5.24 C
388 27-01-2019 08:15:00 6.6 C 90 % 5.08 C
389 27-01-2019 08:20:00 6.6 C 90 % 5.08 C
390 27-01-2019 08:25:00 6.6 C 90 % 5.08 C
391 27-01-2019 08:30:00 6.6 C 90 % 5.08 C
392 27-01-2019 08:35:00 6.6 C 90 % 5.08 C
393 27-01-2019 08:40:00 6.5 C 91 % 5.14 C
394 27-01-2019 08:45:00 6.4 C 91 % 5.04 C
395 27-01-2019 08:50:00 6.4 C 92 % 5.2 C
396 27-01-2019 08:55:00 6.3 C 92 % 5.1 C
397 27-01-2019 09:00:00 6.3 C 92 % 5.1 C
398 27-01-2019 09:05:00 6.2 C 92 % 5 C
399 27-01-2019 09:10:00 6.2 C 93 % 5.15 C
400 27-01-2019 09:15:00 6.1 C 93 % 5.06 C
Sensor: Nr:Datum:Temp:Feuchte:Taupunkt:
Aussen-T/F 401 27-01-2019 09:20:00 6.1 C 93 % 5.06 C
402 27-01-2019 09:25:00 6 C 93 % 4.96 C
403 27-01-2019 09:30:00 5.9 C 93 % 4.86 C
404 27-01-2019 09:35:00 5.9 C 93 % 4.86 C
405 27-01-2019 09:40:00 5.9 C 93 % 4.86 C
406 27-01-2019 09:45:00 5.8 C 94 % 4.91 C
407 27-01-2019 09:50:00 5.8 C 94 % 4.91 C
408 27-01-2019 09:55:00 5.7 C 94 % 4.81 C
409 27-01-2019 10:00:00 5.7 C 94 % 4.81 C
410 27-01-2019 10:05:00 5.7 C 94 % 4.81 C
411 27-01-2019 10:10:00 5.7 C 94 % 4.81 C
412 27-01-2019 10:15:00 5.6 C 94 % 4.71 C
413 27-01-2019 10:20:00 5.5 C 95 % 4.76 C
414 27-01-2019 10:25:00 5.4 C 94 % 4.51 C
415 27-01-2019 10:30:00 5.4 C 95 % 4.66 C
416 27-01-2019 10:35:00 5.6 C 95 % 4.86 C
417 27-01-2019 10:40:00 5.8 C 95 % 5.06 C
418 27-01-2019 10:45:00 6 C 96 % 5.41 C
419 27-01-2019 10:50:00 6.2 C 95 % 5.46 C
420 27-01-2019 10:55:00 6.3 C 95 % 5.56 C
421 27-01-2019 11:00:00 6.4 C 95 % 5.66 C
422 27-01-2019 11:05:00 6.6 C 94 % 5.71 C
423 27-01-2019 11:10:00 6.7 C 94 % 5.8 C
424 27-01-2019 11:15:00 6.8 C 93 % 5.75 C
425 27-01-2019 11:20:00 6.9 C 92 % 5.69 C
Sensor: Nr:Datum:Temp:Feuchte:Taupunkt:
Aussen-T/F 426 27-01-2019 11:25:00 7.1 C 92 % 5.89 C
427 27-01-2019 11:30:00 7.2 C 91 % 5.83 C
428 27-01-2019 11:35:00 7.2 C 90 % 5.67 C
429 27-01-2019 11:40:00 7.3 C 90 % 5.77 C
430 27-01-2019 11:45:00 7.3 C 90 % 5.77 C
431 27-01-2019 11:50:00 7.4 C 90 % 5.87 C
432 27-01-2019 11:55:00 7.4 C 90 % 5.87 C
433 27-01-2019 12:00:00 7.6 C 90 % 6.07 C
434 27-01-2019 12:05:00 7.6 C 89 % 5.91 C
435 27-01-2019 12:10:00 7.7 C 89 % 6 C
436 27-01-2019 12:15:00 7.7 C 88 % 5.84 C
437 27-01-2019 12:20:00 7.7 C 88 % 5.84 C
438 27-01-2019 12:25:00 7.7 C 87 % 5.68 C
439 27-01-2019 12:30:00 7.7 C 86 % 5.51 C
440 27-01-2019 12:35:00 7.7 C 86 % 5.51 C
441 27-01-2019 12:40:00 7.8 C 87 % 5.78 C
442 27-01-2019 12:45:00 7.7 C 87 % 5.68 C
443 27-01-2019 12:50:00 7.7 C 86 % 5.51 C
444 27-01-2019 12:55:00 7.7 C 86 % 5.51 C
445 27-01-2019 13:00:00 7.6 C 86 % 5.41 C
446 27-01-2019 13:05:00 7.6 C 86 % 5.41 C
447 27-01-2019 13:10:00 7.6 C 86 % 5.41 C
448 27-01-2019 13:15:00 7.6 C 87 % 5.58 C
449 27-01-2019 13:20:00 7.6 C 87 % 5.58 C
450 27-01-2019 13:25:00 7.6 C 87 % 5.58 C
Sensor: Nr:Datum:Temp:Feuchte:Taupunkt:
Aussen-T/F 451 27-01-2019 13:30:00 7.7 C 87 % 5.68 C
452 27-01-2019 13:35:00 7.8 C 88 % 5.94 C
453 27-01-2019 13:40:00 7.8 C 87 % 5.78 C
454 27-01-2019 13:45:00 8 C 87 % 5.97 C
455 27-01-2019 13:50:00 8.1 C 86 % 5.9 C
456 27-01-2019 13:55:00 8.1 C 86 % 5.9 C
457 27-01-2019 14:00:00 8.1 C 86 % 5.9 C
458 27-01-2019 14:05:00 8.2 C 85 % 5.83 C
459 27-01-2019 14:10:00 8.2 C 85 % 5.83 C
460 27-01-2019 14:15:00 8.3 C 84 % 5.76 C
461 27-01-2019 14:20:00 8.3 C 84 % 5.76 C
462 27-01-2019 14:25:00 8.2 C 84 % 5.66 C
463 27-01-2019 14:30:00 8.1 C 84 % 5.56 C
464 27-01-2019 14:35:00 8.1 C 85 % 5.73 C
465 27-01-2019 14:40:00 8.2 C 85 % 5.83 C
466 27-01-2019 14:45:00 8.2 C 85 % 5.83 C
467 27-01-2019 14:50:00 8.1 C 85 % 5.73 C
468 27-01-2019 14:55:00 8.1 C 85 % 5.73 C
469 27-01-2019 15:00:00 8 C 85 % 5.64 C
470 27-01-2019 15:05:00 7.9 C 86 % 5.71 C
471 27-01-2019 15:10:00 7.9 C 86 % 5.71 C
472 27-01-2019 15:15:00 7.9 C 86 % 5.71 C
473 27-01-2019 15:20:00 7.9 C 87 % 5.87 C
474 27-01-2019 15:25:00 7.8 C 87 % 5.78 C
475 27-01-2019 15:30:00 7.8 C 88 % 5.94 C
Sensor: Nr:Datum:Temp:Feuchte:Taupunkt:
Aussen-T/F 476 27-01-2019 15:35:00 7.7 C 89 % 6 C
477 27-01-2019 15:40:00 7.6 C 89 % 5.91 C
478 27-01-2019 15:45:00 7.5 C 90 % 5.97 C
479 27-01-2019 15:50:00 7.4 C 90 % 5.87 C
480 27-01-2019 15:55:00 7.4 C 90 % 5.87 C
481 27-01-2019 16:00:00 7.4 C 90 % 5.87 C
482 27-01-2019 16:05:00 7.3 C 90 % 5.77 C
483 27-01-2019 16:10:00 7.3 C 91 % 5.93 C
484 27-01-2019 16:15:00 7.2 C 90 % 5.67 C
485 27-01-2019 16:20:00 7.1 C 89 % 5.41 C
486 27-01-2019 16:25:00 7.1 C 89 % 5.41 C
487 27-01-2019 16:30:00 7 C 89 % 5.31 C
488 27-01-2019 16:35:00 7 C 88 % 5.15 C
489 27-01-2019 16:40:00 6.9 C 88 % 5.05 C
490 27-01-2019 16:45:00 6.9 C 88 % 5.05 C
491 27-01-2019 16:50:00 6.8 C 88 % 4.96 C
492 27-01-2019 16:55:00 6.8 C 88 % 4.96 C
493 27-01-2019 17:00:00 6.8 C 88 % 4.96 C
494 27-01-2019 17:05:00 6.7 C 88 % 4.86 C
495 27-01-2019 17:10:00 6.7 C 88 % 4.86 C
496 27-01-2019 17:15:00 6.6 C 88 % 4.76 C
497 27-01-2019 17:20:00 6.6 C 88 % 4.76 C
498 27-01-2019 17:25:00 6.6 C 88 % 4.76 C
499 27-01-2019 17:30:00 6.6 C 88 % 4.76 C
500 27-01-2019 17:35:00 6.6 C 88 % 4.76 C
Sensor: Nr:Datum:Temp:Feuchte:Taupunkt:
Aussen-T/F 501 27-01-2019 17:40:00 6.6 C 88 % 4.76 C
502 27-01-2019 17:45:00 6.6 C 87 % 4.6 C
503 27-01-2019 17:50:00 6.5 C 87 % 4.5 C
504 27-01-2019 17:55:00 6.3 C 87 % 4.3 C
505 27-01-2019 18:00:00 6.1 C 88 % 4.27 C
506 27-01-2019 18:05:00 6 C 89 % 4.33 C
507 27-01-2019 18:10:00 5.9 C 89 % 4.23 C
508 27-01-2019 18:15:00 5.8 C 89 % 4.13 C
509 27-01-2019 18:20:00 5.7 C 90 % 4.19 C
510 27-01-2019 18:25:00 5.6 C 90 % 4.09 C
511 27-01-2019 18:30:00 5.4 C 90 % 3.89 C
512 27-01-2019 18:35:00 5.3 C 90 % 3.8 C
513 27-01-2019 18:40:00 5.2 C 90 % 3.7 C
514 27-01-2019 18:45:00 5.1 C 90 % 3.6 C
515 27-01-2019 18:50:00 5 C 90 % 3.5 C
516 27-01-2019 18:55:00 4.9 C 89 % 3.24 C
517 27-01-2019 19:00:00 4.8 C 90 % 3.3 C
518 27-01-2019 19:05:00 4.8 C 90 % 3.3 C
519 27-01-2019 19:10:00 4.7 C 90 % 3.2 C
520 27-01-2019 19:15:00 4.6 C 90 % 3.1 C
521 27-01-2019 19:20:00 4.6 C 90 % 3.1 C
522 27-01-2019 19:25:00 4.5 C 91 % 3.16 C
523 27-01-2019 19:30:00 4.5 C 90 % 3.01 C
524 27-01-2019 19:35:00 4.4 C 91 % 3.06 C
525 27-01-2019 19:40:00 4.4 C 91 % 3.06 C
Sensor: Nr:Datum:Temp:Feuchte:Taupunkt:
Aussen-T/F 526 27-01-2019 19:45:00 4.4 C 91 % 3.06 C
527 27-01-2019 19:50:00 4.4 C 91 % 3.06 C
528 27-01-2019 19:55:00 4.3 C 91 % 2.96 C
529 27-01-2019 20:00:00 4.2 C 91 % 2.87 C
530 27-01-2019 20:05:00 4.2 C 91 % 2.87 C
531 27-01-2019 20:10:00 4 C 91 % 2.67 C
532 27-01-2019 20:15:00 3.9 C 90 % 2.41 C
533 27-01-2019 20:20:00 3.9 C 90 % 2.41 C
534 27-01-2019 20:25:00 3.8 C 90 % 2.31 C
535 27-01-2019 20:30:00 3.8 C 89 % 2.16 C
536 27-01-2019 20:35:00 3.8 C 88 % 2 C
537 27-01-2019 20:40:00 3.8 C 87 % 1.84 C
538 27-01-2019 20:45:00 3.8 C 87 % 1.84 C
539 27-01-2019 20:50:00 3.8 C 88 % 2 C
540 27-01-2019 20:55:00 3.7 C 87 % 1.74 C
541 27-01-2019 21:00:00 3.7 C 87 % 1.74 C
542 27-01-2019 21:05:00 3.7 C 88 % 1.9 C
543 27-01-2019 21:10:00 3.7 C 88 % 1.9 C
544 27-01-2019 21:15:00 3.6 C 88 % 1.8 C
545 27-01-2019 21:20:00 3.6 C 89 % 1.96 C
546 27-01-2019 21:25:00 3.4 C 89 % 1.76 C
547 27-01-2019 21:30:00 3.3 C 89 % 1.67 C
548 27-01-2019 21:35:00 3.3 C 89 % 1.67 C
549 27-01-2019 21:40:00 3.3 C 89 % 1.67 C
550 27-01-2019 21:45:00 3.3 C 90 % 1.82 C
Sensor: Nr:Datum:Temp:Feuchte:Taupunkt:
Aussen-T/F 551 27-01-2019 21:50:00 3.3 C 90 % 1.82 C
552 27-01-2019 21:55:00 3.3 C 90 % 1.82 C
553 27-01-2019 22:00:00 3.3 C 90 % 1.82 C
554 27-01-2019 22:05:00 3.3 C 90 % 1.82 C
555 27-01-2019 22:10:00 3.3 C 90 % 1.82 C
556 27-01-2019 22:15:00 3.2 C 90 % 1.72 C
557 27-01-2019 22:20:00 3.2 C 90 % 1.72 C
558 27-01-2019 22:25:00 3.2 C 90 % 1.72 C
559 27-01-2019 22:30:00 3.2 C 90 % 1.72 C
560 27-01-2019 22:35:00 3.3 C 90 % 1.82 C
561 27-01-2019 22:40:00 3.3 C 90 % 1.82 C
562 27-01-2019 22:45:00 3.2 C 89 % 1.57 C
563 27-01-2019 22:50:00 3.3 C 89 % 1.67 C
564 27-01-2019 22:55:00 3.3 C 89 % 1.67 C
565 27-01-2019 23:00:00 3.4 C 88 % 1.61 C
566 27-01-2019 23:05:00 3.5 C 88 % 1.7 C
567 27-01-2019 23:10:00 3.4 C 88 % 1.61 C
568 27-01-2019 23:15:00 3.4 C 87 % 1.45 C
569 27-01-2019 23:20:00 3.3 C 88 % 1.51 C
570 27-01-2019 23:25:00 3.2 C 88 % 1.41 C
571 27-01-2019 23:30:00 3.1 C 88 % 1.31 C
572 27-01-2019 23:35:00 2.9 C 89 % 1.27 C
573 27-01-2019 23:40:00 2.9 C 89 % 1.27 C
574 27-01-2019 23:45:00 3 C 89 % 1.37 C
575 27-01-2019 23:50:00 2.9 C 89 % 1.27 C
Sensor: Nr:Datum:Temp:Feuchte:Taupunkt:
Aussen-T/F 576 27-01-2019 23:55:00 2.8 C 89 % 1.17 C
577 28-01-2019 00:00:00 2.8 C 90 % 1.33 C
578 28-01-2019 00:05:00 2.8 C 90 % 1.33 C
579 28-01-2019 00:10:00 2.8 C 90 % 1.33 C
580 28-01-2019 00:15:00 2.8 C 90 % 1.33 C
581 28-01-2019 00:20:00 2.9 C 90 % 1.43 C
582 28-01-2019 00:25:00 3.1 C 90 % 1.62 C
583 28-01-2019 00:30:00 3.2 C 90 % 1.72 C
584 28-01-2019 00:35:00 3.2 C 90 % 1.72 C
585 28-01-2019 00:40:00 3.2 C 90 % 1.72 C
586 28-01-2019 00:45:00 3.3 C 89 % 1.67 C
587 28-01-2019 00:50:00 3.3 C 89 % 1.67 C
588 28-01-2019 00:55:00 3.4 C 89 % 1.76 C
589 28-01-2019 01:00:00 3.4 C 89 % 1.76 C
590 28-01-2019 01:05:00 3.6 C 88 % 1.8 C
591 28-01-2019 01:10:00 3.6 C 88 % 1.8 C
592 28-01-2019 01:15:00 3.6 C 88 % 1.8 C
593 28-01-2019 01:20:00 3.5 C 88 % 1.7 C
594 28-01-2019 01:25:00 3.4 C 88 % 1.61 C
595 28-01-2019 01:30:00 3.3 C 88 % 1.51 C
596 28-01-2019 01:35:00 3.3 C 88 % 1.51 C
597 28-01-2019 01:40:00 3.3 C 89 % 1.67 C
598 28-01-2019 01:45:00 3.3 C 89 % 1.67 C
599 28-01-2019 01:50:00 3.3 C 89 % 1.67 C
600 28-01-2019 01:55:00 3.3 C 89 % 1.67 C
Sensor: Nr:Datum:Temp:Feuchte:Taupunkt:
Aussen-T/F 601 28-01-2019 02:00:00 3.3 C 89 % 1.67 C
602 28-01-2019 02:05:00 3.4 C 89 % 1.76 C
603 28-01-2019 02:10:00 3.4 C 89 % 1.76 C
604 28-01-2019 02:15:00 3.3 C 89 % 1.67 C
605 28-01-2019 02:20:00 3.3 C 89 % 1.67 C
606 28-01-2019 02:25:00 3.2 C 89 % 1.57 C
607 28-01-2019 02:30:00 3.2 C 89 % 1.57 C
608 28-01-2019 02:35:00 3.1 C 90 % 1.62 C
609 28-01-2019 02:40:00 3.1 C 90 % 1.62 C
610 28-01-2019 02:45:00 3.1 C 90 % 1.62 C
611 28-01-2019 02:50:00 3.1 C 90 % 1.62 C
612 28-01-2019 02:55:00 3.1 C 89 % 1.47 C
613 28-01-2019 03:00:00 3.1 C 89 % 1.47 C
614 28-01-2019 03:05:00 3.2 C 89 % 1.57 C
615 28-01-2019 03:10:00 3.2 C 89 % 1.57 C
616 28-01-2019 03:15:00 3.3 C 89 % 1.67 C
617 28-01-2019 03:20:00 3.3 C 89 % 1.67 C
618 28-01-2019 03:25:00 3.3 C 90 % 1.82 C
619 28-01-2019 03:30:00 3.3 C 90 % 1.82 C
620 28-01-2019 03:35:00 3.3 C 90 % 1.82 C
621 28-01-2019 03:40:00 3.3 C 90 % 1.82 C
622 28-01-2019 03:45:00 3.2 C 91 % 1.88 C
623 28-01-2019 03:50:00 3.2 C 91 % 1.88 C
624 28-01-2019 03:55:00 3.2 C 91 % 1.88 C
625 28-01-2019 04:00:00 3.2 C 91 % 1.88 C
Sensor: Nr:Datum:Temp:Feuchte:Taupunkt:
Aussen-T/F 626 28-01-2019 04:05:00 3.2 C 91 % 1.88 C
627 28-01-2019 04:10:00 3.2 C 91 % 1.88 C
628 28-01-2019 04:15:00 3.1 C 91 % 1.78 C
629 28-01-2019 04:20:00 3.2 C 91 % 1.88 C
630 28-01-2019 04:25:00 3.2 C 91 % 1.88 C
631 28-01-2019 04:30:00 3.2 C 90 % 1.72 C
632 28-01-2019 04:35:00 3.3 C 90 % 1.82 C
633 28-01-2019 04:40:00 3.3 C 90 % 1.82 C
634 28-01-2019 04:45:00 3.3 C 90 % 1.82 C
635 28-01-2019 04:50:00 3.3 C 90 % 1.82 C
636 28-01-2019 04:55:00 3.3 C 90 % 1.82 C
637 28-01-2019 05:00:00 3.2 C 90 % 1.72 C
638 28-01-2019 05:05:00 3.2 C 90 % 1.72 C
639 28-01-2019 05:10:00 3.2 C 90 % 1.72 C
640 28-01-2019 05:15:00 3.3 C 90 % 1.82 C
641 28-01-2019 05:20:00 3.3 C 90 % 1.82 C
642 28-01-2019 05:25:00 3.3 C 90 % 1.82 C
643 28-01-2019 05:30:00 3.3 C 90 % 1.82 C
644 28-01-2019 05:35:00 3.2 C 89 % 1.57 C
645 28-01-2019 05:40:00 3.3 C 89 % 1.67 C
646 28-01-2019 05:45:00 3.3 C 89 % 1.67 C
647 28-01-2019 05:50:00 3.3 C 89 % 1.67 C
648 28-01-2019 05:55:00 3.3 C 89 % 1.67 C
649 28-01-2019 06:00:00 3.3 C 89 % 1.67 C
650 28-01-2019 06:05:00 3.3 C 89 % 1.67 C
Sensor: Nr:Datum:Temp:Feuchte:Taupunkt:
Aussen-T/F 651 28-01-2019 06:10:00 3.3 C 89 % 1.67 C
652 28-01-2019 06:15:00 3.3 C 89 % 1.67 C
653 28-01-2019 06:20:00 3.3 C 89 % 1.67 C
654 28-01-2019 06:25:00 3.3 C 89 % 1.67 C
655 28-01-2019 06:30:00 3.2 C 90 % 1.72 C
656 28-01-2019 06:35:00 3.1 C 90 % 1.62 C
657 28-01-2019 06:40:00 3.1 C 91 % 1.78 C
658 28-01-2019 06:45:00 3 C 91 % 1.68 C
659 28-01-2019 06:50:00 2.9 C 91 % 1.58 C
660 28-01-2019 06:55:00 2.9 C 91 % 1.58 C
661 28-01-2019 07:00:00 2.9 C 92 % 1.73 C
662 28-01-2019 07:05:00 2.9 C 92 % 1.73 C
663 28-01-2019 07:10:00 2.8 C 92 % 1.63 C
664 28-01-2019 07:15:00 2.8 C 92 % 1.63 C
665 28-01-2019 07:20:00 2.7 C 92 % 1.53 C
666 28-01-2019 07:25:00 2.7 C 93 % 1.68 C
667 28-01-2019 07:30:00 2.7 C 93 % 1.68 C
668 28-01-2019 07:35:00 2.7 C 93 % 1.68 C
669 28-01-2019 07:40:00 2.6 C 93 % 1.59 C
670 28-01-2019 07:45:00 2.6 C 93 % 1.59 C
671 28-01-2019 07:50:00 2.6 C 94 % 1.73 C
672 28-01-2019 07:55:00 2.6 C 94 % 1.73 C
673 28-01-2019 08:00:00 2.6 C 93 % 1.59 C
674 28-01-2019 08:05:00 2.5 C 93 % 1.49 C
675 28-01-2019 08:10:00 2.5 C 94 % 1.63 C
Sensor: Nr:Datum:Temp:Feuchte:Taupunkt:
Aussen-T/F 676 28-01-2019 08:15:00 2.4 C 94 % 1.54 C
677 28-01-2019 08:20:00 2.5 C 94 % 1.63 C
678 28-01-2019 08:25:00 2.5 C 94 % 1.63 C
679 28-01-2019 08:30:00 2.5 C 94 % 1.63 C
680 28-01-2019 08:35:00 2.5 C 93 % 1.49 C
681 28-01-2019 08:40:00 2.5 C 93 % 1.49 C
682 28-01-2019 08:45:00 2.5 C 93 % 1.49 C
683 28-01-2019 08:50:00 2.5 C 94 % 1.63 C
684 28-01-2019 08:55:00 2.5 C 94 % 1.63 C
685 28-01-2019 09:00:00 2.4 C 94 % 1.54 C
686 28-01-2019 09:05:00 2.4 C 94 % 1.54 C
687 28-01-2019 09:10:00 2.4 C 94 % 1.54 C
688 28-01-2019 09:15:00 2.3 C 94 % 1.44 C
689 28-01-2019 09:20:00 2.3 C 94 % 1.44 C
690 28-01-2019 09:25:00 2.2 C 94 % 1.34 C
691 28-01-2019 09:30:00 2.1 C 94 % 1.24 C
692 28-01-2019 09:35:00 2.1 C 94 % 1.24 C
693 28-01-2019 09:40:00 2.1 C 95 % 1.38 C
694 28-01-2019 09:45:00 2.2 C 95 % 1.48 C
695 28-01-2019 09:50:00 2.2 C 95 % 1.48 C
696 28-01-2019 09:55:00 2.2 C 95 % 1.48 C
697 28-01-2019 10:00:00 2.2 C 95 % 1.48 C
698 28-01-2019 10:05:00 2.3 C 95 % 1.58 C
699 28-01-2019 10:10:00 2.3 C 95 % 1.58 C
700 28-01-2019 10:15:00 2.3 C 95 % 1.58 C
Sensor: Nr:Datum:Temp:Feuchte:Taupunkt:
Aussen-T/F 701 28-01-2019 10:20:00 2.3 C 95 % 1.58 C
702 28-01-2019 10:25:00 2.3 C 95 % 1.58 C
703 28-01-2019 10:30:00 2.4 C 95 % 1.68 C
704 28-01-2019 10:35:00 2.4 C 95 % 1.68 C
705 28-01-2019 10:40:00 2.5 C 95 % 1.78 C
706 28-01-2019 10:45:00 2.6 C 95 % 1.88 C
707 28-01-2019 10:50:00 2.6 C 95 % 1.88 C
708 28-01-2019 10:55:00 2.7 C 95 % 1.98 C
709 28-01-2019 11:00:00 2.7 C 95 % 1.98 C
710 28-01-2019 11:05:00 2.8 C 95 % 2.08 C
711 28-01-2019 11:10:00 2.8 C 95 % 2.08 C
712 28-01-2019 11:15:00 2.9 C 95 % 2.18 C
713 28-01-2019 11:20:00 2.9 C 95 % 2.18 C
714 28-01-2019 11:25:00 2.9 C 95 % 2.18 C
715 28-01-2019 11:30:00 2.9 C 95 % 2.18 C
716 28-01-2019 11:35:00 2.9 C 95 % 2.18 C
717 28-01-2019 11:40:00 3 C 95 % 2.28 C
718 28-01-2019 11:45:00 3.1 C 95 % 2.38 C
719 28-01-2019 11:50:00 3.1 C 95 % 2.38 C
720 28-01-2019 11:55:00 3.1 C 95 % 2.38 C
721 28-01-2019 12:00:00 3.1 C 95 % 2.38 C
722 28-01-2019 12:05:00 3.2 C 95 % 2.48 C
723 28-01-2019 12:10:00 3.2 C 95 % 2.48 C
724 28-01-2019 12:15:00 3.2 C 95 % 2.48 C
725 28-01-2019 12:20:00 3.3 C 95 % 2.58 C
Sensor: Nr:Datum:Temp:Feuchte:Taupunkt:
Aussen-T/F 726 28-01-2019 12:25:00 3.3 C 95 % 2.58 C
727 28-01-2019 12:30:00 3.3 C 95 % 2.58 C
728 28-01-2019 12:35:00 3.4 C 95 % 2.68 C
729 28-01-2019 12:40:00 3.4 C 94 % 2.53 C
730 28-01-2019 12:45:00 3.4 C 94 % 2.53 C
731 28-01-2019 12:50:00 3.4 C 94 % 2.53 C
732 28-01-2019 12:55:00 3.4 C 94 % 2.53 C
733 28-01-2019 13:00:00 3.3 C 94 % 2.43 C
734 28-01-2019 13:05:00 3.3 C 94 % 2.43 C
735 28-01-2019 13:10:00 3.3 C 95 % 2.58 C
736 28-01-2019 13:15:00 3.4 C 95 % 2.68 C
737 28-01-2019 13:20:00 3.4 C 95 % 2.68 C
738 28-01-2019 13:25:00 3.5 C 95 % 2.78 C
739 28-01-2019 13:30:00 3.6 C 95 % 2.88 C
740 28-01-2019 13:35:00 3.6 C 94 % 2.73 C
741 28-01-2019 13:40:00 3.7 C 94 % 2.83 C
742 28-01-2019 13:45:00 3.8 C 94 % 2.93 C
743 28-01-2019 13:50:00 3.8 C 94 % 2.93 C
744 28-01-2019 13:55:00 3.9 C 93 % 2.87 C
745 28-01-2019 14:00:00 3.9 C 93 % 2.87 C
746 28-01-2019 14:05:00 4 C 92 % 2.82 C
747 28-01-2019 14:10:00 4.1 C 92 % 2.92 C
748 28-01-2019 14:15:00 4.1 C 92 % 2.92 C
749 28-01-2019 14:20:00 4.1 C 92 % 2.92 C
750 28-01-2019 14:25:00 4.1 C 92 % 2.92 C
Sensor: Nr:Datum:Temp:Feuchte:Taupunkt:
Aussen-T/F 751 28-01-2019 14:30:00 4.1 C 92 % 2.92 C
752 28-01-2019 14:35:00 4 C 92 % 2.82 C
753 28-01-2019 14:40:00 4 C 92 % 2.82 C
754 28-01-2019 14:45:00 4 C 92 % 2.82 C
755 28-01-2019 14:50:00 4 C 92 % 2.82 C
756 28-01-2019 14:55:00 4 C 92 % 2.82 C
757 28-01-2019 15:00:00 4 C 91 % 2.67 C
758 28-01-2019 15:05:00 4.1 C 91 % 2.77 C
759 28-01-2019 15:10:00 4.1 C 91 % 2.77 C
760 28-01-2019 15:15:00 4.1 C 90 % 2.61 C
761 28-01-2019 15:20:00 4.1 C 90 % 2.61 C
762 28-01-2019 15:25:00 4.1 C 91 % 2.77 C
763 28-01-2019 15:30:00 4.1 C 91 % 2.77 C
764 28-01-2019 15:35:00 4 C 90 % 2.51 C
765 28-01-2019 15:40:00 3.9 C 91 % 2.57 C
766 28-01-2019 15:45:00 3.9 C 91 % 2.57 C
767 28-01-2019 15:50:00 3.9 C 91 % 2.57 C
768 28-01-2019 15:55:00 3.9 C 90 % 2.41 C
769 28-01-2019 16:00:00 3.9 C 90 % 2.41 C
770 28-01-2019 16:05:00 3.8 C 91 % 2.47 C
771 28-01-2019 16:10:00 3.6 C 91 % 2.27 C
772 28-01-2019 16:15:00 3.5 C 91 % 2.17 C
773 28-01-2019 16:20:00 3.4 C 92 % 2.23 C
774 28-01-2019 16:25:00 3.3 C 92 % 2.13 C
775 28-01-2019 16:30:00 3.3 C 92 % 2.13 C
Sensor: Nr:Datum:Temp:Feuchte:Taupunkt:
Aussen-T/F 776 28-01-2019 16:35:00 3.3 C 92 % 2.13 C
777 28-01-2019 16:40:00 3.3 C 92 % 2.13 C
778 28-01-2019 16:45:00 3.3 C 92 % 2.13 C
779 28-01-2019 16:50:00 3.3 C 92 % 2.13 C
780 28-01-2019 16:55:00 3.3 C 92 % 2.13 C
781 28-01-2019 17:00:00 3.2 C 92 % 2.03 C
782 28-01-2019 17:05:00 3.2 C 92 % 2.03 C
783 28-01-2019 17:10:00 3.1 C 92 % 1.93 C
784 28-01-2019 17:15:00 3.1 C 93 % 2.08 C
785 28-01-2019 17:20:00 3 C 93 % 1.98 C
786 28-01-2019 17:25:00 2.9 C 93 % 1.88 C
787 28-01-2019 17:30:00 2.9 C 93 % 1.88 C
788 28-01-2019 17:35:00 2.9 C 93 % 1.88 C
789 28-01-2019 17:40:00 2.8 C 93 % 1.78 C
790 28-01-2019 17:45:00 2.8 C 93 % 1.78 C
791 28-01-2019 17:50:00 2.9 C 93 % 1.88 C
792 28-01-2019 17:55:00 2.9 C 92 % 1.73 C
793 28-01-2019 18:00:00 2.9 C 92 % 1.73 C
794 28-01-2019 18:05:00 2.8 C 93 % 1.78 C
795 28-01-2019 18:10:00 2.9 C 93 % 1.88 C
796 28-01-2019 18:15:00 2.9 C 93 % 1.88 C
797 28-01-2019 18:20:00 2.9 C 93 % 1.88 C
798 28-01-2019 18:25:00 2.9 C 93 % 1.88 C
799 28-01-2019 18:30:00 2.9 C 93 % 1.88 C
800 28-01-2019 18:35:00 2.8 C 93 % 1.78 C
Sensor: Nr:Datum:Temp:Feuchte:Taupunkt:
Aussen-T/F 801 28-01-2019 18:40:00 2.8 C 93 % 1.78 C
802 28-01-2019 18:45:00 2.7 C 92 % 1.53 C
803 28-01-2019 18:50:00 2.6 C 92 % 1.43 C
804 28-01-2019 18:55:00 2.6 C 92 % 1.43 C
805 28-01-2019 19:00:00 2.6 C 92 % 1.43 C
806 28-01-2019 19:05:00 2.6 C 92 % 1.43 C
807 28-01-2019 19:10:00 2.7 C 91 % 1.38 C
808 28-01-2019 19:15:00 2.8 C 90 % 1.33 C
809 28-01-2019 19:20:00 2.9 C 89 % 1.27 C
810 28-01-2019 19:25:00 3 C 88 % 1.21 C
811 28-01-2019 19:30:00 3.1 C 88 % 1.31 C
812 28-01-2019 19:35:00 3.2 C 87 % 1.25 C
813 28-01-2019 19:40:00 3.2 C 86 % 1.09 C
814 28-01-2019 19:45:00 3.3 C 86 % 1.19 C
815 28-01-2019 19:50:00 3.3 C 88 % 1.51 C
816 28-01-2019 19:55:00 3.3 C 88 % 1.51 C
817 28-01-2019 20:00:00 3.2 C 87 % 1.25 C
818 28-01-2019 20:05:00 3.3 C 86 % 1.19 C
819 28-01-2019 20:10:00 3.5 C 86 % 1.38 C
820 28-01-2019 20:15:00 3.6 C 86 % 1.48 C
821 28-01-2019 20:20:00 3.7 C 85 % 1.42 C
822 28-01-2019 20:25:00 3.7 C 85 % 1.42 C
823 28-01-2019 20:30:00 3.6 C 85 % 1.32 C
824 28-01-2019 20:35:00 3.5 C 86 % 1.38 C
825 28-01-2019 20:40:00 3.4 C 86 % 1.29 C
Sensor: Nr:Datum:Temp:Feuchte:Taupunkt:
Aussen-T/F 826 28-01-2019 20:45:00 3.4 C 86 % 1.29 C
827 28-01-2019 20:50:00 3.4 C 86 % 1.29 C
828 28-01-2019 20:55:00 3.3 C 86 % 1.19 C
829 28-01-2019 21:00:00 3.3 C 87 % 1.35 C
830 28-01-2019 21:05:00 3.3 C 87 % 1.35 C
831 28-01-2019 21:10:00 3.3 C 87 % 1.35 C
832 28-01-2019 21:15:00 3.4 C 86 % 1.29 C
833 28-01-2019 21:20:00 3.4 C 86 % 1.29 C
834 28-01-2019 21:25:00 3.4 C 87 % 1.45 C
835 28-01-2019 21:30:00 3.3 C 87 % 1.35 C
836 28-01-2019 21:35:00 3.3 C 87 % 1.35 C
837 28-01-2019 21:40:00 3.3 C 87 % 1.35 C
838 28-01-2019 21:45:00 3.4 C 87 % 1.45 C
839 28-01-2019 21:50:00 3.4 C 87 % 1.45 C
840 28-01-2019 21:55:00 3.5 C 86 % 1.38 C
841 28-01-2019 22:00:00 3.6 C 86 % 1.48 C
842 28-01-2019 22:05:00 3.6 C 86 % 1.48 C
843 28-01-2019 22:10:00 3.6 C 86 % 1.48 C
844 28-01-2019 22:15:00 3.6 C 86 % 1.48 C
845 28-01-2019 22:20:00 3.5 C 86 % 1.38 C
846 28-01-2019 22:25:00 3.5 C 87 % 1.55 C
847 28-01-2019 22:30:00 3.4 C 87 % 1.45 C
848 28-01-2019 22:35:00 3.4 C 86 % 1.29 C
849 28-01-2019 22:40:00 3.4 C 86 % 1.29 C
850 28-01-2019 22:45:00 3.4 C 86 % 1.29 C
Sensor: Nr:Datum:Temp:Feuchte:Taupunkt:
Aussen-T/F 851 28-01-2019 22:50:00 3.4 C 86 % 1.29 C
852 28-01-2019 22:55:00 3.4 C 86 % 1.29 C
853 28-01-2019 23:00:00 3.5 C 86 % 1.38 C
854 28-01-2019 23:05:00 3.5 C 86 % 1.38 C
855 28-01-2019 23:10:00 3.5 C 86 % 1.38 C
856 28-01-2019 23:15:00 3.4 C 86 % 1.29 C
857 28-01-2019 23:20:00 3.4 C 87 % 1.45 C
858 28-01-2019 23:25:00 3.4 C 87 % 1.45 C
859 28-01-2019 23:30:00 3.3 C 88 % 1.51 C
860 28-01-2019 23:35:00 3.2 C 88 % 1.41 C
861 28-01-2019 23:40:00 3.2 C 88 % 1.41 C
862 28-01-2019 23:45:00 3.1 C 88 % 1.31 C
863 28-01-2019 23:50:00 3 C 88 % 1.21 C
864 28-01-2019 23:55:00 2.9 C 88 % 1.11 C
865 29-01-2019 00:00:00 2.9 C 88 % 1.11 C
866 29-01-2019 00:05:00 2.9 C 88 % 1.11 C
867 29-01-2019 00:10:00 2.8 C 88 % 1.02 C
868 29-01-2019 00:15:00 2.8 C 89 % 1.17 C
869 29-01-2019 00:20:00 2.8 C 89 % 1.17 C
870 29-01-2019 00:25:00 2.7 C 89 % 1.07 C
871 29-01-2019 00:30:00 2.7 C 89 % 1.07 C
872 29-01-2019 00:35:00 2.7 C 89 % 1.07 C
873 29-01-2019 00:40:00 2.7 C 89 % 1.07 C
874 29-01-2019 00:45:00 2.7 C 89 % 1.07 C
875 29-01-2019 00:50:00 2.7 C 89 % 1.07 C
Sensor: Nr:Datum:Temp:Feuchte:Taupunkt:
Aussen-T/F 876 29-01-2019 00:55:00 2.6 C 90 % 1.13 C
877 29-01-2019 01:00:00 2.6 C 90 % 1.13 C
878 29-01-2019 01:05:00 2.6 C 90 % 1.13 C
879 29-01-2019 01:10:00 2.6 C 90 % 1.13 C
880 29-01-2019 01:15:00 2.5 C 90 % 1.03 C
881 29-01-2019 01:20:00 2.6 C 90 % 1.13 C
882 29-01-2019 01:25:00 2.5 C 90 % 1.03 C
883 29-01-2019 01:30:00 2.4 C 91 % 1.08 C
884 29-01-2019 01:35:00 2.3 C 91 % 0.99 C
885 29-01-2019 01:40:00 2.2 C 91 % 0.89 C
886 29-01-2019 01:45:00 2.1 C 92 % 0.94 C
887 29-01-2019 01:50:00 2.1 C 92 % 0.94 C
888 29-01-2019 01:55:00 2.1 C 92 % 0.94 C
889 29-01-2019 02:00:00 2.1 C 92 % 0.94 C
890 29-01-2019 02:05:00 2 C 92 % 0.84 C
891 29-01-2019 02:10:00 1.9 C 92 % 0.74 C
892 29-01-2019 02:15:00 1.9 C 93 % 0.89 C
893 29-01-2019 02:20:00 1.9 C 93 % 0.89 C
894 29-01-2019 02:25:00 1.9 C 93 % 0.89 C
895 29-01-2019 02:30:00 1.9 C 93 % 0.89 C
896 29-01-2019 02:35:00 1.9 C 93 % 0.89 C
897 29-01-2019 02:40:00 1.9 C 93 % 0.89 C
898 29-01-2019 02:45:00 1.9 C 93 % 0.89 C
899 29-01-2019 02:50:00 1.9 C 93 % 0.89 C
900 29-01-2019 02:55:00 1.8 C 93 % 0.79 C
Sensor: Nr:Datum:Temp:Feuchte:Taupunkt:
Aussen-T/F 901 29-01-2019 03:00:00 1.7 C 93 % 0.69 C
902 29-01-2019 03:05:00 1.7 C 93 % 0.69 C
903 29-01-2019 03:10:00 1.7 C 94 % 0.84 C
904 29-01-2019 03:15:00 1.7 C 94 % 0.84 C
905 29-01-2019 03:20:00 1.7 C 94 % 0.84 C
906 29-01-2019 03:25:00 1.6 C 94 % 0.74 C
907 29-01-2019 03:30:00 1.6 C 94 % 0.74 C
908 29-01-2019 03:35:00 1.6 C 94 % 0.74 C
909 29-01-2019 03:40:00 1.6 C 94 % 0.74 C
910 29-01-2019 03:45:00 1.5 C 94 % 0.64 C
911 29-01-2019 03:50:00 1.4 C 94 % 0.54 C
912 29-01-2019 03:55:00 1.3 C 94 % 0.44 C
913 29-01-2019 04:00:00 1.2 C 94 % 0.34 C
914 29-01-2019 04:05:00 1.2 C 94 % 0.34 C
915 29-01-2019 04:10:00 1.1 C 94 % 0.24 C
916 29-01-2019 04:15:00 1.1 C 94 % 0.24 C
917 29-01-2019 04:20:00 1.1 C 94 % 0.24 C
918 29-01-2019 04:25:00 1 C 94 % 0.15 C
919 29-01-2019 04:30:00 1 C 94 % 0.15 C
920 29-01-2019 04:35:00 0.9 C 94 % 0.05 C
921 29-01-2019 04:40:00 0.9 C 94 % 0.05 C
922 29-01-2019 04:45:00 1 C 94 % 0.15 C
923 29-01-2019 04:50:00 1.1 C 94 % 0.24 C
924 29-01-2019 04:55:00 0.9 C 94 % 0.05 C
925 29-01-2019 05:00:00 0.8 C 94 % -0.05 C
Sensor: Nr:Datum:Temp:Feuchte:Taupunkt:
Aussen-T/F 926 29-01-2019 05:05:00 0.8 C 94 % -0.05 C
927 29-01-2019 05:10:00 0.7 C 94 % -0.15 C
928 29-01-2019 05:15:00 0.7 C 94 % -0.15 C
929 29-01-2019 05:20:00 0.7 C 94 % -0.15 C
930 29-01-2019 05:25:00 0.6 C 94 % -0.25 C
931 29-01-2019 05:30:00 0.6 C 94 % -0.25 C
932 29-01-2019 05:35:00 0.6 C 94 % -0.25 C
933 29-01-2019 05:40:00 0.6 C 94 % -0.25 C
934 29-01-2019 05:45:00 0.7 C 95 % -0.01 C
935 29-01-2019 05:50:00 0.7 C 95 % -0.01 C
936 29-01-2019 05:55:00 0.8 C 95 % 0.09 C
937 29-01-2019 06:00:00 0.9 C 95 % 0.19 C
938 29-01-2019 06:05:00 1 C 95 % 0.29 C
939 29-01-2019 06:10:00 1 C 95 % 0.29 C
940 29-01-2019 06:15:00 0.9 C 95 % 0.19 C
941 29-01-2019 06:20:00 0.9 C 94 % 0.05 C
942 29-01-2019 06:25:00 0.9 C 95 % 0.19 C
943 29-01-2019 06:30:00 0.9 C 95 % 0.19 C
944 29-01-2019 06:35:00 0.9 C 95 % 0.19 C
945 29-01-2019 06:40:00 0.9 C 95 % 0.19 C
946 29-01-2019 06:45:00 1 C 95 % 0.29 C
947 29-01-2019 06:50:00 1 C 95 % 0.29 C
948 29-01-2019 06:55:00 1.1 C 94 % 0.24 C
949 29-01-2019 07:00:00 1.1 C 94 % 0.24 C
950 29-01-2019 07:05:00 1.1 C 94 % 0.24 C
Sensor: Nr:Datum:Temp:Feuchte:Taupunkt:
Aussen-T/F 951 29-01-2019 07:10:00 1.1 C 94 % 0.24 C
952 29-01-2019 07:15:00 1.1 C 94 % 0.24 C
953 29-01-2019 07:20:00 1.2 C 94 % 0.34 C
954 29-01-2019 07:25:00 1.1 C 94 % 0.24 C
955 29-01-2019 07:30:00 1.1 C 94 % 0.24 C
956 29-01-2019 07:35:00 1.2 C 94 % 0.34 C
957 29-01-2019 07:40:00 1.2 C 94 % 0.34 C
958 29-01-2019 07:45:00 1.2 C 95 % 0.49 C
959 29-01-2019 07:50:00 1.2 C 94 % 0.34 C
960 29-01-2019 07:55:00 1.2 C 94 % 0.34 C
961 29-01-2019 08:00:00 1.2 C 94 % 0.34 C
962 29-01-2019 08:05:00 1.2 C 94 % 0.34 C
963 29-01-2019 08:10:00 1.2 C 94 % 0.34 C
964 29-01-2019 08:15:00 1.2 C 94 % 0.34 C
965 29-01-2019 08:20:00 1.2 C 94 % 0.34 C
966 29-01-2019 08:25:00 1.2 C 94 % 0.34 C
967 29-01-2019 08:30:00 1.2 C 94 % 0.34 C
968 29-01-2019 08:35:00 1.2 C 94 % 0.34 C
969 29-01-2019 08:40:00 1.2 C 94 % 0.34 C
970 29-01-2019 08:45:00 1.2 C 94 % 0.34 C
971 29-01-2019 08:50:00 1.1 C 94 % 0.24 C
972 29-01-2019 08:55:00 1.1 C 94 % 0.24 C
973 29-01-2019 09:00:00 1 C 94 % 0.15 C
974 29-01-2019 09:05:00 0.9 C 94 % 0.05 C
975 29-01-2019 09:10:00 0.9 C 94 % 0.05 C
Sensor: Nr:Datum:Temp:Feuchte:Taupunkt:
Aussen-T/F 976 29-01-2019 09:15:00 0.8 C 94 % -0.05 C
977 29-01-2019 09:20:00 0.8 C 94 % -0.05 C
978 29-01-2019 09:25:00 0.8 C 94 % -0.05 C
979 29-01-2019 09:30:00 0.9 C 94 % 0.05 C
980 29-01-2019 09:35:00 0.9 C 94 % 0.05 C
981 29-01-2019 09:40:00 1.1 C 94 % 0.24 C
982 29-01-2019 09:45:00 1.2 C 94 % 0.34 C
983 29-01-2019 09:50:00 1.3 C 94 % 0.44 C
984 29-01-2019 09:55:00 1.5 C 94 % 0.64 C
985 29-01-2019 10:00:00 1.6 C 93 % 0.59 C
986 29-01-2019 10:05:00 1.7 C 93 % 0.69 C
987 29-01-2019 10:10:00 1.8 C 92 % 0.64 C
988 29-01-2019 10:15:00 1.9 C 92 % 0.74 C
989 29-01-2019 10:20:00 2 C 92 % 0.84 C
990 29-01-2019 10:25:00 2.1 C 91 % 0.79 C
991 29-01-2019 10:30:00 2.2 C 91 % 0.89 C
992 29-01-2019 10:35:00 2.2 C 90 % 0.73 C
993 29-01-2019 10:40:00 2.3 C 90 % 0.83 C
994 29-01-2019 10:45:00 2.3 C 90 % 0.83 C
995 29-01-2019 10:50:00 2.3 C 89 % 0.68 C
996 29-01-2019 10:55:00 2.4 C 89 % 0.78 C
997 29-01-2019 11:00:00 2.5 C 89 % 0.88 C
998 29-01-2019 11:05:00 2.6 C 89 % 0.97 C
999 29-01-2019 11:10:00 2.7 C 88 % 0.92 C
1000 29-01-2019 11:15:00 2.8 C 88 % 1.02 C
Sensor: Nr:Datum:Temp:Feuchte:Taupunkt:
Aussen-T/F 1001 29-01-2019 11:20:00 2.8 C 88 % 1.02 C
1002 29-01-2019 11:25:00 2.9 C 88 % 1.11 C
1003 29-01-2019 11:30:00 2.9 C 88 % 1.11 C
1004 29-01-2019 11:35:00 3 C 88 % 1.21 C
1005 29-01-2019 11:40:00 3.1 C 87 % 1.15 C
1006 29-01-2019 11:45:00 3.2 C 87 % 1.25 C
1007 29-01-2019 11:50:00 3.2 C 87 % 1.25 C
1008 29-01-2019 11:55:00 3.3 C 87 % 1.35 C
1009 29-01-2019 12:00:00 3.4 C 86 % 1.29 C
1010 29-01-2019 12:05:00 3.4 C 86 % 1.29 C
1011 29-01-2019 12:10:00 3.5 C 86 % 1.38 C
1012 29-01-2019 12:15:00 3.5 C 86 % 1.38 C
1013 29-01-2019 12:20:00 3.6 C 86 % 1.48 C
1014 29-01-2019 12:25:00 3.6 C 86 % 1.48 C
1015 29-01-2019 12:30:00 3.7 C 86 % 1.58 C
1016 29-01-2019 12:35:00 3.7 C 85 % 1.42 C
1017 29-01-2019 12:40:00 3.8 C 85 % 1.52 C
1018 29-01-2019 12:45:00 3.8 C 84 % 1.35 C
1019 29-01-2019 12:50:00 3.8 C 84 % 1.35 C
1020 29-01-2019 12:55:00 3.8 C 84 % 1.35 C
1021 29-01-2019 13:00:00 3.8 C 84 % 1.35 C
1022 29-01-2019 13:05:00 3.9 C 84 % 1.45 C
1023 29-01-2019 13:10:00 3.9 C 84 % 1.45 C
1024 29-01-2019 13:15:00 4 C 84 % 1.55 C
1025 29-01-2019 13:20:00 4 C 84 % 1.55 C
Sensor: Nr:Datum:Temp:Feuchte:Taupunkt:
Aussen-T/F 1026 29-01-2019 13:25:00 3.9 C 84 % 1.45 C
1027 29-01-2019 13:30:00 4 C 84 % 1.55 C
1028 29-01-2019 13:35:00 4 C 84 % 1.55 C
1029 29-01-2019 13:40:00 4.1 C 84 % 1.65 C
1030 29-01-2019 13:45:00 4 C 84 % 1.55 C
1031 29-01-2019 13:50:00 4 C 83 % 1.38 C
1032 29-01-2019 13:55:00 4 C 84 % 1.55 C
1033 29-01-2019 14:00:00 4 C 83 % 1.38 C
1034 29-01-2019 14:05:00 4.1 C 83 % 1.48 C
1035 29-01-2019 14:10:00 4 C 83 % 1.38 C
1036 29-01-2019 14:15:00 4 C 83 % 1.38 C
1037 29-01-2019 14:20:00 3.9 C 82 % 1.12 C
1038 29-01-2019 14:25:00 3.9 C 83 % 1.28 C
1039 29-01-2019 14:30:00 3.8 C 83 % 1.19 C
1040 29-01-2019 14:35:00 3.7 C 83 % 1.09 C
1041 29-01-2019 14:40:00 3.7 C 83 % 1.09 C
1042 29-01-2019 14:45:00 3.7 C 83 % 1.09 C
1043 29-01-2019 14:50:00 3.7 C 82 % 0.92 C
1044 29-01-2019 14:55:00 3.7 C 82 % 0.92 C
1045 29-01-2019 15:00:00 3.7 C 81 % 0.75 C
1046 29-01-2019 15:05:00 3.7 C 82 % 0.92 C
1047 29-01-2019 15:10:00 3.7 C 82 % 0.92 C
1048 29-01-2019 15:15:00 3.7 C 82 % 0.92 C
1049 29-01-2019 15:20:00 3.8 C 81 % 0.85 C
1050 29-01-2019 15:25:00 3.8 C 82 % 1.02 C
Sensor: Nr:Datum:Temp:Feuchte:Taupunkt:
Aussen-T/F 1051 29-01-2019 15:30:00 3.8 C 82 % 1.02 C
1052 29-01-2019 15:35:00 3.8 C 82 % 1.02 C
1053 29-01-2019 15:40:00 3.9 C 81 % 0.95 C
1054 29-01-2019 15:45:00 3.9 C 81 % 0.95 C
1055 29-01-2019 15:50:00 3.9 C 81 % 0.95 C
1056 29-01-2019 15:55:00 3.9 C 81 % 0.95 C
1057 29-01-2019 16:00:00 4 C 81 % 1.04 C
1058 29-01-2019 16:05:00 3.9 C 80 % 0.77 C
1059 29-01-2019 16:10:00 3.9 C 81 % 0.95 C
1060 29-01-2019 16:15:00 3.9 C 80 % 0.77 C
1061 29-01-2019 16:20:00 3.9 C 80 % 0.77 C
1062 29-01-2019 16:25:00 3.8 C 81 % 0.85 C
1063 29-01-2019 16:30:00 3.8 C 83 % 1.19 C
1064 29-01-2019 16:35:00 3.7 C 81 % 0.75 C
1065 29-01-2019 16:40:00 3.7 C 83 % 1.09 C
1066 29-01-2019 16:45:00 3.6 C 83 % 0.99 C
1067 29-01-2019 16:50:00 3.6 C 83 % 0.99 C
1068 29-01-2019 16:55:00 3.4 C 83 % 0.79 C
1069 29-01-2019 17:00:00 3.4 C 84 % 0.96 C
1070 29-01-2019 17:05:00 3.2 C 84 % 0.76 C
1071 29-01-2019 17:10:00 3.1 C 83 % 0.5 C
1072 29-01-2019 17:15:00 2.9 C 83 % 0.31 C
1073 29-01-2019 17:20:00 2.9 C 84 % 0.47 C
1074 29-01-2019 17:25:00 2.8 C 84 % 0.37 C
1075 29-01-2019 17:30:00 2.7 C 84 % 0.27 C
Sensor: Nr:Datum:Temp:Feuchte:Taupunkt:
Aussen-T/F 1076 29-01-2019 17:35:00 2.7 C 85 % 0.44 C
1077 29-01-2019 17:40:00 2.6 C 86 % 0.5 C
1078 29-01-2019 17:45:00 2.4 C 86 % 0.3 C
1079 29-01-2019 17:50:00 2.4 C 86 % 0.3 C
1080 29-01-2019 17:55:00 2.3 C 86 % 0.21 C
1081 29-01-2019 18:00:00 2.2 C 86 % 0.11 C
1082 29-01-2019 18:05:00 2 C 86 % -0.09 C
1083 29-01-2019 18:10:00 1.8 C 86 % -0.29 C
1084 29-01-2019 18:15:00 1.7 C 86 % -0.38 C
1085 29-01-2019 18:20:00 1.4 C 87 % -0.52 C
1086 29-01-2019 18:25:00 1.3 C 87 % -0.62 C
1087 29-01-2019 18:30:00 1.1 C 87 % -0.82 C
1088 29-01-2019 18:35:00 1 C 88 % -0.76 C
1089 29-01-2019 18:40:00 0.9 C 88 % -0.86 C
1090 29-01-2019 18:45:00 0.8 C 88 % -0.96 C
1091 29-01-2019 18:50:00 0.7 C 89 % -0.9 C
1092 29-01-2019 18:55:00 0.7 C 89 % -0.9 C
1093 29-01-2019 19:00:00 0.6 C 89 % -1 C
1094 29-01-2019 19:05:00 0.6 C 90 % -0.85 C
1095 29-01-2019 19:10:00 0.5 C 90 % -0.95 C
1096 29-01-2019 19:15:00 0.5 C 90 % -0.95 C
1097 29-01-2019 19:20:00 0.4 C 90 % -1.04 C
1098 29-01-2019 19:25:00 0.3 C 90 % -1.14 C
1099 29-01-2019 19:30:00 0.2 C 90 % -1.24 C
1100 29-01-2019 19:35:00 0.1 C 90 % -1.34 C
Sensor: Nr:Datum:Temp:Feuchte:Taupunkt:
Aussen-T/F 1101 29-01-2019 19:40:00 0.1 C 90 % -1.34 C
1102 29-01-2019 19:45:00 0 C 90 % -1.44 C
1103 29-01-2019 19:50:00 -0.1 C 90 % -1.54 C
1104 29-01-2019 19:55:00 -0.1 C 90 % -1.54 C
1105 29-01-2019 20:00:00 -0.1 C 91 % -1.39 C
1106 29-01-2019 20:05:00 -0.2 C 90 % -1.64 C
1107 29-01-2019 20:10:00 -0.2 C 91 % -1.49 C
1108 29-01-2019 20:15:00 -0.2 C 91 % -1.49 C
1109 29-01-2019 20:20:00 -0.3 C 91 % -1.59 C
1110 29-01-2019 20:25:00 -0.3 C 91 % -1.59 C
1111 29-01-2019 20:30:00 -0.3 C 91 % -1.59 C
1112 29-01-2019 20:35:00 -0.3 C 91 % -1.59 C
1113 29-01-2019 20:40:00 -0.3 C 91 % -1.59 C
1114 29-01-2019 20:45:00 -0.3 C 91 % -1.59 C
1115 29-01-2019 20:50:00 -0.3 C 91 % -1.59 C
1116 29-01-2019 20:55:00 -0.3 C 91 % -1.59 C
1117 29-01-2019 21:00:00 -0.3 C 91 % -1.59 C
1118 29-01-2019 21:05:00 -0.3 C 91 % -1.59 C
1119 29-01-2019 21:10:00 -0.3 C 91 % -1.59 C
1120 29-01-2019 21:15:00 -0.3 C 91 % -1.59 C
1121 29-01-2019 21:20:00 -0.3 C 91 % -1.59 C
1122 29-01-2019 21:25:00 -0.3 C 91 % -1.59 C
1123 29-01-2019 21:30:00 -0.3 C 91 % -1.59 C
1124 29-01-2019 21:35:00 -0.3 C 91 % -1.59 C
1125 29-01-2019 21:40:00 -0.3 C 91 % -1.59 C
Sensor: Nr:Datum:Temp:Feuchte:Taupunkt:
Aussen-T/F 1126 29-01-2019 21:45:00 -0.3 C 91 % -1.59 C
1127 29-01-2019 21:50:00 -0.3 C 91 % -1.59 C
1128 29-01-2019 21:55:00 -0.3 C 91 % -1.59 C
1129 29-01-2019 22:00:00 -0.3 C 91 % -1.59 C
1130 29-01-2019 22:05:00 -0.3 C 91 % -1.59 C
1131 29-01-2019 22:10:00 -0.3 C 91 % -1.59 C
1132 29-01-2019 22:15:00 -0.4 C 91 % -1.69 C
1133 29-01-2019 22:20:00 -0.4 C 91 % -1.69 C
1134 29-01-2019 22:25:00 -0.4 C 91 % -1.69 C
1135 29-01-2019 22:30:00 -0.4 C 91 % -1.69 C
1136 29-01-2019 22:35:00 -0.4 C 91 % -1.69 C
1137 29-01-2019 22:40:00 -0.4 C 91 % -1.69 C
1138 29-01-2019 22:45:00 -0.4 C 92 % -1.54 C
1139 29-01-2019 22:50:00 -0.4 C 92 % -1.54 C
1140 29-01-2019 22:55:00 -0.4 C 92 % -1.54 C
1141 29-01-2019 23:00:00 -0.4 C 92 % -1.54 C
1142 29-01-2019 23:05:00 -0.5 C 92 % -1.64 C
1143 29-01-2019 23:10:00 -0.5 C 92 % -1.64 C
1144 29-01-2019 23:15:00 -0.5 C 92 % -1.64 C
1145 29-01-2019 23:20:00 -0.5 C 92 % -1.64 C
1146 29-01-2019 23:25:00 -0.6 C 92 % -1.74 C
1147 29-01-2019 23:30:00 -0.6 C 92 % -1.74 C
1148 29-01-2019 23:35:00 -0.6 C 92 % -1.74 C
1149 29-01-2019 23:40:00 -0.6 C 93 % -1.59 C
1150 29-01-2019 23:45:00 -0.6 C 93 % -1.59 C
Sensor: Nr:Datum:Temp:Feuchte:Taupunkt:
Aussen-T/F 1151 29-01-2019 23:50:00 -0.6 C 93 % -1.59 C
1152 29-01-2019 23:55:00 -0.6 C 93 % -1.59 C
1153 30-01-2019 00:00:00 -0.6 C 93 % -1.59 C
1154 30-01-2019 00:05:00 -0.6 C 93 % -1.59 C
1155 30-01-2019 00:10:00 -0.6 C 93 % -1.59 C
1156 30-01-2019 00:15:00 -0.6 C 93 % -1.59 C
1157 30-01-2019 00:20:00 -0.7 C 93 % -1.69 C
1158 30-01-2019 00:25:00 -0.5 C 93 % -1.49 C
1159 30-01-2019 00:30:00 -0.4 C 93 % -1.39 C
1160 30-01-2019 00:35:00 -0.4 C 93 % -1.39 C
1161 30-01-2019 00:40:00 -0.5 C 93 % -1.49 C
1162 30-01-2019 00:45:00 -0.5 C 93 % -1.49 C
1163 30-01-2019 00:50:00 -0.6 C 93 % -1.59 C
1164 30-01-2019 00:55:00 -0.6 C 93 % -1.59 C
1165 30-01-2019 01:00:00 -0.6 C 93 % -1.59 C
1166 30-01-2019 01:05:00 -0.6 C 93 % -1.59 C
1167 30-01-2019 01:10:00 -0.6 C 93 % -1.59 C
1168 30-01-2019 01:15:00 -0.7 C 93 % -1.69 C
1169 30-01-2019 01:20:00 -0.7 C 93 % -1.69 C
1170 30-01-2019 01:25:00 -0.7 C 93 % -1.69 C
1171 30-01-2019 01:30:00 -0.7 C 93 % -1.69 C
1172 30-01-2019 01:35:00 -0.7 C 93 % -1.69 C
1173 30-01-2019 01:40:00 -0.7 C 93 % -1.69 C
1174 30-01-2019 01:45:00 -0.7 C 93 % -1.69 C
1175 30-01-2019 01:50:00 -0.7 C 93 % -1.69 C
Sensor: Nr:Datum:Temp:Feuchte:Taupunkt:
Aussen-T/F 1176 30-01-2019 01:55:00 -0.7 C 93 % -1.69 C
1177 30-01-2019 02:00:00 -0.7 C 93 % -1.69 C
1178 30-01-2019 02:05:00 -0.8 C 93 % -1.79 C
1179 30-01-2019 02:10:00 -0.7 C 93 % -1.69 C
1180 30-01-2019 02:15:00 -0.8 C 93 % -1.79 C
1181 30-01-2019 02:20:00 -0.7 C 93 % -1.69 C
1182 30-01-2019 02:25:00 -0.7 C 93 % -1.69 C
1183 30-01-2019 02:30:00 -0.7 C 93 % -1.69 C
1184 30-01-2019 02:35:00 -0.7 C 93 % -1.69 C
1185 30-01-2019 02:40:00 -0.6 C 93 % -1.59 C
1186 30-01-2019 02:45:00 -0.6 C 93 % -1.59 C
1187 30-01-2019 02:50:00 -0.6 C 93 % -1.59 C
1188 30-01-2019 02:55:00 -0.6 C 93 % -1.59 C
1189 30-01-2019 03:00:00 -0.7 C 93 % -1.69 C
1190 30-01-2019 03:05:00 -0.7 C 93 % -1.69 C
1191 30-01-2019 03:10:00 -0.7 C 93 % -1.69 C
1192 30-01-2019 03:15:00 -0.8 C 92 % -1.93 C
1193 30-01-2019 03:20:00 -0.8 C 93 % -1.79 C
1194 30-01-2019 03:25:00 -0.8 C 93 % -1.79 C
1195 30-01-2019 03:30:00 -0.8 C 92 % -1.93 C
1196 30-01-2019 03:35:00 -0.8 C 92 % -1.93 C
1197 30-01-2019 03:40:00 -0.8 C 92 % -1.93 C
1198 30-01-2019 03:45:00 -0.9 C 92 % -2.03 C
1199 30-01-2019 03:50:00 -0.9 C 92 % -2.03 C
1200 30-01-2019 03:55:00 -0.9 C 92 % -2.03 C
Sensor: Nr:Datum:Temp:Feuchte:Taupunkt:
Aussen-T/F 1201 30-01-2019 04:00:00 -0.9 C 92 % -2.03 C
1202 30-01-2019 04:05:00 -0.9 C 92 % -2.03 C
1203 30-01-2019 04:10:00 -0.9 C 92 % -2.03 C
1204 30-01-2019 04:15:00 -0.9 C 92 % -2.03 C
1205 30-01-2019 04:20:00 -0.9 C 93 % -1.89 C
1206 30-01-2019 04:25:00 -0.9 C 93 % -1.89 C
1207 30-01-2019 04:30:00 -0.9 C 93 % -1.89 C
1208 30-01-2019 04:35:00 -0.9 C 93 % -1.89 C
1209 30-01-2019 04:40:00 -0.9 C 93 % -1.89 C
1210 30-01-2019 04:45:00 -0.8 C 93 % -1.79 C
1211 30-01-2019 04:50:00 -0.8 C 93 % -1.79 C
1212 30-01-2019 04:55:00 -0.8 C 93 % -1.79 C
1213 30-01-2019 05:00:00 -0.7 C 93 % -1.69 C
1214 30-01-2019 05:05:00 -0.7 C 92 % -1.83 C
1215 30-01-2019 05:10:00 -0.6 C 92 % -1.74 C
1216 30-01-2019 05:15:00 -0.6 C 92 % -1.74 C
1217 30-01-2019 05:20:00 -0.6 C 92 % -1.74 C
1218 30-01-2019 05:25:00 -0.6 C 92 % -1.74 C
1219 30-01-2019 05:30:00 -0.5 C 92 % -1.64 C
1220 30-01-2019 05:35:00 -0.5 C 92 % -1.64 C
1221 30-01-2019 05:40:00 -0.4 C 92 % -1.54 C
1222 30-01-2019 05:45:00 -0.4 C 92 % -1.54 C
1223 30-01-2019 05:50:00 -0.3 C 92 % -1.44 C
1224 30-01-2019 05:55:00 -0.3 C 91 % -1.59 C
1225 30-01-2019 06:00:00 -0.3 C 91 % -1.59 C
Sensor: Nr:Datum:Temp:Feuchte:Taupunkt:
Aussen-T/F 1226 30-01-2019 06:05:00 -0.2 C 91 % -1.49 C
1227 30-01-2019 06:10:00 -0.2 C 91 % -1.49 C
1228 30-01-2019 06:15:00 -0.2 C 91 % -1.49 C
1229 30-01-2019 06:20:00 -0.2 C 91 % -1.49 C
1230 30-01-2019 06:25:00 -0.1 C 91 % -1.39 C
1231 30-01-2019 06:30:00 -0.1 C 91 % -1.39 C
1232 30-01-2019 06:35:00 -0.1 C 90 % -1.54 C
1233 30-01-2019 06:40:00 -0.1 C 90 % -1.54 C
1234 30-01-2019 06:45:00 0 C 90 % -1.44 C
1235 30-01-2019 06:50:00 0.1 C 90 % -1.34 C
1236 30-01-2019 06:55:00 0.1 C 90 % -1.34 C
1237 30-01-2019 07:00:00 0.2 C 89 % -1.39 C
1238 30-01-2019 07:05:00 0.2 C 89 % -1.39 C
1239 30-01-2019 07:10:00 0.3 C 88 % -1.45 C
1240 30-01-2019 07:15:00 0.3 C 88 % -1.45 C
1241 30-01-2019 07:20:00 0.3 C 88 % -1.45 C
1242 30-01-2019 07:25:00 0.3 C 88 % -1.45 C
1243 30-01-2019 07:30:00 0.4 C 88 % -1.35 C
1244 30-01-2019 07:35:00 0.3 C 88 % -1.45 C
1245 30-01-2019 07:40:00 0.3 C 88 % -1.45 C
1246 30-01-2019 07:45:00 0.4 C 89 % -1.2 C
1247 30-01-2019 07:50:00 0.4 C 89 % -1.2 C
1248 30-01-2019 07:55:00 0.3 C 90 % -1.14 C
1249 30-01-2019 08:00:00 0.3 C 90 % -1.14 C
1250 30-01-2019 08:05:00 0.3 C 90 % -1.14 C
Sensor: Nr:Datum:Temp:Feuchte:Taupunkt:
Aussen-T/F 1251 30-01-2019 08:10:00 0.3 C 91 % -0.99 C
1252 30-01-2019 08:15:00 0.2 C 91 % -1.09 C
1253 30-01-2019 08:20:00 0.2 C 91 % -1.09 C
1254 30-01-2019 08:25:00 0.2 C 92 % -0.94 C
1255 30-01-2019 08:30:00 0.1 C 92 % -1.04 C
1256 30-01-2019 08:35:00 0.1 C 92 % -1.04 C
1257 30-01-2019 08:40:00 0.1 C 92 % -1.04 C
1258 30-01-2019 08:45:00 0.1 C 93 % -0.89 C
1259 30-01-2019 08:50:00 0.1 C 93 % -0.89 C
1260 30-01-2019 08:55:00 0 C 93 % -0.99 C
1261 30-01-2019 09:00:00 0 C 93 % -0.99 C
1262 30-01-2019 09:05:00 0 C 93 % -0.99 C
1263 30-01-2019 09:10:00 0 C 94 % -0.85 C
1264 30-01-2019 09:15:00 0 C 94 % -0.85 C
1265 30-01-2019 09:20:00 0 C 94 % -0.85 C
1266 30-01-2019 09:25:00 0 C 94 % -0.85 C
1267 30-01-2019 09:30:00 0 C 94 % -0.85 C
1268 30-01-2019 09:35:00 0 C 94 % -0.85 C
1269 30-01-2019 09:40:00 0 C 94 % -0.85 C
1270 30-01-2019 09:45:00 0.1 C 94 % -0.75 C
1271 30-01-2019 09:50:00 0.1 C 94 % -0.75 C
1272 30-01-2019 09:55:00 0.1 C 94 % -0.75 C
1273 30-01-2019 10:00:00 0.1 C 94 % -0.75 C
1274 30-01-2019 10:05:00 0.1 C 94 % -0.75 C
1275 30-01-2019 10:10:00 0.1 C 94 % -0.75 C
Sensor: Nr:Datum:Temp:Feuchte:Taupunkt:
Aussen-T/F 1276 30-01-2019 10:15:00 0.2 C 94 % -0.65 C
1277 30-01-2019 10:20:00 0.2 C 94 % -0.65 C
1278 30-01-2019 10:25:00 0.3 C 94 % -0.55 C
1279 30-01-2019 10:30:00 0.3 C 94 % -0.55 C
1280 30-01-2019 10:35:00 0.4 C 94 % -0.45 C
1281 30-01-2019 10:40:00 0.4 C 94 % -0.45 C
1282 30-01-2019 10:45:00 0.4 C 94 % -0.45 C
1283 30-01-2019 10:50:00 0.5 C 94 % -0.35 C
1284 30-01-2019 10:55:00 0.6 C 94 % -0.25 C
1285 30-01-2019 11:00:00 0.6 C 94 % -0.25 C
1286 30-01-2019 11:05:00 0.7 C 94 % -0.15 C
1287 30-01-2019 11:10:00 0.7 C 94 % -0.15 C
1288 30-01-2019 11:15:00 0.8 C 94 % -0.05 C
1289 30-01-2019 11:20:00 0.8 C 94 % -0.05 C
1290 30-01-2019 11:25:00 0.8 C 94 % -0.05 C
1291 30-01-2019 11:30:00 0.9 C 94 % 0.05 C
1292 30-01-2019 11:35:00 0.9 C 94 % 0.05 C
1293 30-01-2019 11:40:00 0.9 C 94 % 0.05 C
1294 30-01-2019 11:45:00 0.9 C 94 % 0.05 C
1295 30-01-2019 11:50:00 0.9 C 94 % 0.05 C
1296 30-01-2019 11:55:00 1 C 94 % 0.15 C
1297 30-01-2019 12:00:00 1.1 C 94 % 0.24 C
1298 30-01-2019 12:05:00 1.1 C 94 % 0.24 C
1299 30-01-2019 12:10:00 1.2 C 94 % 0.34 C
1300 30-01-2019 12:15:00 1.2 C 94 % 0.34 C
Sensor: Nr:Datum:Temp:Feuchte:Taupunkt:
Aussen-T/F 1301 30-01-2019 12:20:00 1.3 C 95 % 0.59 C
1302 30-01-2019 12:25:00 1.4 C 94 % 0.54 C
1303 30-01-2019 12:30:00 1.4 C 94 % 0.54 C
1304 30-01-2019 12:35:00 1.5 C 94 % 0.64 C
1305 30-01-2019 12:40:00 1.6 C 94 % 0.74 C
1306 30-01-2019 12:45:00 1.7 C 94 % 0.84 C
1307 30-01-2019 12:50:00 1.7 C 94 % 0.84 C
1308 30-01-2019 12:55:00 1.7 C 94 % 0.84 C
1309 30-01-2019 13:00:00 1.7 C 94 % 0.84 C
1310 30-01-2019 13:05:00 1.7 C 94 % 0.84 C
1311 30-01-2019 13:10:00 1.6 C 94 % 0.74 C
1312 30-01-2019 13:15:00 1.6 C 94 % 0.74 C
1313 30-01-2019 13:20:00 1.6 C 94 % 0.74 C
1314 30-01-2019 13:25:00 1.6 C 94 % 0.74 C
1315 30-01-2019 13:30:00 1.7 C 94 % 0.84 C
1316 30-01-2019 13:35:00 1.7 C 94 % 0.84 C
1317 30-01-2019 13:40:00 1.7 C 94 % 0.84 C
1318 30-01-2019 13:45:00 1.7 C 94 % 0.84 C
1319 30-01-2019 13:50:00 1.7 C 94 % 0.84 C
1320 30-01-2019 13:55:00 1.7 C 94 % 0.84 C
1321 30-01-2019 14:00:00 1.7 C 94 % 0.84 C
1322 30-01-2019 14:05:00 1.8 C 94 % 0.94 C
1323 30-01-2019 14:10:00 1.8 C 94 % 0.94 C
1324 30-01-2019 14:15:00 1.8 C 93 % 0.79 C
1325 30-01-2019 14:20:00 1.7 C 93 % 0.69 C
Sensor: Nr:Datum:Temp:Feuchte:Taupunkt:
Aussen-T/F 1326 30-01-2019 14:25:00 1.7 C 93 % 0.69 C
1327 30-01-2019 14:30:00 1.7 C 94 % 0.84 C
1328 30-01-2019 14:35:00 1.7 C 94 % 0.84 C
1329 30-01-2019 14:40:00 1.7 C 94 % 0.84 C
1330 30-01-2019 14:45:00 1.7 C 94 % 0.84 C
1331 30-01-2019 14:50:00 1.6 C 94 % 0.74 C
1332 30-01-2019 14:55:00 1.6 C 94 % 0.74 C
1333 30-01-2019 15:00:00 1.6 C 94 % 0.74 C
1334 30-01-2019 15:05:00 1.6 C 94 % 0.74 C
1335 30-01-2019 15:10:00 1.6 C 94 % 0.74 C
1336 30-01-2019 15:15:00 1.6 C 94 % 0.74 C
1337 30-01-2019 15:20:00 1.5 C 94 % 0.64 C
1338 30-01-2019 15:25:00 1.4 C 94 % 0.54 C
1339 30-01-2019 15:30:00 1.4 C 94 % 0.54 C
1340 30-01-2019 15:35:00 1.4 C 94 % 0.54 C
1341 30-01-2019 15:40:00 1.5 C 94 % 0.64 C
1342 30-01-2019 15:45:00 1.4 C 94 % 0.54 C
1343 30-01-2019 15:50:00 1.4 C 94 % 0.54 C
1344 30-01-2019 15:55:00 1.3 C 94 % 0.44 C
1345 30-01-2019 16:00:00 1.3 C 94 % 0.44 C
1346 30-01-2019 16:05:00 1.3 C 94 % 0.44 C
1347 30-01-2019 16:10:00 1.2 C 94 % 0.34 C
1348 30-01-2019 16:15:00 1.2 C 95 % 0.49 C
1349 30-01-2019 16:20:00 1.2 C 95 % 0.49 C
1350 30-01-2019 16:25:00 1.1 C 95 % 0.39 C
Sensor: Nr:Datum:Temp:Feuchte:Taupunkt:
Aussen-T/F 1351 30-01-2019 16:30:00 1.1 C 95 % 0.39 C
1352 30-01-2019 16:35:00 1.1 C 95 % 0.39 C
1353 30-01-2019 16:40:00 1.1 C 95 % 0.39 C
1354 30-01-2019 16:45:00 1.1 C 95 % 0.39 C
1355 30-01-2019 16:50:00 1.1 C 95 % 0.39 C
1356 30-01-2019 16:55:00 1.1 C 95 % 0.39 C
1357 30-01-2019 17:00:00 1.1 C 95 % 0.39 C
1358 30-01-2019 17:05:00 1.1 C 95 % 0.39 C
1359 30-01-2019 17:10:00 1.1 C 95 % 0.39 C
1360 30-01-2019 17:15:00 1.1 C 95 % 0.39 C
1361 30-01-2019 17:20:00 1.1 C 95 % 0.39 C
1362 30-01-2019 17:25:00 1.1 C 95 % 0.39 C
1363 30-01-2019 17:30:00 1.1 C 95 % 0.39 C
1364 30-01-2019 17:35:00 1.1 C 95 % 0.39 C
1365 30-01-2019 17:40:00 1.1 C 95 % 0.39 C
1366 30-01-2019 17:45:00 1.1 C 95 % 0.39 C
1367 30-01-2019 17:50:00 1.1 C 95 % 0.39 C
1368 30-01-2019 17:55:00 1.1 C 95 % 0.39 C
1369 30-01-2019 18:00:00 1.1 C 95 % 0.39 C
1370 30-01-2019 18:05:00 1.1 C 95 % 0.39 C
1371 30-01-2019 18:10:00 1.1 C 95 % 0.39 C
1372 30-01-2019 18:15:00 1 C 95 % 0.29 C
1373 30-01-2019 18:20:00 1.1 C 95 % 0.39 C
1374 30-01-2019 18:25:00 1 C 95 % 0.29 C
1375 30-01-2019 18:30:00 1.1 C 95 % 0.39 C
Sensor: Nr:Datum:Temp:Feuchte:Taupunkt:
Aussen-T/F 1376 30-01-2019 18:35:00 1 C 95 % 0.29 C
1377 30-01-2019 18:40:00 1.1 C 95 % 0.39 C
1378 30-01-2019 18:45:00 1.1 C 95 % 0.39 C
1379 30-01-2019 18:50:00 1.1 C 95 % 0.39 C
1380 30-01-2019 18:55:00 1.1 C 95 % 0.39 C
1381 30-01-2019 19:00:00 1.1 C 95 % 0.39 C
1382 30-01-2019 19:05:00 1.1 C 95 % 0.39 C
1383 30-01-2019 19:10:00 1.1 C 95 % 0.39 C
1384 30-01-2019 19:15:00 1.1 C 96 % 0.54 C
1385 30-01-2019 19:20:00 1.1 C 96 % 0.54 C
1386 30-01-2019 19:25:00 1.1 C 96 % 0.54 C
1387 30-01-2019 19:30:00 1.1 C 96 % 0.54 C
1388 30-01-2019 19:35:00 1.1 C 96 % 0.54 C
1389 30-01-2019 19:40:00 1.1 C 96 % 0.54 C
1390 30-01-2019 19:45:00 1.1 C 96 % 0.54 C
1391 30-01-2019 19:50:00 1 C 96 % 0.44 C
1392 30-01-2019 19:55:00 1 C 96 % 0.44 C
1393 30-01-2019 20:00:00 1 C 96 % 0.44 C
1394 30-01-2019 20:05:00 1 C 96 % 0.44 C
1395 30-01-2019 20:10:00 1 C 96 % 0.44 C
1396 30-01-2019 20:15:00 1 C 96 % 0.44 C
1397 30-01-2019 20:20:00 1.1 C 96 % 0.54 C
1398 30-01-2019 20:25:00 1.1 C 96 % 0.54 C
1399 30-01-2019 20:30:00 1.1 C 96 % 0.54 C
1400 30-01-2019 20:35:00 1.1 C 96 % 0.54 C
Sensor: Nr:Datum:Temp:Feuchte:Taupunkt:
Aussen-T/F 1401 30-01-2019 20:40:00 1 C 95 % 0.29 C
1402 30-01-2019 20:45:00 1 C 95 % 0.29 C
1403 30-01-2019 20:50:00 1 C 95 % 0.29 C
1404 30-01-2019 20:55:00 1 C 95 % 0.29 C
1405 30-01-2019 21:00:00 1 C 94 % 0.15 C
1406 30-01-2019 21:05:00 1 C 94 % 0.15 C
1407 30-01-2019 21:10:00 1 C 94 % 0.15 C
1408 30-01-2019 21:15:00 1 C 94 % 0.15 C
1409 30-01-2019 21:20:00 1 C 94 % 0.15 C
1410 30-01-2019 21:25:00 1 C 94 % 0.15 C
1411 30-01-2019 21:30:00 1 C 94 % 0.15 C
1412 30-01-2019 21:35:00 0.9 C 94 % 0.05 C
1413 30-01-2019 21:40:00 0.9 C 94 % 0.05 C
1414 30-01-2019 21:45:00 0.9 C 94 % 0.05 C
1415 30-01-2019 21:50:00 0.9 C 94 % 0.05 C
1416 30-01-2019 21:55:00 0.9 C 94 % 0.05 C
1417 30-01-2019 22:00:00 0.8 C 94 % -0.05 C
1418 30-01-2019 22:05:00 0.8 C 93 % -0.2 C
1419 30-01-2019 22:10:00 0.8 C 93 % -0.2 C
1420 30-01-2019 22:15:00 0.8 C 93 % -0.2 C
1421 30-01-2019 22:20:00 0.7 C 93 % -0.3 C
1422 30-01-2019 22:25:00 0.7 C 93 % -0.3 C
1423 30-01-2019 22:30:00 0.7 C 93 % -0.3 C
1424 30-01-2019 22:35:00 0.7 C 93 % -0.3 C
1425 30-01-2019 22:40:00 0.7 C 93 % -0.3 C
Sensor: Nr:Datum:Temp:Feuchte:Taupunkt:
Aussen-T/F 1426 30-01-2019 22:45:00 0.7 C 92 % -0.45 C
1427 30-01-2019 22:50:00 0.6 C 92 % -0.55 C
1428 30-01-2019 22:55:00 0.6 C 92 % -0.55 C
1429 30-01-2019 23:00:00 0.6 C 92 % -0.55 C
1430 30-01-2019 23:05:00 0.4 C 92 % -0.74 C
1431 30-01-2019 23:10:00 0.4 C 92 % -0.74 C
1432 30-01-2019 23:15:00 0.3 C 92 % -0.84 C
1433 30-01-2019 23:20:00 0.3 C 92 % -0.84 C
1434 30-01-2019 23:25:00 0.3 C 92 % -0.84 C
1435 30-01-2019 23:30:00 0.2 C 92 % -0.94 C
1436 30-01-2019 23:35:00 0.2 C 93 % -0.79 C
1437 30-01-2019 23:40:00 0.1 C 92 % -1.04 C
1438 30-01-2019 23:45:00 0.1 C 93 % -0.89 C
1439 30-01-2019 23:50:00 0 C 93 % -0.99 C
1440 30-01-2019 23:55:00 -0.1 C 93 % -1.09 C
1441 31-01-2019 00:00:00 -0.2 C 93 % -1.19 C
1442 31-01-2019 00:05:00 -0.2 C 93 % -1.19 C
1443 31-01-2019 00:10:00 -0.2 C 93 % -1.19 C
1444 31-01-2019 00:15:00 -0.2 C 93 % -1.19 C
1445 31-01-2019 00:20:00 -0.3 C 93 % -1.29 C
1446 31-01-2019 00:25:00 -0.3 C 93 % -1.29 C
1447 31-01-2019 00:30:00 -0.4 C 93 % -1.39 C
1448 31-01-2019 00:35:00 -0.4 C 93 % -1.39 C
1449 31-01-2019 00:40:00 -0.5 C 93 % -1.49 C
1450 31-01-2019 00:45:00 -0.6 C 93 % -1.59 C
Sensor: Nr:Datum:Temp:Feuchte:Taupunkt:
Aussen-T/F 1451 31-01-2019 00:50:00 -0.7 C 93 % -1.69 C
1452 31-01-2019 00:55:00 -0.8 C 93 % -1.79 C
1453 31-01-2019 01:00:00 -1 C 93 % -1.99 C
1454 31-01-2019 01:05:00 -1.1 C 93 % -2.09 C
1455 31-01-2019 01:10:00 -1.2 C 93 % -2.18 C
1456 31-01-2019 01:15:00 -1.3 C 93 % -2.28 C
1457 31-01-2019 01:20:00 -1.4 C 93 % -2.38 C
1458 31-01-2019 01:25:00 -1.4 C 94 % -2.24 C
1459 31-01-2019 01:30:00 -1.4 C 94 % -2.24 C
1460 31-01-2019 01:35:00 -1.4 C 94 % -2.24 C
1461 31-01-2019 01:40:00 -1.3 C 94 % -2.14 C
1462 31-01-2019 01:45:00 -1.2 C 95 % -1.9 C
1463 31-01-2019 01:50:00 -1.1 C 95 % -1.8 C
1464 31-01-2019 01:55:00 -1.1 C 95 % -1.8 C
1465 31-01-2019 02:00:00 -1.1 C 94 % -1.94 C
1466 31-01-2019 02:05:00 -1.2 C 94 % -2.04 C
1467 31-01-2019 02:10:00 -1.2 C 94 % -2.04 C
1468 31-01-2019 02:15:00 -1.2 C 94 % -2.04 C
1469 31-01-2019 02:20:00 -1.3 C 94 % -2.14 C
1470 31-01-2019 02:25:00 -1.3 C 95 % -2 C
1471 31-01-2019 02:30:00 -1.3 C 94 % -2.14 C
1472 31-01-2019 02:35:00 -1.3 C 95 % -2 C
1473 31-01-2019 02:40:00 -1.4 C 95 % -2.1 C
1474 31-01-2019 02:45:00 -1.4 C 95 % -2.1 C
1475 31-01-2019 02:50:00 -1.4 C 95 % -2.1 C
Sensor: Nr:Datum:Temp:Feuchte:Taupunkt:
Aussen-T/F 1476 31-01-2019 02:55:00 -1.4 C 95 % -2.1 C
1477 31-01-2019 03:00:00 -1.4 C 95 % -2.1 C
1478 31-01-2019 03:05:00 -1.4 C 95 % -2.1 C
1479 31-01-2019 03:10:00 -1.4 C 95 % -2.1 C
1480 31-01-2019 03:15:00 -1.4 C 95 % -2.1 C
1481 31-01-2019 03:20:00 -1.4 C 95 % -2.1 C
1482 31-01-2019 03:25:00 -1.4 C 95 % -2.1 C
1483 31-01-2019 03:30:00 -1.3 C 95 % -2 C
1484 31-01-2019 03:35:00 -1.3 C 95 % -2 C
1485 31-01-2019 03:40:00 -1.2 C 95 % -1.9 C
1486 31-01-2019 03:45:00 -1.2 C 95 % -1.9 C
1487 31-01-2019 03:50:00 -1.2 C 95 % -1.9 C
1488 31-01-2019 03:55:00 -1.1 C 95 % -1.8 C
1489 31-01-2019 04:00:00 -0.9 C 96 % -1.46 C
1490 31-01-2019 04:05:00 -0.9 C 96 % -1.46 C
1491 31-01-2019 04:10:00 -0.8 C 96 % -1.36 C
1492 31-01-2019 04:15:00 -0.8 C 96 % -1.36 C
1493 31-01-2019 04:20:00 -0.8 C 96 % -1.36 C
1494 31-01-2019 04:25:00 -0.8 C 96 % -1.36 C
1495 31-01-2019 04:30:00 -0.8 C 95 % -1.5 C
1496 31-01-2019 04:35:00 -0.8 C 95 % -1.5 C
1497 31-01-2019 04:40:00 -0.8 C 95 % -1.5 C
1498 31-01-2019 04:45:00 -0.8 C 95 % -1.5 C
1499 31-01-2019 04:50:00 -0.7 C 95 % -1.4 C
1500 31-01-2019 04:55:00 -0.7 C 96 % -1.26 C
Sensor: Nr:Datum:Temp:Feuchte:Taupunkt:
Aussen-T/F 1501 31-01-2019 05:00:00 -0.7 C 96 % -1.26 C
1502 31-01-2019 05:05:00 -0.7 C 96 % -1.26 C
1503 31-01-2019 05:10:00 -0.7 C 96 % -1.26 C
1504 31-01-2019 05:15:00 -0.7 C 96 % -1.26 C
1505 31-01-2019 05:20:00 -0.6 C 96 % -1.16 C
1506 31-01-2019 05:25:00 -0.6 C 96 % -1.16 C
1507 31-01-2019 05:30:00 -0.6 C 96 % -1.16 C
1508 31-01-2019 05:35:00 -0.6 C 96 % -1.16 C
1509 31-01-2019 05:40:00 -0.6 C 96 % -1.16 C
1510 31-01-2019 05:45:00 -0.6 C 96 % -1.16 C
1511 31-01-2019 05:50:00 -0.5 C 96 % -1.06 C
1512 31-01-2019 05:55:00 -0.5 C 96 % -1.06 C
1513 31-01-2019 06:00:00 -0.5 C 96 % -1.06 C
1514 31-01-2019 06:05:00 -0.5 C 96 % -1.06 C
1515 31-01-2019 06:10:00 -0.4 C 96 % -0.96 C
1516 31-01-2019 06:15:00 -0.4 C 96 % -0.96 C
1517 31-01-2019 06:20:00 -0.4 C 96 % -0.96 C
1518 31-01-2019 06:25:00 -0.4 C 96 % -0.96 C
1519 31-01-2019 06:30:00 -0.4 C 96 % -0.96 C
1520 31-01-2019 06:35:00 -0.4 C 96 % -0.96 C
1521 31-01-2019 06:40:00 -0.4 C 96 % -0.96 C
1522 31-01-2019 06:45:00 -0.4 C 96 % -0.96 C
1523 31-01-2019 06:50:00 -0.4 C 96 % -0.96 C
1524 31-01-2019 06:55:00 -0.4 C 96 % -0.96 C
1525 31-01-2019 07:00:00 -0.4 C 96 % -0.96 C
Sensor: Nr:Datum:Temp:Feuchte:Taupunkt:
Aussen-T/F 1526 31-01-2019 07:05:00 -0.5 C 96 % -1.06 C
1527 31-01-2019 07:10:00 -0.4 C 96 % -0.96 C
1528 31-01-2019 07:15:00 -0.4 C 96 % -0.96 C
1529 31-01-2019 07:20:00 -0.4 C 96 % -0.96 C
1530 31-01-2019 07:25:00 -0.4 C 96 % -0.96 C
1531 31-01-2019 07:30:00 -0.3 C 96 % -0.86 C
1532 31-01-2019 07:35:00 -0.3 C 96 % -0.86 C
1533 31-01-2019 07:40:00 -0.3 C 96 % -0.86 C
1534 31-01-2019 07:45:00 -0.3 C 96 % -0.86 C
1535 31-01-2019 07:50:00 -0.3 C 96 % -0.86 C
1536 31-01-2019 07:55:00 -0.3 C 96 % -0.86 C
1537 31-01-2019 08:00:00 -0.3 C 96 % -0.86 C
1538 31-01-2019 08:05:00 -0.3 C 96 % -0.86 C
1539 31-01-2019 08:10:00 -0.3 C 96 % -0.86 C
1540 31-01-2019 08:15:00 -0.3 C 96 % -0.86 C
1541 31-01-2019 08:20:00 -0.3 C 96 % -0.86 C
1542 31-01-2019 08:25:00 -0.3 C 96 % -0.86 C
1543 31-01-2019 08:30:00 -0.3 C 96 % -0.86 C
1544 31-01-2019 08:35:00 -0.3 C 96 % -0.86 C
1545 31-01-2019 08:40:00 -0.3 C 96 % -0.86 C
1546 31-01-2019 08:45:00 -0.3 C 96 % -0.86 C
1547 31-01-2019 08:50:00 -0.3 C 96 % -0.86 C
1548 31-01-2019 08:55:00 -0.2 C 96 % -0.76 C
1549 31-01-2019 09:00:00 -0.2 C 96 % -0.76 C
1550 31-01-2019 09:05:00 -0.1 C 96 % -0.66 C
Sensor: Nr:Datum:Temp:Feuchte:Taupunkt:
Aussen-T/F 1551 31-01-2019 09:10:00 -0.1 C 96 % -0.66 C
1552 31-01-2019 09:15:00 0.1 C 96 % -0.46 C
1553 31-01-2019 09:20:00 0.1 C 96 % -0.46 C
1554 31-01-2019 09:25:00 0.2 C 96 % -0.36 C
1555 31-01-2019 09:30:00 0.3 C 96 % -0.26 C
1556 31-01-2019 09:35:00 0.3 C 96 % -0.26 C
1557 31-01-2019 09:40:00 0.3 C 96 % -0.26 C
1558 31-01-2019 09:45:00 0.3 C 96 % -0.26 C
1559 31-01-2019 09:50:00 0.3 C 96 % -0.26 C
1560 31-01-2019 09:55:00 0.4 C 96 % -0.16 C
1561 31-01-2019 10:00:00 0.5 C 96 % -0.06 C
1562 31-01-2019 10:05:00 0.5 C 96 % -0.06 C
1563 31-01-2019 10:10:00 0.6 C 96 % 0.04 C
1564 31-01-2019 10:15:00 0.6 C 96 % 0.04 C
1565 31-01-2019 10:20:00 0.6 C 95 % -0.11 C
1566 31-01-2019 10:25:00 0.6 C 95 % -0.11 C
1567 31-01-2019 10:30:00 0.7 C 95 % -0.01 C
1568 31-01-2019 10:35:00 0.8 C 95 % 0.09 C
1569 31-01-2019 10:40:00 0.8 C 95 % 0.09 C
1570 31-01-2019 10:45:00 0.9 C 95 % 0.19 C
1571 31-01-2019 10:50:00 1 C 95 % 0.29 C
1572 31-01-2019 10:55:00 1.1 C 94 % 0.24 C
1573 31-01-2019 11:00:00 1.1 C 94 % 0.24 C
1574 31-01-2019 11:05:00 1.2 C 95 % 0.49 C
1575 31-01-2019 11:10:00 1.3 C 95 % 0.59 C
Sensor: Nr:Datum:Temp:Feuchte:Taupunkt:
Aussen-T/F 1576 31-01-2019 11:15:00 1.3 C 94 % 0.44 C
1577 31-01-2019 11:20:00 1.4 C 94 % 0.54 C
1578 31-01-2019 11:25:00 1.4 C 94 % 0.54 C
1579 31-01-2019 11:30:00 1.4 C 94 % 0.54 C
1580 31-01-2019 11:35:00 1.4 C 94 % 0.54 C
1581 31-01-2019 11:40:00 1.4 C 94 % 0.54 C
1582 31-01-2019 11:45:00 1.5 C 94 % 0.64 C
1583 31-01-2019 11:50:00 1.6 C 94 % 0.74 C
1584 31-01-2019 11:55:00 1.7 C 94 % 0.84 C
1585 31-01-2019 12:00:00 1.8 C 94 % 0.94 C
1586 31-01-2019 12:05:00 1.7 C 94 % 0.84 C
1587 31-01-2019 12:10:00 1.7 C 94 % 0.84 C
1588 31-01-2019 12:15:00 1.8 C 94 % 0.94 C
1589 31-01-2019 12:20:00 1.8 C 94 % 0.94 C
1590 31-01-2019 12:25:00 1.9 C 94 % 1.04 C
1591 31-01-2019 12:30:00 1.9 C 94 % 1.04 C
1592 31-01-2019 12:35:00 1.9 C 94 % 1.04 C
1593 31-01-2019 12:40:00 1.9 C 94 % 1.04 C
1594 31-01-2019 12:45:00 1.9 C 94 % 1.04 C
1595 31-01-2019 12:50:00 1.8 C 94 % 0.94 C
1596 31-01-2019 12:55:00 1.7 C 93 % 0.69 C
1597 31-01-2019 13:00:00 1.7 C 93 % 0.69 C
1598 31-01-2019 13:05:00 1.7 C 94 % 0.84 C
1599 31-01-2019 13:10:00 1.6 C 94 % 0.74 C
1600 31-01-2019 13:15:00 1.6 C 93 % 0.59 C
Sensor: Nr:Datum:Temp:Feuchte:Taupunkt:
Aussen-T/F 1601 31-01-2019 13:20:00 1.6 C 94 % 0.74 C
1602 31-01-2019 13:25:00 1.5 C 94 % 0.64 C
1603 31-01-2019 13:30:00 1.5 C 94 % 0.64 C
1604 31-01-2019 13:35:00 1.5 C 94 % 0.64 C
1605 31-01-2019 13:40:00 1.5 C 94 % 0.64 C
1606 31-01-2019 13:45:00 1.4 C 94 % 0.54 C
1607 31-01-2019 13:50:00 1.4 C 94 % 0.54 C
1608 31-01-2019 13:55:00 1.4 C 94 % 0.54 C
1609 31-01-2019 14:00:00 1.4 C 94 % 0.54 C
1610 31-01-2019 14:05:00 1.4 C 94 % 0.54 C
1611 31-01-2019 14:10:00 1.5 C 94 % 0.64 C
1612 31-01-2019 14:15:00 1.6 C 95 % 0.89 C
1613 31-01-2019 14:20:00 1.7 C 95 % 0.99 C
1614 31-01-2019 14:25:00 1.9 C 95 % 1.19 C
1615 31-01-2019 14:30:00 2 C 95 % 1.29 C
1616 31-01-2019 14:35:00 2.1 C 95 % 1.38 C
1617 31-01-2019 14:40:00 2.1 C 95 % 1.38 C
1618 31-01-2019 14:45:00 2.1 C 95 % 1.38 C
1619 31-01-2019 14:50:00 2.1 C 94 % 1.24 C
1620 31-01-2019 14:55:00 2.1 C 94 % 1.24 C
1621 31-01-2019 15:00:00 2.2 C 94 % 1.34 C
1622 31-01-2019 15:05:00 2.3 C 94 % 1.44 C
1623 31-01-2019 15:10:00 2.4 C 94 % 1.54 C
1624 31-01-2019 15:15:00 2.4 C 94 % 1.54 C
1625 31-01-2019 15:20:00 2.4 C 94 % 1.54 C
Sensor: Nr:Datum:Temp:Feuchte:Taupunkt:
Aussen-T/F 1626 31-01-2019 15:25:00 2.3 C 93 % 1.29 C
1627 31-01-2019 15:30:00 2.3 C 93 % 1.29 C
1628 31-01-2019 15:35:00 2.3 C 93 % 1.29 C
1629 31-01-2019 15:40:00 2.2 C 93 % 1.19 C
1630 31-01-2019 15:45:00 2.1 C 93 % 1.09 C
1631 31-01-2019 15:50:00 2.1 C 93 % 1.09 C
1632 31-01-2019 15:55:00 2 C 93 % 0.99 C
1633 31-01-2019 16:00:00 1.9 C 93 % 0.89 C
1634 31-01-2019 16:05:00 1.8 C 93 % 0.79 C
1635 31-01-2019 16:10:00 1.7 C 93 % 0.69 C
1636 31-01-2019 16:15:00 1.7 C 93 % 0.69 C
1637 31-01-2019 16:20:00 1.6 C 93 % 0.59 C
1638 31-01-2019 16:25:00 1.6 C 93 % 0.59 C
1639 31-01-2019 16:30:00 1.6 C 93 % 0.59 C
1640 31-01-2019 16:35:00 1.5 C 94 % 0.64 C
1641 31-01-2019 16:40:00 1.4 C 93 % 0.4 C
1642 31-01-2019 16:45:00 1.4 C 93 % 0.4 C
1643 31-01-2019 16:50:00 1.3 C 94 % 0.44 C
1644 31-01-2019 16:55:00 1.3 C 94 % 0.44 C
1645 31-01-2019 17:00:00 1.2 C 94 % 0.34 C
1646 31-01-2019 17:05:00 1.2 C 94 % 0.34 C
1647 31-01-2019 17:10:00 1.1 C 94 % 0.24 C
1648 31-01-2019 17:15:00 1.1 C 94 % 0.24 C
1649 31-01-2019 17:20:00 1.1 C 94 % 0.24 C
1650 31-01-2019 17:25:00 0.9 C 94 % 0.05 C
Sensor: Nr:Datum:Temp:Feuchte:Taupunkt:
Aussen-T/F 1651 31-01-2019 17:30:00 0.9 C 94 % 0.05 C
1652 31-01-2019 17:35:00 0.8 C 94 % -0.05 C
1653 31-01-2019 17:40:00 0.8 C 94 % -0.05 C
1654 31-01-2019 17:45:00 0.8 C 94 % -0.05 C
1655 31-01-2019 17:50:00 0.7 C 94 % -0.15 C
1656 31-01-2019 17:55:00 0.6 C 94 % -0.25 C
1657 31-01-2019 18:00:00 0.4 C 94 % -0.45 C
1658 31-01-2019 18:05:00 0.4 C 94 % -0.45 C
1659 31-01-2019 18:10:00 0.3 C 94 % -0.55 C
1660 31-01-2019 18:15:00 0.3 C 94 % -0.55 C
1661 31-01-2019 18:20:00 0.2 C 94 % -0.65 C
1662 31-01-2019 18:25:00 0.2 C 94 % -0.65 C
1663 31-01-2019 18:30:00 0 C 94 % -0.85 C
1664 31-01-2019 18:35:00 -0.1 C 94 % -0.95 C
1665 31-01-2019 18:40:00 -0.2 C 94 % -1.05 C
1666 31-01-2019 18:45:00 -0.2 C 94 % -1.05 C
1667 31-01-2019 18:50:00 -0.2 C 94 % -1.05 C
1668 31-01-2019 18:55:00 -0.3 C 94 % -1.15 C
1669 31-01-2019 19:00:00 -0.3 C 94 % -1.15 C
1670 31-01-2019 19:05:00 -0.4 C 94 % -1.25 C
1671 31-01-2019 19:10:00 -0.6 C 94 % -1.44 C
1672 31-01-2019 19:15:00 -0.8 C 93 % -1.79 C
1673 31-01-2019 19:20:00 -1 C 94 % -1.84 C
1674 31-01-2019 19:25:00 -1.2 C 93 % -2.18 C
1675 31-01-2019 19:30:00 -1.3 C 94 % -2.14 C
Sensor: Nr:Datum:Temp:Feuchte:Taupunkt:
Aussen-T/F 1676 31-01-2019 19:35:00 -1.4 C 94 % -2.24 C
1677 31-01-2019 19:40:00 -1.5 C 94 % -2.34 C
1678 31-01-2019 19:45:00 -1.6 C 94 % -2.44 C
1679 31-01-2019 19:50:00 -1.6 C 94 % -2.44 C
1680 31-01-2019 19:55:00 -1.7 C 94 % -2.54 C
1681 31-01-2019 20:00:00 -1.7 C 94 % -2.54 C
1682 31-01-2019 20:05:00 -1.8 C 94 % -2.64 C
1683 31-01-2019 20:10:00 -1.8 C 94 % -2.64 C
1684 31-01-2019 20:15:00 -1.9 C 94 % -2.73 C
1685 31-01-2019 20:20:00 -1.9 C 94 % -2.73 C
1686 31-01-2019 20:25:00 -1.9 C 94 % -2.73 C
1687 31-01-2019 20:30:00 -2 C 94 % -2.83 C
1688 31-01-2019 20:35:00 -2.1 C 94 % -2.93 C
1689 31-01-2019 20:40:00 -2.1 C 94 % -2.93 C
1690 31-01-2019 20:45:00 -2.1 C 94 % -2.93 C
1691 31-01-2019 20:50:00 -2.1 C 95 % -2.79 C
1692 31-01-2019 20:55:00 -2.1 C 95 % -2.79 C
1693 31-01-2019 21:00:00 -2.1 C 95 % -2.79 C
1694 31-01-2019 21:05:00 -2.1 C 95 % -2.79 C
1695 31-01-2019 21:10:00 -2.1 C 95 % -2.79 C
1696 31-01-2019 21:15:00 -2.1 C 95 % -2.79 C
1697 31-01-2019 21:20:00 -2.1 C 95 % -2.79 C
1698 31-01-2019 21:25:00 -2.1 C 95 % -2.79 C
1699 31-01-2019 21:30:00 -2.1 C 95 % -2.79 C
1700 31-01-2019 21:35:00 -2 C 95 % -2.69 C
Sensor: Nr:Datum:Temp:Feuchte:Taupunkt:
Aussen-T/F 1701 31-01-2019 21:40:00 -1.9 C 95 % -2.59 C
1702 31-01-2019 21:45:00 -1.9 C 95 % -2.59 C
1703 31-01-2019 21:50:00 -1.8 C 95 % -2.49 C
1704 31-01-2019 21:55:00 -1.8 C 95 % -2.49 C
1705 31-01-2019 22:00:00 -1.7 C 95 % -2.39 C
1706 31-01-2019 22:05:00 -1.7 C 96 % -2.25 C
1707 31-01-2019 22:10:00 -1.6 C 96 % -2.15 C
1708 31-01-2019 22:15:00 -1.6 C 96 % -2.15 C
1709 31-01-2019 22:20:00 -1.6 C 96 % -2.15 C
1710 31-01-2019 22:25:00 -1.6 C 96 % -2.15 C
1711 31-01-2019 22:30:00 -1.6 C 96 % -2.15 C
1712 31-01-2019 22:35:00 -1.6 C 96 % -2.15 C
1713 31-01-2019 22:40:00 -1.6 C 96 % -2.15 C
1714 31-01-2019 22:45:00 -1.6 C 96 % -2.15 C
1715 31-01-2019 22:50:00 -1.5 C 96 % -2.05 C
1716 31-01-2019 22:55:00 -1.5 C 96 % -2.05 C
1717 31-01-2019 23:00:00 -1.4 C 96 % -1.95 C
1718 31-01-2019 23:05:00 -1.4 C 96 % -1.95 C
1719 31-01-2019 23:10:00 -1.3 C 96 % -1.85 C
1720 31-01-2019 23:15:00 -1.3 C 96 % -1.85 C
1721 31-01-2019 23:20:00 -1.3 C 96 % -1.85 C
1722 31-01-2019 23:25:00 -1.3 C 96 % -1.85 C
1723 31-01-2019 23:30:00 -1.2 C 96 % -1.75 C
1724 31-01-2019 23:35:00 -1.2 C 96 % -1.75 C
1725 31-01-2019 23:40:00 -1.1 C 96 % -1.66 C
Sensor: Nr:Datum:Temp:Feuchte:Taupunkt:
Aussen-T/F 1726 31-01-2019 23:45:00 -1.1 C 96 % -1.66 C
1727 31-01-2019 23:50:00 -1.1 C 96 % -1.66 C
1728 31-01-2019 23:55:00 -1 C 96 % -1.56 C
1729 01-02-2019 00:00:00 -0.9 C 96 % -1.46 C
1730 01-02-2019 00:05:00 -0.9 C 96 % -1.46 C
1731 01-02-2019 00:10:00 -0.9 C 96 % -1.46 C
1732 01-02-2019 00:15:00 -0.8 C 96 % -1.36 C
1733 01-02-2019 00:20:00 -0.8 C 96 % -1.36 C
1734 01-02-2019 00:25:00 -0.8 C 96 % -1.36 C
1735 01-02-2019 00:30:00 -0.8 C 96 % -1.36 C
1736 01-02-2019 00:35:00 -0.7 C 96 % -1.26 C
1737 01-02-2019 00:40:00 -0.7 C 96 % -1.26 C
1738 01-02-2019 00:45:00 -0.7 C 96 % -1.26 C
1739 01-02-2019 00:50:00 -0.7 C 96 % -1.26 C
1740 01-02-2019 00:55:00 -0.6 C 96 % -1.16 C
1741 01-02-2019 01:00:00 -0.6 C 96 % -1.16 C
1742 01-02-2019 01:05:00 -0.6 C 96 % -1.16 C
1743 01-02-2019 01:10:00 -0.5 C 96 % -1.06 C
1744 01-02-2019 01:15:00 -0.5 C 96 % -1.06 C
1745 01-02-2019 01:20:00 -0.4 C 96 % -0.96 C
1746 01-02-2019 01:25:00 -0.4 C 96 % -0.96 C
1747 01-02-2019 01:30:00 -0.4 C 96 % -0.96 C
1748 01-02-2019 01:35:00 -0.4 C 96 % -0.96 C
1749 01-02-2019 01:40:00 -0.4 C 96 % -0.96 C
1750 01-02-2019 01:45:00 -0.4 C 96 % -0.96 C
Sensor: Nr:Datum:Temp:Feuchte:Taupunkt:
Aussen-T/F 1751 01-02-2019 01:50:00 -0.4 C 96 % -0.96 C
1752 01-02-2019 01:55:00 -0.3 C 96 % -0.86 C
1753 01-02-2019 02:00:00 -0.3 C 96 % -0.86 C
1754 01-02-2019 02:05:00 -0.3 C 96 % -0.86 C
1755 01-02-2019 02:10:00 -0.2 C 96 % -0.76 C
1756 01-02-2019 02:15:00 -0.2 C 96 % -0.76 C
1757 01-02-2019 02:20:00 -0.2 C 96 % -0.76 C
1758 01-02-2019 02:25:00 -0.2 C 96 % -0.76 C
1759 01-02-2019 02:30:00 -0.1 C 96 % -0.66 C
1760 01-02-2019 02:35:00 -0.1 C 96 % -0.66 C
1761 01-02-2019 02:40:00 -0.1 C 96 % -0.66 C
1762 01-02-2019 02:45:00 0 C 96 % -0.56 C
1763 01-02-2019 02:50:00 0.1 C 96 % -0.46 C
1764 01-02-2019 02:55:00 0.1 C 96 % -0.46 C
1765 01-02-2019 03:00:00 0.2 C 96 % -0.36 C
1766 01-02-2019 03:05:00 0.3 C 96 % -0.26 C
1767 01-02-2019 03:10:00 0.4 C 97 % -0.02 C
1768 01-02-2019 03:15:00 0.4 C 97 % -0.02 C
1769 01-02-2019 03:20:00 0.5 C 97 % 0.08 C
1770 01-02-2019 03:25:00 0.6 C 97 % 0.18 C
1771 01-02-2019 03:30:00 0.6 C 96 % 0.04 C
1772 01-02-2019 03:35:00 0.7 C 97 % 0.28 C
1773 01-02-2019 03:40:00 0.7 C 97 % 0.28 C
1774 01-02-2019 03:45:00 0.8 C 97 % 0.38 C
1775 01-02-2019 03:50:00 0.8 C 97 % 0.38 C
Sensor: Nr:Datum:Temp:Feuchte:Taupunkt:
Aussen-T/F 1776 01-02-2019 03:55:00 0.9 C 97 % 0.48 C
1777 01-02-2019 04:00:00 0.9 C 97 % 0.48 C
1778 01-02-2019 04:05:00 0.9 C 97 % 0.48 C
1779 01-02-2019 04:10:00 0.9 C 97 % 0.48 C
1780 01-02-2019 04:15:00 1 C 96 % 0.44 C
1781 01-02-2019 04:20:00 1.1 C 96 % 0.54 C
1782 01-02-2019 04:25:00 1.1 C 96 % 0.54 C
1783 01-02-2019 04:30:00 1.1 C 96 % 0.54 C
1784 01-02-2019 04:35:00 1.2 C 96 % 0.63 C
1785 01-02-2019 04:40:00 1.2 C 96 % 0.63 C
1786 01-02-2019 04:45:00 1.2 C 96 % 0.63 C
1787 01-02-2019 04:50:00 1.2 C 96 % 0.63 C
1788 01-02-2019 04:55:00 1.2 C 96 % 0.63 C
1789 01-02-2019 05:00:00 1.2 C 96 % 0.63 C
1790 01-02-2019 05:05:00 1.2 C 95 % 0.49 C
1791 01-02-2019 05:10:00 1.1 C 96 % 0.54 C
1792 01-02-2019 05:15:00 1.2 C 96 % 0.63 C
1793 01-02-2019 05:20:00 1.1 C 96 % 0.54 C
1794 01-02-2019 05:25:00 1.2 C 96 % 0.63 C
1795 01-02-2019 05:30:00 1.2 C 96 % 0.63 C
1796 01-02-2019 05:35:00 1.2 C 96 % 0.63 C
1797 01-02-2019 05:40:00 1.2 C 96 % 0.63 C
1798 01-02-2019 05:45:00 1.2 C 96 % 0.63 C
1799 01-02-2019 05:50:00 1.2 C 96 % 0.63 C
1800 01-02-2019 05:55:00 1.2 C 96 % 0.63 C
Sensor: Nr:Datum:Temp:Feuchte:Taupunkt:
Aussen-T/F 1801 01-02-2019 06:00:00 1.2 C 96 % 0.63 C
1802 01-02-2019 06:05:00 1.2 C 96 % 0.63 C
1803 01-02-2019 06:10:00 1.2 C 96 % 0.63 C
1804 01-02-2019 06:15:00 1.2 C 96 % 0.63 C
1805 01-02-2019 06:20:00 1.1 C 95 % 0.39 C
1806 01-02-2019 06:25:00 1.1 C 95 % 0.39 C
1807 01-02-2019 06:30:00 1.1 C 96 % 0.54 C
1808 01-02-2019 06:35:00 1.1 C 96 % 0.54 C
1809 01-02-2019 06:40:00 1.1 C 96 % 0.54 C
1810 01-02-2019 06:45:00 1.1 C 96 % 0.54 C
1811 01-02-2019 06:50:00 1.1 C 96 % 0.54 C
1812 01-02-2019 06:55:00 1.1 C 96 % 0.54 C
1813 01-02-2019 07:00:00 1.1 C 96 % 0.54 C
1814 01-02-2019 07:05:00 1.1 C 96 % 0.54 C
1815 01-02-2019 07:10:00 1.1 C 96 % 0.54 C
1816 01-02-2019 07:15:00 1.1 C 96 % 0.54 C
1817 01-02-2019 07:20:00 1.1 C 96 % 0.54 C
1818 01-02-2019 07:25:00 1.2 C 96 % 0.63 C
1819 01-02-2019 07:30:00 1.2 C 96 % 0.63 C
1820 01-02-2019 07:35:00 1.2 C 96 % 0.63 C
1821 01-02-2019 07:40:00 1.2 C 96 % 0.63 C
1822 01-02-2019 07:45:00 1.3 C 96 % 0.73 C
1823 01-02-2019 07:50:00 1.4 C 96 % 0.83 C
1824 01-02-2019 07:55:00 1.4 C 96 % 0.83 C
1825 01-02-2019 08:00:00 1.4 C 96 % 0.83 C
Sensor: Nr:Datum:Temp:Feuchte:Taupunkt:
Aussen-T/F 1826 01-02-2019 08:05:00 1.3 C 96 % 0.73 C
1827 01-02-2019 08:10:00 1.3 C 96 % 0.73 C
1828 01-02-2019 08:15:00 1.3 C 96 % 0.73 C
1829 01-02-2019 08:20:00 1.3 C 96 % 0.73 C
1830 01-02-2019 08:25:00 1.3 C 96 % 0.73 C
1831 01-02-2019 08:30:00 1.3 C 96 % 0.73 C
1832 01-02-2019 08:35:00 1.2 C 96 % 0.63 C
1833 01-02-2019 08:40:00 1.2 C 96 % 0.63 C
1834 01-02-2019 08:45:00 1.2 C 96 % 0.63 C
1835 01-02-2019 08:50:00 1.4 C 96 % 0.83 C
1836 01-02-2019 08:55:00 1.6 C 97 % 1.18 C
1837 01-02-2019 09:00:00 1.8 C 96 % 1.23 C
1838 01-02-2019 09:05:00 1.8 C 96 % 1.23 C
1839 01-02-2019 09:10:00 1.7 C 96 % 1.13 C
1840 01-02-2019 09:15:00 1.7 C 96 % 1.13 C
1841 01-02-2019 09:20:00 1.6 C 96 % 1.03 C
1842 01-02-2019 09:25:00 1.5 C 96 % 0.93 C
1843 01-02-2019 09:30:00 1.4 C 96 % 0.83 C
1844 01-02-2019 09:35:00 1.4 C 96 % 0.83 C
1845 01-02-2019 09:40:00 1.4 C 96 % 0.83 C
1846 01-02-2019 09:45:00 1.3 C 96 % 0.73 C
1847 01-02-2019 09:50:00 1.4 C 96 % 0.83 C
1848 01-02-2019 09:55:00 1.5 C 96 % 0.93 C
1849 01-02-2019 10:00:00 1.6 C 96 % 1.03 C
1850 01-02-2019 10:05:00 1.8 C 96 % 1.23 C
Sensor: Nr:Datum:Temp:Feuchte:Taupunkt:
Aussen-T/F 1851 01-02-2019 10:10:00 1.9 C 96 % 1.33 C
1852 01-02-2019 10:15:00 2 C 96 % 1.43 C
1853 01-02-2019 10:20:00 2.1 C 96 % 1.53 C
1854 01-02-2019 10:25:00 2.2 C 96 % 1.63 C
1855 01-02-2019 10:30:00 2.3 C 96 % 1.73 C
1856 01-02-2019 10:35:00 2.4 C 96 % 1.83 C
1857 01-02-2019 10:40:00 2.4 C 96 % 1.83 C
1858 01-02-2019 10:45:00 2.6 C 96 % 2.03 C
1859 01-02-2019 10:50:00 2.6 C 96 % 2.03 C
1860 01-02-2019 10:55:00 2.7 C 96 % 2.13 C
1861 01-02-2019 11:00:00 2.7 C 96 % 2.13 C
1862 01-02-2019 11:05:00 2.8 C 96 % 2.23 C
1863 01-02-2019 11:10:00 2.9 C 96 % 2.33 C
1864 01-02-2019 11:15:00 3 C 95 % 2.28 C
1865 01-02-2019 11:20:00 3.1 C 95 % 2.38 C
1866 01-02-2019 11:25:00 3.1 C 95 % 2.38 C
1867 01-02-2019 11:30:00 3.2 C 95 % 2.48 C
1868 01-02-2019 11:35:00 3.3 C 95 % 2.58 C
1869 01-02-2019 11:40:00 3.3 C 95 % 2.58 C
1870 01-02-2019 11:45:00 3.4 C 94 % 2.53 C
1871 01-02-2019 11:50:00 3.5 C 94 % 2.63 C
1872 01-02-2019 11:55:00 3.6 C 94 % 2.73 C
1873 01-02-2019 12:00:00 3.6 C 94 % 2.73 C
1874 01-02-2019 12:05:00 3.7 C 94 % 2.83 C
1875 01-02-2019 12:10:00 3.7 C 94 % 2.83 C
Sensor: Nr:Datum:Temp:Feuchte:Taupunkt:
Aussen-T/F 1876 01-02-2019 12:15:00 3.7 C 93 % 2.68 C
1877 01-02-2019 12:20:00 3.6 C 93 % 2.58 C
1878 01-02-2019 12:25:00 3.4 C 93 % 2.38 C
1879 01-02-2019 12:30:00 3.2 C 93 % 2.18 C
1880 01-02-2019 12:35:00 3.1 C 93 % 2.08 C
1881 01-02-2019 12:40:00 2.8 C 93 % 1.78 C
1882 01-02-2019 12:45:00 2.7 C 93 % 1.68 C
1883 01-02-2019 12:50:00 2.6 C 93 % 1.59 C
1884 01-02-2019 12:55:00 2.6 C 94 % 1.73 C
1885 01-02-2019 13:00:00 2.7 C 94 % 1.83 C
1886 01-02-2019 13:05:00 2.8 C 95 % 2.08 C
1887 01-02-2019 13:10:00 2.8 C 94 % 1.93 C
1888 01-02-2019 13:15:00 2.8 C 94 % 1.93 C
1889 01-02-2019 13:20:00 2.7 C 94 % 1.83 C
1890 01-02-2019 13:25:00 2.6 C 94 % 1.73 C
1891 01-02-2019 13:30:00 2.6 C 95 % 1.88 C
1892 01-02-2019 13:35:00 2.8 C 95 % 2.08 C
1893 01-02-2019 13:40:00 2.8 C 95 % 2.08 C
1894 01-02-2019 13:45:00 2.8 C 94 % 1.93 C
1895 01-02-2019 13:50:00 2.7 C 94 % 1.83 C
1896 01-02-2019 13:55:00 2.7 C 94 % 1.83 C
1897 01-02-2019 14:00:00 2.8 C 95 % 2.08 C
1898 01-02-2019 14:05:00 2.8 C 95 % 2.08 C
1899 01-02-2019 14:10:00 3.1 C 95 % 2.38 C
1900 01-02-2019 14:15:00 3.3 C 96 % 2.72 C
Sensor: Nr:Datum:Temp:Feuchte:Taupunkt:
Aussen-T/F 1901 01-02-2019 14:20:00 3.6 C 96 % 3.02 C
1902 01-02-2019 14:25:00 3.8 C 96 % 3.22 C
1903 01-02-2019 14:30:00 3.9 C 95 % 3.17 C
1904 01-02-2019 14:35:00 3.8 C 94 % 2.93 C
1905 01-02-2019 14:40:00 3.7 C 94 % 2.83 C
1906 01-02-2019 14:45:00 3.7 C 94 % 2.83 C
1907 01-02-2019 14:50:00 3.7 C 94 % 2.83 C
1908 01-02-2019 14:55:00 3.7 C 94 % 2.83 C
1909 01-02-2019 15:00:00 3.7 C 94 % 2.83 C
1910 01-02-2019 15:05:00 3.5 C 93 % 2.48 C
1911 01-02-2019 15:10:00 3.4 C 93 % 2.38 C
1912 01-02-2019 15:15:00 3.3 C 94 % 2.43 C
1913 01-02-2019 15:20:00 3.3 C 94 % 2.43 C
1914 01-02-2019 15:25:00 3.2 C 94 % 2.33 C
1915 01-02-2019 15:30:00 3.1 C 94 % 2.23 C
1916 01-02-2019 15:35:00 3 C 94 % 2.13 C
1917 01-02-2019 15:40:00 3 C 94 % 2.13 C
1918 01-02-2019 15:45:00 3.1 C 94 % 2.23 C
1919 01-02-2019 15:50:00 3.1 C 94 % 2.23 C
1920 01-02-2019 15:55:00 3.1 C 95 % 2.38 C
1921 01-02-2019 16:00:00 3.1 C 95 % 2.38 C
1922 01-02-2019 16:05:00 3.1 C 95 % 2.38 C
1923 01-02-2019 16:10:00 3.1 C 95 % 2.38 C
1924 01-02-2019 16:15:00 3.1 C 95 % 2.38 C
1925 01-02-2019 16:20:00 3 C 95 % 2.28 C
Sensor: Nr:Datum:Temp:Feuchte:Taupunkt:
Aussen-T/F 1926 01-02-2019 16:25:00 2.9 C 95 % 2.18 C
1927 01-02-2019 16:30:00 2.8 C 95 % 2.08 C
1928 01-02-2019 16:35:00 2.7 C 94 % 1.83 C
1929 01-02-2019 16:40:00 2.7 C 95 % 1.98 C
1930 01-02-2019 16:45:00 2.7 C 95 % 1.98 C
1931 01-02-2019 16:50:00 2.6 C 95 % 1.88 C
1932 01-02-2019 16:55:00 2.6 C 95 % 1.88 C
1933 01-02-2019 17:00:00 2.5 C 95 % 1.78 C
1934 01-02-2019 17:05:00 2.6 C 95 % 1.88 C
1935 01-02-2019 17:10:00 2.6 C 95 % 1.88 C
1936 01-02-2019 17:15:00 2.6 C 95 % 1.88 C
1937 01-02-2019 17:20:00 2.6 C 95 % 1.88 C
1938 01-02-2019 17:25:00 2.5 C 95 % 1.78 C
1939 01-02-2019 17:30:00 2.5 C 95 % 1.78 C
1940 01-02-2019 17:35:00 2.5 C 96 % 1.93 C
1941 01-02-2019 17:40:00 2.5 C 96 % 1.93 C
1942 01-02-2019 17:45:00 2.6 C 96 % 2.03 C
1943 01-02-2019 17:50:00 2.5 C 96 % 1.93 C
1944 01-02-2019 17:55:00 2.5 C 96 % 1.93 C
1945 01-02-2019 18:00:00 2.5 C 96 % 1.93 C
1946 01-02-2019 18:05:00 2.5 C 96 % 1.93 C
1947 01-02-2019 18:10:00 2.6 C 96 % 2.03 C
1948 01-02-2019 18:15:00 2.6 C 96 % 2.03 C
1949 01-02-2019 18:20:00 2.5 C 96 % 1.93 C
1950 01-02-2019 18:25:00 2.5 C 96 % 1.93 C
Sensor: Nr:Datum:Temp:Feuchte:Taupunkt:
Aussen-T/F 1951 01-02-2019 18:30:00 2.4 C 96 % 1.83 C
1952 01-02-2019 18:35:00 2.4 C 96 % 1.83 C
1953 01-02-2019 18:40:00 2.4 C 96 % 1.83 C
1954 01-02-2019 18:45:00 2.4 C 96 % 1.83 C
1955 01-02-2019 18:50:00 2.4 C 96 % 1.83 C
1956 01-02-2019 18:55:00 2.4 C 96 % 1.83 C
1957 01-02-2019 19:00:00 2.4 C 96 % 1.83 C
1958 01-02-2019 19:05:00 2.4 C 96 % 1.83 C
1959 01-02-2019 19:10:00 2.3 C 96 % 1.73 C
1960 01-02-2019 19:15:00 2.3 C 96 % 1.73 C
1961 01-02-2019 19:20:00 2.3 C 96 % 1.73 C
1962 01-02-2019 19:25:00 2.3 C 96 % 1.73 C
1963 01-02-2019 19:30:00 2.2 C 96 % 1.63 C
1964 01-02-2019 19:35:00 2.2 C 96 % 1.63 C
1965 01-02-2019 19:40:00 2.2 C 96 % 1.63 C
1966 01-02-2019 19:45:00 2.1 C 96 % 1.53 C
1967 01-02-2019 19:50:00 2.1 C 96 % 1.53 C
1968 01-02-2019 19:55:00 2.1 C 96 % 1.53 C
1969 01-02-2019 20:00:00 2.1 C 96 % 1.53 C
1970 01-02-2019 20:05:00 2.1 C 96 % 1.53 C
1971 01-02-2019 20:10:00 2 C 96 % 1.43 C
1972 01-02-2019 20:15:00 2 C 96 % 1.43 C
1973 01-02-2019 20:20:00 1.9 C 96 % 1.33 C
1974 01-02-2019 20:25:00 2 C 96 % 1.43 C
1975 01-02-2019 20:30:00 2 C 96 % 1.43 C
Sensor: Nr:Datum:Temp:Feuchte:Taupunkt:
Aussen-T/F 1976 01-02-2019 20:35:00 2.1 C 96 % 1.53 C
1977 01-02-2019 20:40:00 2.1 C 96 % 1.53 C
1978 01-02-2019 20:45:00 2 C 96 % 1.43 C
1979 01-02-2019 20:50:00 2 C 96 % 1.43 C
1980 01-02-2019 20:55:00 1.9 C 96 % 1.33 C
1981 01-02-2019 21:00:00 1.9 C 96 % 1.33 C
1982 01-02-2019 21:05:00 1.9 C 96 % 1.33 C
1983 01-02-2019 21:10:00 1.9 C 96 % 1.33 C
1984 01-02-2019 21:15:00 1.9 C 96 % 1.33 C
1985 01-02-2019 21:20:00 1.9 C 96 % 1.33 C
1986 01-02-2019 21:25:00 1.8 C 96 % 1.23 C
1987 01-02-2019 21:30:00 1.8 C 96 % 1.23 C
1988 01-02-2019 21:35:00 1.8 C 96 % 1.23 C
1989 01-02-2019 21:40:00 1.7 C 96 % 1.13 C
1990 01-02-2019 21:45:00 1.7 C 96 % 1.13 C
1991 01-02-2019 21:50:00 1.7 C 96 % 1.13 C
1992 01-02-2019 21:55:00 1.7 C 96 % 1.13 C
1993 01-02-2019 22:00:00 1.7 C 96 % 1.13 C
1994 01-02-2019 22:05:00 1.7 C 96 % 1.13 C
1995 01-02-2019 22:10:00 1.7 C 96 % 1.13 C
1996 01-02-2019 22:15:00 1.8 C 96 % 1.23 C
1997 01-02-2019 22:20:00 1.7 C 96 % 1.13 C
1998 01-02-2019 22:25:00 1.7 C 96 % 1.13 C
1999 01-02-2019 22:30:00 1.7 C 96 % 1.13 C
2000 01-02-2019 22:35:00 1.7 C 96 % 1.13 C
Sensor: Nr:Datum:Temp:Feuchte:Taupunkt:
Aussen-T/F 2001 01-02-2019 22:40:00 1.6 C 96 % 1.03 C
2002 01-02-2019 22:45:00 1.6 C 96 % 1.03 C
2003 01-02-2019 22:50:00 1.6 C 96 % 1.03 C
2004 01-02-2019 22:55:00 1.6 C 96 % 1.03 C
2005 01-02-2019 23:00:00 1.5 C 96 % 0.93 C
2006 01-02-2019 23:05:00 1.5 C 96 % 0.93 C
2007 01-02-2019 23:10:00 1.5 C 96 % 0.93 C
2008 01-02-2019 23:15:00 1.5 C 97 % 1.08 C
2009 01-02-2019 23:20:00 1.6 C 97 % 1.18 C
2010 01-02-2019 23:25:00 1.6 C 97 % 1.18 C
2011 01-02-2019 23:30:00 1.6 C 97 % 1.18 C
2012 01-02-2019 23:35:00 1.6 C 97 % 1.18 C
2013 01-02-2019 23:40:00 1.6 C 97 % 1.18 C
2014 01-02-2019 23:45:00 1.7 C 97 % 1.28 C
2015 01-02-2019 23:50:00 1.7 C 97 % 1.28 C
2016 01-02-2019 23:55:00 1.7 C 97 % 1.28 C
2017 02-02-2019 00:00:00 1.7 C 97 % 1.28 C
2018 02-02-2019 00:05:00 1.7 C 97 % 1.28 C
2019 02-02-2019 00:10:00 1.7 C 97 % 1.28 C
2020 02-02-2019 00:15:00 1.7 C 97 % 1.28 C
2021 02-02-2019 00:20:00 1.7 C 97 % 1.28 C
2022 02-02-2019 00:25:00 1.7 C 97 % 1.28 C
2023 02-02-2019 00:30:00 1.7 C 97 % 1.28 C
2024 02-02-2019 00:35:00 1.8 C 97 % 1.38 C
2025 02-02-2019 00:40:00 1.8 C 97 % 1.38 C
Sensor: Nr:Datum:Temp:Feuchte:Taupunkt:
Aussen-T/F 2026 02-02-2019 00:45:00 1.8 C 97 % 1.38 C
2027 02-02-2019 00:50:00 1.8 C 97 % 1.38 C
2028 02-02-2019 00:55:00 1.8 C 97 % 1.38 C
2029 02-02-2019 01:00:00 1.8 C 97 % 1.38 C
2030 02-02-2019 01:05:00 1.8 C 97 % 1.38 C
2031 02-02-2019 01:10:00 1.8 C 97 % 1.38 C
2032 02-02-2019 01:15:00 1.8 C 97 % 1.38 C
2033 02-02-2019 01:20:00 1.8 C 97 % 1.38 C
2034 02-02-2019 01:25:00 1.8 C 97 % 1.38 C
2035 02-02-2019 01:30:00 1.8 C 97 % 1.38 C
2036 02-02-2019 01:35:00 1.8 C 97 % 1.38 C
2037 02-02-2019 01:40:00 1.8 C 97 % 1.38 C
2038 02-02-2019 01:45:00 1.9 C 97 % 1.48 C
2039 02-02-2019 01:50:00 1.9 C 97 % 1.48 C
2040 02-02-2019 01:55:00 1.9 C 97 % 1.48 C
2041 02-02-2019 02:00:00 1.9 C 97 % 1.48 C
2042 02-02-2019 02:05:00 1.9 C 97 % 1.48 C
2043 02-02-2019 02:10:00 1.9 C 97 % 1.48 C
2044 02-02-2019 02:15:00 1.8 C 97 % 1.38 C
2045 02-02-2019 02:20:00 1.8 C 97 % 1.38 C
2046 02-02-2019 02:25:00 1.8 C 97 % 1.38 C
2047 02-02-2019 02:30:00 1.8 C 97 % 1.38 C
2048 02-02-2019 02:35:00 1.8 C 97 % 1.38 C
2049 02-02-2019 02:40:00 1.8 C 97 % 1.38 C
2050 02-02-2019 02:45:00 1.8 C 97 % 1.38 C
Sensor: Nr:Datum:Temp:Feuchte:Taupunkt:
Aussen-T/F 2051 02-02-2019 02:50:00 1.8 C 97 % 1.38 C
2052 02-02-2019 02:55:00 1.8 C 97 % 1.38 C
2053 02-02-2019 03:00:00 1.8 C 97 % 1.38 C
2054 02-02-2019 03:05:00 1.8 C 97 % 1.38 C
2055 02-02-2019 03:10:00 1.7 C 97 % 1.28 C
2056 02-02-2019 03:15:00 1.7 C 97 % 1.28 C
2057 02-02-2019 03:20:00 1.7 C 97 % 1.28 C
2058 02-02-2019 03:25:00 1.7 C 97 % 1.28 C
2059 02-02-2019 03:30:00 1.7 C 97 % 1.28 C
2060 02-02-2019 03:35:00 1.7 C 97 % 1.28 C
2061 02-02-2019 03:40:00 1.7 C 97 % 1.28 C
2062 02-02-2019 03:45:00 1.8 C 97 % 1.38 C
2063 02-02-2019 03:50:00 1.9 C 97 % 1.48 C
2064 02-02-2019 03:55:00 1.9 C 97 % 1.48 C
2065 02-02-2019 04:00:00 1.9 C 97 % 1.48 C
2066 02-02-2019 04:05:00 1.9 C 97 % 1.48 C
2067 02-02-2019 04:10:00 1.8 C 97 % 1.38 C
2068 02-02-2019 04:15:00 1.8 C 97 % 1.38 C
2069 02-02-2019 04:20:00 1.8 C 97 % 1.38 C
2070 02-02-2019 04:25:00 1.8 C 97 % 1.38 C
2071 02-02-2019 04:30:00 1.8 C 97 % 1.38 C
2072 02-02-2019 04:35:00 1.8 C 97 % 1.38 C
2073 02-02-2019 04:40:00 1.8 C 97 % 1.38 C
2074 02-02-2019 04:45:00 1.8 C 97 % 1.38 C
2075 02-02-2019 04:50:00 1.8 C 97 % 1.38 C
Sensor: Nr:Datum:Temp:Feuchte:Taupunkt:
Aussen-T/F 2076 02-02-2019 04:55:00 1.8 C 97 % 1.38 C
2077 02-02-2019 05:00:00 1.7 C 97 % 1.28 C
2078 02-02-2019 05:05:00 1.7 C 97 % 1.28 C
2079 02-02-2019 05:10:00 1.7 C 97 % 1.28 C
2080 02-02-2019 05:15:00 1.7 C 97 % 1.28 C
2081 02-02-2019 05:20:00 1.7 C 97 % 1.28 C
2082 02-02-2019 05:25:00 1.7 C 97 % 1.28 C
2083 02-02-2019 05:30:00 1.7 C 97 % 1.28 C
2084 02-02-2019 05:35:00 1.7 C 97 % 1.28 C
2085 02-02-2019 05:40:00 1.7 C 97 % 1.28 C
2086 02-02-2019 05:45:00 1.7 C 97 % 1.28 C
2087 02-02-2019 05:50:00 1.7 C 97 % 1.28 C
2088 02-02-2019 05:55:00 1.8 C 97 % 1.38 C
2089 02-02-2019 06:00:00 1.8 C 97 % 1.38 C
2090 02-02-2019 06:05:00 1.8 C 97 % 1.38 C
2091 02-02-2019 06:10:00 1.8 C 97 % 1.38 C
2092 02-02-2019 06:15:00 1.7 C 97 % 1.28 C
2093 02-02-2019 06:20:00 1.7 C 97 % 1.28 C
2094 02-02-2019 06:25:00 1.7 C 97 % 1.28 C
2095 02-02-2019 06:30:00 1.7 C 97 % 1.28 C
2096 02-02-2019 06:35:00 1.7 C 97 % 1.28 C
2097 02-02-2019 06:40:00 1.7 C 97 % 1.28 C
2098 02-02-2019 06:45:00 1.7 C 97 % 1.28 C
2099 02-02-2019 06:50:00 1.7 C 97 % 1.28 C
2100 02-02-2019 06:55:00 1.7 C 97 % 1.28 C
Sensor: Nr:Datum:Temp:Feuchte:Taupunkt:
Aussen-T/F 2101 02-02-2019 07:00:00 1.7 C 97 % 1.28 C
2102 02-02-2019 07:05:00 1.7 C 97 % 1.28 C
2103 02-02-2019 07:10:00 1.7 C 97 % 1.28 C
2104 02-02-2019 07:15:00 1.7 C 97 % 1.28 C
2105 02-02-2019 07:20:00 1.7 C 97 % 1.28 C
2106 02-02-2019 07:25:00 1.8 C 97 % 1.38 C
2107 02-02-2019 07:30:00 1.7 C 97 % 1.28 C
2108 02-02-2019 07:35:00 1.8 C 97 % 1.38 C
2109 02-02-2019 07:40:00 1.7 C 97 % 1.28 C
2110 02-02-2019 07:45:00 1.7 C 97 % 1.28 C
2111 02-02-2019 07:50:00 1.8 C 97 % 1.38 C
2112 02-02-2019 07:55:00 1.8 C 97 % 1.38 C
2113 02-02-2019 08:00:00 1.8 C 97 % 1.38 C
2114 02-02-2019 08:05:00 1.8 C 97 % 1.38 C
2115 02-02-2019 08:10:00 1.8 C 97 % 1.38 C
2116 02-02-2019 08:15:00 1.8 C 97 % 1.38 C
2117 02-02-2019 08:20:00 1.8 C 97 % 1.38 C
2118 02-02-2019 08:25:00 1.8 C 97 % 1.38 C
2119 02-02-2019 08:30:00 1.8 C 97 % 1.38 C
2120 02-02-2019 08:35:00 1.8 C 97 % 1.38 C
2121 02-02-2019 08:40:00 1.8 C 97 % 1.38 C
2122 02-02-2019 08:45:00 1.8 C 97 % 1.38 C
2123 02-02-2019 08:50:00 1.8 C 97 % 1.38 C
2124 02-02-2019 08:55:00 1.8 C 97 % 1.38 C
2125 02-02-2019 09:00:00 1.8 C 97 % 1.38 C
Sensor: Nr:Datum:Temp:Feuchte:Taupunkt:
Aussen-T/F 2126 02-02-2019 09:05:00 1.9 C 97 % 1.48 C
2127 02-02-2019 09:10:00 1.9 C 97 % 1.48 C
2128 02-02-2019 09:15:00 1.9 C 97 % 1.48 C
2129 02-02-2019 09:20:00 2 C 97 % 1.58 C
2130 02-02-2019 09:25:00 2.1 C 97 % 1.67 C
2131 02-02-2019 09:30:00 2.1 C 97 % 1.67 C
2132 02-02-2019 09:35:00 2.2 C 97 % 1.77 C
2133 02-02-2019 09:40:00 2.2 C 97 % 1.77 C
2134 02-02-2019 09:45:00 2.3 C 97 % 1.87 C
2135 02-02-2019 09:50:00 2.3 C 97 % 1.87 C
2136 02-02-2019 09:55:00 2.4 C 97 % 1.97 C
2137 02-02-2019 10:00:00 2.5 C 98 % 2.22 C
2138 02-02-2019 10:05:00 2.6 C 98 % 2.32 C
2139 02-02-2019 10:10:00 2.6 C 97 % 2.17 C
2140 02-02-2019 10:15:00 2.7 C 97 % 2.27 C
2141 02-02-2019 10:20:00 2.7 C 98 % 2.42 C
2142 02-02-2019 10:25:00 2.7 C 98 % 2.42 C
2143 02-02-2019 10:30:00 2.8 C 98 % 2.52 C
2144 02-02-2019 10:35:00 2.8 C 98 % 2.52 C
2145 02-02-2019 10:40:00 2.8 C 97 % 2.37 C
2146 02-02-2019 10:45:00 2.8 C 97 % 2.37 C
2147 02-02-2019 10:50:00 2.8 C 97 % 2.37 C
2148 02-02-2019 10:55:00 2.8 C 97 % 2.37 C
2149 02-02-2019 11:00:00 2.9 C 97 % 2.47 C
2150 02-02-2019 11:05:00 2.9 C 97 % 2.47 C
Sensor: Nr:Datum:Temp:Feuchte:Taupunkt:
Aussen-T/F 2151 02-02-2019 11:10:00 3 C 97 % 2.57 C
2152 02-02-2019 11:15:00 3 C 97 % 2.57 C
2153 02-02-2019 11:20:00 3.1 C 97 % 2.67 C
2154 02-02-2019 11:25:00 3.1 C 97 % 2.67 C
2155 02-02-2019 11:30:00 3.1 C 97 % 2.67 C
2156 02-02-2019 11:35:00 3.1 C 97 % 2.67 C
2157 02-02-2019 11:40:00 3.1 C 97 % 2.67 C
2158 02-02-2019 11:45:00 3.1 C 97 % 2.67 C
2159 02-02-2019 11:50:00 3.1 C 97 % 2.67 C
2160 02-02-2019 11:55:00 3.1 C 97 % 2.67 C
2161 02-02-2019 12:00:00 3.1 C 97 % 2.67 C
2162 02-02-2019 12:05:00 3.2 C 97 % 2.77 C
2163 02-02-2019 12:10:00 3.2 C 97 % 2.77 C
2164 02-02-2019 12:15:00 3.2 C 97 % 2.77 C
2165 02-02-2019 12:20:00 3.3 C 97 % 2.87 C
2166 02-02-2019 12:25:00 3.3 C 97 % 2.87 C
2167 02-02-2019 12:30:00 3.3 C 97 % 2.87 C
2168 02-02-2019 12:35:00 3.4 C 97 % 2.97 C
2169 02-02-2019 12:40:00 3.4 C 97 % 2.97 C
2170 02-02-2019 12:45:00 3.4 C 97 % 2.97 C
2171 02-02-2019 12:50:00 3.5 C 97 % 3.07 C
2172 02-02-2019 12:55:00 3.5 C 97 % 3.07 C
2173 02-02-2019 13:00:00 3.5 C 97 % 3.07 C
2174 02-02-2019 13:05:00 3.4 C 97 % 2.97 C
2175 02-02-2019 13:10:00 3.5 C 97 % 3.07 C
Sensor: Nr:Datum:Temp:Feuchte:Taupunkt:
Aussen-T/F 2176 02-02-2019 13:15:00 3.6 C 97 % 3.17 C
2177 02-02-2019 13:20:00 3.7 C 97 % 3.27 C
2178 02-02-2019 13:25:00 3.7 C 97 % 3.27 C
2179 02-02-2019 13:30:00 3.8 C 97 % 3.37 C
2180 02-02-2019 13:35:00 3.7 C 97 % 3.27 C
2181 02-02-2019 13:40:00 3.8 C 97 % 3.37 C
2182 02-02-2019 13:45:00 3.8 C 97 % 3.37 C
2183 02-02-2019 13:50:00 3.8 C 97 % 3.37 C
2184 02-02-2019 13:55:00 3.8 C 97 % 3.37 C
2185 02-02-2019 14:00:00 3.8 C 97 % 3.37 C
2186 02-02-2019 14:05:00 3.8 C 97 % 3.37 C
2187 02-02-2019 14:10:00 3.8 C 97 % 3.37 C
2188 02-02-2019 14:15:00 3.8 C 97 % 3.37 C
2189 02-02-2019 14:20:00 3.8 C 97 % 3.37 C
2190 02-02-2019 14:25:00 3.8 C 97 % 3.37 C
2191 02-02-2019 14:30:00 3.7 C 97 % 3.27 C
2192 02-02-2019 14:35:00 3.7 C 97 % 3.27 C
2193 02-02-2019 14:40:00 3.7 C 97 % 3.27 C
2194 02-02-2019 14:45:00 3.6 C 97 % 3.17 C
2195 02-02-2019 14:50:00 3.6 C 97 % 3.17 C
2196 02-02-2019 14:55:00 3.6 C 97 % 3.17 C
2197 02-02-2019 15:00:00 3.6 C 97 % 3.17 C
2198 02-02-2019 15:05:00 3.7 C 97 % 3.27 C
2199 02-02-2019 15:10:00 3.8 C 97 % 3.37 C
2200 02-02-2019 15:15:00 3.8 C 97 % 3.37 C
Sensor: Nr:Datum:Temp:Feuchte:Taupunkt:
Aussen-T/F 2201 02-02-2019 15:20:00 3.9 C 97 % 3.47 C
2202 02-02-2019 15:25:00 4 C 97 % 3.57 C
2203 02-02-2019 15:30:00 4 C 97 % 3.57 C
2204 02-02-2019 15:35:00 4.1 C 97 % 3.67 C
2205 02-02-2019 15:40:00 4.1 C 97 % 3.67 C
2206 02-02-2019 15:45:00 4 C 97 % 3.57 C
2207 02-02-2019 15:50:00 4 C 97 % 3.57 C
2208 02-02-2019 15:55:00 3.9 C 97 % 3.47 C
2209 02-02-2019 16:00:00 3.9 C 97 % 3.47 C
2210 02-02-2019 16:05:00 3.8 C 97 % 3.37 C
2211 02-02-2019 16:10:00 3.8 C 97 % 3.37 C
2212 02-02-2019 16:15:00 3.7 C 97 % 3.27 C
2213 02-02-2019 16:20:00 3.7 C 97 % 3.27 C
2214 02-02-2019 16:25:00 3.7 C 97 % 3.27 C
2215 02-02-2019 16:30:00 3.7 C 97 % 3.27 C
2216 02-02-2019 16:35:00 3.7 C 97 % 3.27 C
2217 02-02-2019 16:40:00 3.6 C 97 % 3.17 C
2218 02-02-2019 16:45:00 3.6 C 97 % 3.17 C
2219 02-02-2019 16:50:00 3.5 C 97 % 3.07 C
2220 02-02-2019 16:55:00 3.4 C 97 % 2.97 C
2221 02-02-2019 17:00:00 3.3 C 97 % 2.87 C
2222 02-02-2019 17:05:00 3.3 C 97 % 2.87 C
2223 02-02-2019 17:10:00 3.2 C 97 % 2.77 C
2224 02-02-2019 17:15:00 3.2 C 97 % 2.77 C
2225 02-02-2019 17:20:00 3.2 C 97 % 2.77 C
Sensor: Nr:Datum:Temp:Feuchte:Taupunkt:
Aussen-T/F 2226 02-02-2019 17:25:00 3.2 C 97 % 2.77 C
2227 02-02-2019 17:30:00 3.2 C 97 % 2.77 C
2228 02-02-2019 17:35:00 3.1 C 97 % 2.67 C
2229 02-02-2019 17:40:00 3.2 C 97 % 2.77 C
2230 02-02-2019 17:45:00 3.3 C 97 % 2.87 C
2231 02-02-2019 17:50:00 3.4 C 97 % 2.97 C
2232 02-02-2019 17:55:00 3.4 C 97 % 2.97 C
2233 02-02-2019 18:00:00 3.4 C 97 % 2.97 C
2234 02-02-2019 18:05:00 3.4 C 97 % 2.97 C
2235 02-02-2019 18:10:00 3.3 C 97 % 2.87 C
2236 02-02-2019 18:15:00 3.3 C 97 % 2.87 C
2237 02-02-2019 18:20:00 3.2 C 97 % 2.77 C
2238 02-02-2019 18:25:00 3.2 C 97 % 2.77 C
2239 02-02-2019 18:30:00 3.2 C 97 % 2.77 C
2240 02-02-2019 18:35:00 3.1 C 97 % 2.67 C
2241 02-02-2019 18:40:00 3.1 C 97 % 2.67 C
2242 02-02-2019 18:45:00 3 C 97 % 2.57 C
2243 02-02-2019 18:50:00 2.9 C 97 % 2.47 C
2244 02-02-2019 18:55:00 2.8 C 97 % 2.37 C
2245 02-02-2019 19:00:00 2.8 C 96 % 2.23 C
2246 02-02-2019 19:05:00 2.8 C 97 % 2.37 C
2247 02-02-2019 19:10:00 2.7 C 96 % 2.13 C
2248 02-02-2019 19:15:00 2.7 C 96 % 2.13 C
2249 02-02-2019 19:20:00 2.7 C 97 % 2.27 C
2250 02-02-2019 19:25:00 2.6 C 97 % 2.17 C
Sensor: Nr:Datum:Temp:Feuchte:Taupunkt:
Aussen-T/F 2251 02-02-2019 19:30:00 2.6 C 97 % 2.17 C
2252 02-02-2019 19:35:00 2.6 C 96 % 2.03 C
2253 02-02-2019 19:40:00 2.6 C 97 % 2.17 C
2254 02-02-2019 19:45:00 2.5 C 97 % 2.07 C
2255 02-02-2019 19:50:00 2.5 C 97 % 2.07 C
2256 02-02-2019 19:55:00 2.4 C 97 % 1.97 C
2257 02-02-2019 20:00:00 2.4 C 97 % 1.97 C
2258 02-02-2019 20:05:00 2.4 C 97 % 1.97 C
2259 02-02-2019 20:10:00 2.4 C 96 % 1.83 C
2260 02-02-2019 20:15:00 2.3 C 96 % 1.73 C
2261 02-02-2019 20:20:00 2.3 C 96 % 1.73 C
2262 02-02-2019 20:25:00 2.3 C 96 % 1.73 C
2263 02-02-2019 20:30:00 2.3 C 96 % 1.73 C
2264 02-02-2019 20:35:00 2.3 C 96 % 1.73 C
2265 02-02-2019 20:40:00 2.3 C 96 % 1.73 C
2266 02-02-2019 20:45:00 2.3 C 96 % 1.73 C
2267 02-02-2019 20:50:00 2.2 C 96 % 1.63 C
2268 02-02-2019 20:55:00 2.2 C 96 % 1.63 C
2269 02-02-2019 21:00:00 2.2 C 96 % 1.63 C
2270 02-02-2019 21:05:00 2.2 C 96 % 1.63 C
2271 02-02-2019 21:10:00 2.2 C 96 % 1.63 C
2272 02-02-2019 21:15:00 2.1 C 96 % 1.53 C
2273 02-02-2019 21:20:00 2.1 C 96 % 1.53 C
2274 02-02-2019 21:25:00 2.1 C 96 % 1.53 C
2275 02-02-2019 21:30:00 2.1 C 96 % 1.53 C
Sensor: Nr:Datum:Temp:Feuchte:Taupunkt:
Aussen-T/F 2276 02-02-2019 21:35:00 2.1 C 96 % 1.53 C
2277 02-02-2019 21:40:00 2.1 C 96 % 1.53 C
2278 02-02-2019 21:45:00 2 C 96 % 1.43 C
2279 02-02-2019 21:50:00 2 C 96 % 1.43 C
2280 02-02-2019 21:55:00 2 C 96 % 1.43 C
2281 02-02-2019 22:00:00 1.9 C 96 % 1.33 C
2282 02-02-2019 22:05:00 1.9 C 96 % 1.33 C
2283 02-02-2019 22:10:00 1.9 C 96 % 1.33 C
2284 02-02-2019 22:15:00 1.9 C 96 % 1.33 C
2285 02-02-2019 22:20:00 1.9 C 96 % 1.33 C
2286 02-02-2019 22:25:00 1.9 C 96 % 1.33 C
2287 02-02-2019 22:30:00 1.9 C 96 % 1.33 C
2288 02-02-2019 22:35:00 1.9 C 96 % 1.33 C
2289 02-02-2019 22:40:00 1.9 C 96 % 1.33 C
2290 02-02-2019 22:45:00 1.8 C 96 % 1.23 C
2291 02-02-2019 22:50:00 1.8 C 96 % 1.23 C
2292 02-02-2019 22:55:00 1.8 C 96 % 1.23 C
2293 02-02-2019 23:00:00 1.8 C 96 % 1.23 C
2294 02-02-2019 23:05:00 1.8 C 96 % 1.23 C
2295 02-02-2019 23:10:00 1.8 C 96 % 1.23 C
2296 02-02-2019 23:15:00 1.8 C 96 % 1.23 C
2297 02-02-2019 23:20:00 1.8 C 96 % 1.23 C
2298 02-02-2019 23:25:00 1.8 C 96 % 1.23 C
2299 02-02-2019 23:30:00 1.8 C 97 % 1.38 C
2300 02-02-2019 23:35:00 1.8 C 97 % 1.38 C
Sensor: Nr:Datum:Temp:Feuchte:Taupunkt:
Aussen-T/F 2301 02-02-2019 23:40:00 1.8 C 97 % 1.38 C
2302 02-02-2019 23:45:00 1.8 C 97 % 1.38 C
2303 02-02-2019 23:50:00 1.8 C 96 % 1.23 C
2304 02-02-2019 23:55:00 1.8 C 96 % 1.23 C
2305 03-02-2019 00:00:00 1.8 C 97 % 1.38 C
2306 03-02-2019 00:05:00 1.8 C 96 % 1.23 C
2307 03-02-2019 00:10:00 1.8 C 97 % 1.38 C
2308 03-02-2019 00:15:00 1.8 C 97 % 1.38 C
2309 03-02-2019 00:20:00 1.9 C 97 % 1.48 C
2310 03-02-2019 00:25:00 1.9 C 97 % 1.48 C
2311 03-02-2019 00:30:00 1.9 C 97 % 1.48 C
2312 03-02-2019 00:35:00 1.9 C 96 % 1.33 C
2313 03-02-2019 00:40:00 1.9 C 96 % 1.33 C
2314 03-02-2019 00:45:00 1.9 C 96 % 1.33 C
2315 03-02-2019 00:50:00 1.9 C 96 % 1.33 C
2316 03-02-2019 00:55:00 2 C 96 % 1.43 C
2317 03-02-2019 01:00:00 2 C 96 % 1.43 C
2318 03-02-2019 01:05:00 2 C 96 % 1.43 C
2319 03-02-2019 01:10:00 2 C 96 % 1.43 C
2320 03-02-2019 01:15:00 2 C 96 % 1.43 C
2321 03-02-2019 01:20:00 2.1 C 96 % 1.53 C
2322 03-02-2019 01:25:00 2.1 C 96 % 1.53 C
2323 03-02-2019 01:30:00 2.1 C 96 % 1.53 C
2324 03-02-2019 01:35:00 2.1 C 96 % 1.53 C
2325 03-02-2019 01:40:00 2.1 C 96 % 1.53 C
Sensor: Nr:Datum:Temp:Feuchte:Taupunkt:
Aussen-T/F 2326 03-02-2019 01:45:00 2.1 C 96 % 1.53 C
2327 03-02-2019 01:50:00 2.1 C 96 % 1.53 C
2328 03-02-2019 01:55:00 2.1 C 96 % 1.53 C
2329 03-02-2019 02:00:00 2.1 C 96 % 1.53 C
2330 03-02-2019 02:05:00 2.1 C 95 % 1.38 C
2331 03-02-2019 02:10:00 2.1 C 95 % 1.38 C
2332 03-02-2019 02:15:00 2.1 C 95 % 1.38 C
2333 03-02-2019 02:20:00 2.1 C 95 % 1.38 C
2334 03-02-2019 02:25:00 2.2 C 95 % 1.48 C
2335 03-02-2019 02:30:00 2.2 C 94 % 1.34 C
2336 03-02-2019 02:35:00 2.2 C 94 % 1.34 C
2337 03-02-2019 02:40:00 2.2 C 94 % 1.34 C
2338 03-02-2019 02:45:00 2.2 C 93 % 1.19 C
2339 03-02-2019 02:50:00 2.2 C 93 % 1.19 C
2340 03-02-2019 02:55:00 2.2 C 93 % 1.19 C
2341 03-02-2019 03:00:00 2.2 C 93 % 1.19 C
2342 03-02-2019 03:05:00 2.2 C 93 % 1.19 C
2343 03-02-2019 03:10:00 2.2 C 93 % 1.19 C
2344 03-02-2019 03:15:00 2.2 C 93 % 1.19 C
2345 03-02-2019 03:20:00 2.2 C 93 % 1.19 C
2346 03-02-2019 03:25:00 2.2 C 93 % 1.19 C
2347 03-02-2019 03:30:00 2.2 C 93 % 1.19 C
2348 03-02-2019 03:35:00 2.2 C 93 % 1.19 C
2349 03-02-2019 03:40:00 2.2 C 93 % 1.19 C
2350 03-02-2019 03:45:00 2.2 C 93 % 1.19 C
Sensor: Nr:Datum:Temp:Feuchte:Taupunkt:
Aussen-T/F 2351 03-02-2019 03:50:00 2.1 C 93 % 1.09 C
2352 03-02-2019 03:55:00 2.1 C 93 % 1.09 C
2353 03-02-2019 04:00:00 2.1 C 93 % 1.09 C
2354 03-02-2019 04:05:00 2.1 C 93 % 1.09 C
2355 03-02-2019 04:10:00 2.1 C 93 % 1.09 C
2356 03-02-2019 04:15:00 2.1 C 93 % 1.09 C
2357 03-02-2019 04:20:00 2.1 C 93 % 1.09 C
2358 03-02-2019 04:25:00 2.1 C 93 % 1.09 C
2359 03-02-2019 04:30:00 2.1 C 94 % 1.24 C
2360 03-02-2019 04:35:00 2.1 C 94 % 1.24 C
2361 03-02-2019 04:40:00 2.1 C 94 % 1.24 C
2362 03-02-2019 04:45:00 2.1 C 94 % 1.24 C
2363 03-02-2019 04:50:00 2.1 C 94 % 1.24 C
2364 03-02-2019 04:55:00 2.1 C 94 % 1.24 C
2365 03-02-2019 05:00:00 2.1 C 94 % 1.24 C
2366 03-02-2019 05:05:00 2.1 C 93 % 1.09 C
2367 03-02-2019 05:10:00 2.2 C 93 % 1.19 C
2368 03-02-2019 05:15:00 2.2 C 93 % 1.19 C
2369 03-02-2019 05:20:00 2.2 C 93 % 1.19 C
2370 03-02-2019 05:25:00 2.2 C 93 % 1.19 C
2371 03-02-2019 05:30:00 2.2 C 93 % 1.19 C
2372 03-02-2019 05:35:00 2.2 C 93 % 1.19 C
2373 03-02-2019 05:40:00 2.2 C 93 % 1.19 C
2374 03-02-2019 05:45:00 2.2 C 93 % 1.19 C
2375 03-02-2019 05:50:00 2.2 C 93 % 1.19 C
Sensor: Nr:Datum:Temp:Feuchte:Taupunkt:
Aussen-T/F 2376 03-02-2019 05:55:00 2.2 C 93 % 1.19 C
2377 03-02-2019 06:00:00 2.2 C 93 % 1.19 C
2378 03-02-2019 06:05:00 2.2 C 93 % 1.19 C
2379 03-02-2019 06:10:00 2.2 C 93 % 1.19 C
2380 03-02-2019 06:15:00 2.3 C 92 % 1.14 C
2381 03-02-2019 06:20:00 2.3 C 92 % 1.14 C
2382 03-02-2019 06:25:00 2.3 C 93 % 1.29 C
2383 03-02-2019 06:30:00 2.2 C 92 % 1.04 C
2384 03-02-2019 06:35:00 2.2 C 92 % 1.04 C
2385 03-02-2019 06:40:00 2.2 C 92 % 1.04 C
2386 03-02-2019 06:45:00 2.1 C 92 % 0.94 C
2387 03-02-2019 06:50:00 2.1 C 93 % 1.09 C
2388 03-02-2019 06:55:00 2 C 93 % 0.99 C
2389 03-02-2019 07:00:00 1.9 C 93 % 0.89 C
2390 03-02-2019 07:05:00 1.9 C 93 % 0.89 C
2391 03-02-2019 07:10:00 1.9 C 93 % 0.89 C
2392 03-02-2019 07:15:00 1.9 C 93 % 0.89 C
2393 03-02-2019 07:20:00 1.9 C 93 % 0.89 C
2394 03-02-2019 07:25:00 1.9 C 93 % 0.89 C
2395 03-02-2019 07:30:00 1.9 C 93 % 0.89 C
2396 03-02-2019 07:35:00 1.9 C 93 % 0.89 C
2397 03-02-2019 07:40:00 1.9 C 93 % 0.89 C
2398 03-02-2019 07:45:00 1.9 C 93 % 0.89 C
2399 03-02-2019 07:50:00 1.9 C 93 % 0.89 C
2400 03-02-2019 07:55:00 1.9 C 93 % 0.89 C
Sensor: Nr:Datum:Temp:Feuchte:Taupunkt:
Aussen-T/F 2401 03-02-2019 08:00:00 1.9 C 93 % 0.89 C
2402 03-02-2019 08:05:00 1.9 C 93 % 0.89 C
2403 03-02-2019 08:10:00 1.8 C 93 % 0.79 C
2404 03-02-2019 08:15:00 1.8 C 93 % 0.79 C
2405 03-02-2019 08:20:00 1.8 C 93 % 0.79 C
2406 03-02-2019 08:25:00 1.9 C 93 % 0.89 C
2407 03-02-2019 08:30:00 1.9 C 93 % 0.89 C
2408 03-02-2019 08:35:00 1.9 C 93 % 0.89 C
2409 03-02-2019 08:40:00 1.9 C 93 % 0.89 C
2410 03-02-2019 08:45:00 1.9 C 93 % 0.89 C
2411 03-02-2019 08:50:00 1.9 C 93 % 0.89 C
2412 03-02-2019 08:55:00 1.9 C 93 % 0.89 C
2413 03-02-2019 09:00:00 1.9 C 93 % 0.89 C
2414 03-02-2019 09:05:00 1.9 C 93 % 0.89 C
2415 03-02-2019 09:10:00 2 C 93 % 0.99 C
2416 03-02-2019 09:15:00 2 C 94 % 1.14 C
2417 03-02-2019 09:20:00 2 C 94 % 1.14 C
2418 03-02-2019 09:25:00 2 C 94 % 1.14 C
2419 03-02-2019 09:30:00 2 C 93 % 0.99 C
2420 03-02-2019 09:35:00 2 C 93 % 0.99 C
2421 03-02-2019 09:40:00 2 C 93 % 0.99 C
2422 03-02-2019 09:45:00 2 C 93 % 0.99 C
2423 03-02-2019 09:50:00 2.1 C 93 % 1.09 C
2424 03-02-2019 09:55:00 2.2 C 92 % 1.04 C
2425 03-02-2019 10:00:00 2.2 C 92 % 1.04 C
Sensor: Nr:Datum:Temp:Feuchte:Taupunkt:
Aussen-T/F 2426 03-02-2019 10:05:00 2.3 C 92 % 1.14 C
2427 03-02-2019 10:10:00 2.3 C 92 % 1.14 C
2428 03-02-2019 10:15:00 2.4 C 92 % 1.24 C
2429 03-02-2019 10:20:00 2.4 C 92 % 1.24 C
2430 03-02-2019 10:25:00 2.4 C 92 % 1.24 C
2431 03-02-2019 10:30:00 2.5 C 91 % 1.18 C
2432 03-02-2019 10:35:00 2.5 C 91 % 1.18 C
2433 03-02-2019 10:40:00 2.6 C 91 % 1.28 C
2434 03-02-2019 10:45:00 2.6 C 91 % 1.28 C
2435 03-02-2019 10:50:00 2.7 C 90 % 1.23 C
2436 03-02-2019 10:55:00 2.7 C 90 % 1.23 C
2437 03-02-2019 11:00:00 2.7 C 90 % 1.23 C
2438 03-02-2019 11:05:00 2.8 C 90 % 1.33 C
2439 03-02-2019 11:10:00 2.9 C 90 % 1.43 C
2440 03-02-2019 11:15:00 2.9 C 89 % 1.27 C
2441 03-02-2019 11:20:00 3.1 C 89 % 1.47 C
2442 03-02-2019 11:25:00 3.2 C 89 % 1.57 C
2443 03-02-2019 11:30:00 3.2 C 88 % 1.41 C
2444 03-02-2019 11:35:00 3.3 C 88 % 1.51 C
2445 03-02-2019 11:40:00 3.3 C 88 % 1.51 C
2446 03-02-2019 11:45:00 3.3 C 88 % 1.51 C
2447 03-02-2019 11:50:00 3.3 C 88 % 1.51 C
2448 03-02-2019 11:55:00 3.3 C 88 % 1.51 C
2449 03-02-2019 12:00:00 3.3 C 88 % 1.51 C
2450 03-02-2019 12:05:00 3.3 C 87 % 1.35 C
Sensor: Nr:Datum:Temp:Feuchte:Taupunkt:
Aussen-T/F 2451 03-02-2019 12:10:00 3.3 C 87 % 1.35 C
2452 03-02-2019 12:15:00 3.4 C 86 % 1.29 C
2453 03-02-2019 12:20:00 3.4 C 86 % 1.29 C
2454 03-02-2019 12:25:00 3.6 C 85 % 1.32 C
2455 03-02-2019 12:30:00 3.7 C 85 % 1.42 C
2456 03-02-2019 12:35:00 3.7 C 85 % 1.42 C
2457 03-02-2019 12:40:00 3.8 C 84 % 1.35 C
2458 03-02-2019 12:45:00 3.8 C 85 % 1.52 C
2459 03-02-2019 12:50:00 3.9 C 85 % 1.61 C
2460 03-02-2019 12:55:00 3.8 C 85 % 1.52 C
2461 03-02-2019 13:00:00 3.8 C 84 % 1.35 C
2462 03-02-2019 13:05:00 3.8 C 85 % 1.52 C
2463 03-02-2019 13:10:00 3.8 C 85 % 1.52 C
2464 03-02-2019 13:15:00 3.8 C 84 % 1.35 C
2465 03-02-2019 13:20:00 3.9 C 85 % 1.61 C
2466 03-02-2019 13:25:00 3.9 C 83 % 1.28 C
2467 03-02-2019 13:30:00 3.9 C 83 % 1.28 C
2468 03-02-2019 13:35:00 4 C 83 % 1.38 C
2469 03-02-2019 13:40:00 4.1 C 83 % 1.48 C
2470 03-02-2019 13:45:00 4.2 C 82 % 1.41 C
2471 03-02-2019 13:50:00 4.2 C 81 % 1.24 C
2472 03-02-2019 13:55:00 4.2 C 82 % 1.41 C
2473 03-02-2019 14:00:00 4.2 C 82 % 1.41 C
2474 03-02-2019 14:05:00 4.2 C 83 % 1.58 C
2475 03-02-2019 14:10:00 4.1 C 83 % 1.48 C
Sensor: Nr:Datum:Temp:Feuchte:Taupunkt:
Aussen-T/F 2476 03-02-2019 14:15:00 4.1 C 84 % 1.65 C
2477 03-02-2019 14:20:00 3.9 C 84 % 1.45 C
2478 03-02-2019 14:25:00 3.9 C 84 % 1.45 C
2479 03-02-2019 14:30:00 3.9 C 84 % 1.45 C
2480 03-02-2019 14:35:00 4 C 84 % 1.55 C
2481 03-02-2019 14:40:00 4.1 C 83 % 1.48 C
2482 03-02-2019 14:45:00 4.2 C 83 % 1.58 C
2483 03-02-2019 14:50:00 4.2 C 82 % 1.41 C
2484 03-02-2019 14:55:00 4.4 C 81 % 1.43 C
2485 03-02-2019 15:00:00 4.4 C 79 % 1.09 C
2486 03-02-2019 15:05:00 4.4 C 78 % 0.91 C
2487 03-02-2019 15:10:00 4.4 C 78 % 0.91 C
2488 03-02-2019 15:15:00 4.5 C 78 % 1.01 C
2489 03-02-2019 15:20:00 4.5 C 77 % 0.83 C
2490 03-02-2019 15:25:00 4.6 C 76 % 0.74 C
2491 03-02-2019 15:30:00 4.6 C 78 % 1.1 C
2492 03-02-2019 15:35:00 4.5 C 77 % 0.83 C
2493 03-02-2019 15:40:00 4.6 C 76 % 0.74 C
2494 03-02-2019 15:45:00 4.6 C 75 % 0.56 C
2495 03-02-2019 15:50:00 4.5 C 75 % 0.46 C
2496 03-02-2019 15:55:00 4.5 C 75 % 0.46 C
2497 03-02-2019 16:00:00 4.4 C 75 % 0.37 C
2498 03-02-2019 16:05:00 4.4 C 75 % 0.37 C
2499 03-02-2019 16:10:00 4.4 C 76 % 0.55 C
2500 03-02-2019 16:15:00 4.4 C 76 % 0.55 C
Sensor: Nr:Datum:Temp:Feuchte:Taupunkt:
Aussen-T/F 2501 03-02-2019 16:20:00 4.4 C 76 % 0.55 C
2502 03-02-2019 16:25:00 4.4 C 76 % 0.55 C
2503 03-02-2019 16:30:00 4.4 C 76 % 0.55 C
2504 03-02-2019 16:35:00 4.5 C 76 % 0.65 C
2505 03-02-2019 16:40:00 4.5 C 77 % 0.83 C
2506 03-02-2019 16:45:00 4.5 C 76 % 0.65 C
2507 03-02-2019 16:50:00 4.5 C 77 % 0.83 C
2508 03-02-2019 16:55:00 4.4 C 77 % 0.73 C
2509 03-02-2019 17:00:00 4.4 C 77 % 0.73 C
2510 03-02-2019 17:05:00 4.4 C 77 % 0.73 C
2511 03-02-2019 17:10:00 4.3 C 77 % 0.63 C
2512 03-02-2019 17:15:00 4.3 C 77 % 0.63 C
2513 03-02-2019 17:20:00 4.3 C 77 % 0.63 C
2514 03-02-2019 17:25:00 4.3 C 77 % 0.63 C
2515 03-02-2019 17:30:00 4.3 C 78 % 0.81 C
2516 03-02-2019 17:35:00 4.3 C 79 % 0.99 C
2517 03-02-2019 17:40:00 4.2 C 79 % 0.89 C
2518 03-02-2019 17:45:00 4.2 C 79 % 0.89 C
2519 03-02-2019 17:50:00 4.1 C 79 % 0.79 C
2520 03-02-2019 17:55:00 4.1 C 80 % 0.97 C
2521 03-02-2019 18:00:00 4.1 C 80 % 0.97 C
2522 03-02-2019 18:05:00 4 C 81 % 1.04 C
2523 03-02-2019 18:10:00 3.9 C 81 % 0.95 C
2524 03-02-2019 18:15:00 3.9 C 82 % 1.12 C
2525 03-02-2019 18:20:00 3.9 C 82 % 1.12 C
Sensor: Nr:Datum:Temp:Feuchte:Taupunkt:
Aussen-T/F 2526 03-02-2019 18:25:00 3.9 C 83 % 1.28 C
2527 03-02-2019 18:30:00 3.8 C 83 % 1.19 C
2528 03-02-2019 18:35:00 3.8 C 83 % 1.19 C
2529 03-02-2019 18:40:00 3.8 C 83 % 1.19 C
2530 03-02-2019 18:45:00 3.8 C 83 % 1.19 C
2531 03-02-2019 18:50:00 3.8 C 83 % 1.19 C
2532 03-02-2019 18:55:00 3.8 C 83 % 1.19 C
2533 03-02-2019 19:00:00 3.8 C 84 % 1.35 C
2534 03-02-2019 19:05:00 3.7 C 84 % 1.25 C
2535 03-02-2019 19:10:00 3.7 C 84 % 1.25 C
2536 03-02-2019 19:15:00 3.7 C 84 % 1.25 C
2537 03-02-2019 19:20:00 3.6 C 84 % 1.16 C
2538 03-02-2019 19:25:00 3.6 C 85 % 1.32 C
2539 03-02-2019 19:30:00 3.6 C 85 % 1.32 C
2540 03-02-2019 19:35:00 3.6 C 85 % 1.32 C
2541 03-02-2019 19:40:00 3.5 C 85 % 1.22 C
2542 03-02-2019 19:45:00 3.4 C 86 % 1.29 C
2543 03-02-2019 19:50:00 3.4 C 86 % 1.29 C
2544 03-02-2019 19:55:00 3.4 C 86 % 1.29 C
2545 03-02-2019 20:00:00 3.3 C 86 % 1.19 C
2546 03-02-2019 20:05:00 3.3 C 87 % 1.35 C
2547 03-02-2019 20:10:00 3.3 C 87 % 1.35 C
2548 03-02-2019 20:15:00 3.3 C 87 % 1.35 C
2549 03-02-2019 20:20:00 3.3 C 87 % 1.35 C
2550 03-02-2019 20:25:00 3.2 C 88 % 1.41 C
Sensor: Nr:Datum:Temp:Feuchte:Taupunkt:
Aussen-T/F 2551 03-02-2019 20:30:00 3.2 C 88 % 1.41 C
2552 03-02-2019 20:35:00 3.2 C 88 % 1.41 C
2553 03-02-2019 20:40:00 3.1 C 87 % 1.15 C
2554 03-02-2019 20:45:00 3.1 C 87 % 1.15 C
2555 03-02-2019 20:50:00 3.1 C 87 % 1.15 C
2556 03-02-2019 20:55:00 2.9 C 87 % 0.96 C
2557 03-02-2019 21:00:00 2.7 C 87 % 0.76 C
2558 03-02-2019 21:05:00 2.4 C 87 % 0.46 C
2559 03-02-2019 21:10:00 2.3 C 88 % 0.52 C
2560 03-02-2019 21:15:00 2.1 C 88 % 0.33 C
2561 03-02-2019 21:20:00 2 C 89 % 0.38 C
2562 03-02-2019 21:25:00 1.9 C 89 % 0.28 C
2563 03-02-2019 21:30:00 1.8 C 89 % 0.19 C
2564 03-02-2019 21:35:00 1.7 C 90 % 0.24 C
2565 03-02-2019 21:40:00 1.6 C 90 % 0.14 C
2566 03-02-2019 21:45:00 1.6 C 90 % 0.14 C
2567 03-02-2019 21:50:00 1.5 C 91 % 0.19 C
2568 03-02-2019 21:55:00 1.5 C 91 % 0.19 C
2569 03-02-2019 22:00:00 1.4 C 91 % 0.1 C
2570 03-02-2019 22:05:00 1.4 C 91 % 0.1 C
2571 03-02-2019 22:10:00 1.3 C 91 % 0 C
2572 03-02-2019 22:15:00 1.2 C 91 % -0.1 C
2573 03-02-2019 22:20:00 1.1 C 91 % -0.2 C
2574 03-02-2019 22:25:00 1.1 C 91 % -0.2 C
2575 03-02-2019 22:30:00 0.9 C 91 % -0.4 C
Sensor: Nr:Datum:Temp:Feuchte:Taupunkt:
Aussen-T/F 2576 03-02-2019 22:35:00 0.8 C 91 % -0.5 C
2577 03-02-2019 22:40:00 0.8 C 91 % -0.5 C
2578 03-02-2019 22:45:00 0.7 C 92 % -0.45 C
2579 03-02-2019 22:50:00 0.6 C 92 % -0.55 C
2580 03-02-2019 22:55:00 0.6 C 92 % -0.55 C
2581 03-02-2019 23:00:00 0.6 C 92 % -0.55 C
2582 03-02-2019 23:05:00 0.5 C 93 % -0.5 C
2583 03-02-2019 23:10:00 0.5 C 93 % -0.5 C
2584 03-02-2019 23:15:00 0.4 C 93 % -0.6 C
2585 03-02-2019 23:20:00 0.4 C 92 % -0.74 C
2586 03-02-2019 23:25:00 0.3 C 93 % -0.7 C
2587 03-02-2019 23:30:00 0.3 C 93 % -0.7 C
2588 03-02-2019 23:35:00 0.2 C 93 % -0.79 C
2589 03-02-2019 23:40:00 0.1 C 93 % -0.89 C
2590 03-02-2019 23:45:00 0 C 93 % -0.99 C
2591 03-02-2019 23:50:00 -0.1 C 93 % -1.09 C
2592 03-02-2019 23:55:00 -0.1 C 93 % -1.09 C
2593 04-02-2019 00:00:00 -0.1 C 93 % -1.09 C
2594 04-02-2019 00:05:00 -0.2 C 93 % -1.19 C
2595 04-02-2019 00:10:00 -0.2 C 93 % -1.19 C
2596 04-02-2019 00:15:00 -0.2 C 93 % -1.19 C
2597 04-02-2019 00:20:00 -0.3 C 94 % -1.15 C
2598 04-02-2019 00:25:00 -0.3 C 94 % -1.15 C
2599 04-02-2019 00:30:00 -0.3 C 94 % -1.15 C
2600 04-02-2019 00:35:00 -0.4 C 94 % -1.25 C
Sensor: Nr:Datum:Temp:Feuchte:Taupunkt:
Aussen-T/F 2601 04-02-2019 00:40:00 -0.4 C 94 % -1.25 C
2602 04-02-2019 00:45:00 -0.4 C 94 % -1.25 C
2603 04-02-2019 00:50:00 -0.5 C 94 % -1.34 C
2604 04-02-2019 00:55:00 -0.5 C 94 % -1.34 C
2605 04-02-2019 01:00:00 -0.5 C 94 % -1.34 C
2606 04-02-2019 01:05:00 -0.4 C 95 % -1.1 C
2607 04-02-2019 01:10:00 -0.3 C 95 % -1 C
2608 04-02-2019 01:15:00 -0.2 C 95 % -0.9 C
2609 04-02-2019 01:20:00 0 C 95 % -0.7 C
2610 04-02-2019 01:25:00 0.1 C 95 % -0.6 C
2611 04-02-2019 01:30:00 0.1 C 95 % -0.6 C
2612 04-02-2019 01:35:00 0.1 C 95 % -0.6 C
2613 04-02-2019 01:40:00 0.1 C 95 % -0.6 C
2614 04-02-2019 01:45:00 0.1 C 95 % -0.6 C
2615 04-02-2019 01:50:00 0.1 C 95 % -0.6 C
2616 04-02-2019 01:55:00 0.1 C 95 % -0.6 C
2617 04-02-2019 02:00:00 0.1 C 95 % -0.6 C
2618 04-02-2019 02:05:00 0.1 C 95 % -0.6 C
2619 04-02-2019 02:10:00 0.1 C 95 % -0.6 C
2620 04-02-2019 02:15:00 0.1 C 94 % -0.75 C
2621 04-02-2019 02:20:00 0.1 C 94 % -0.75 C
2622 04-02-2019 02:25:00 0.1 C 95 % -0.6 C
2623 04-02-2019 02:30:00 0.1 C 94 % -0.75 C
2624 04-02-2019 02:35:00 0 C 94 % -0.85 C
2625 04-02-2019 02:40:00 -0.1 C 94 % -0.95 C
Sensor: Nr:Datum:Temp:Feuchte:Taupunkt:
Aussen-T/F 2626 04-02-2019 02:45:00 -0.2 C 94 % -1.05 C
2627 04-02-2019 02:50:00 -0.2 C 94 % -1.05 C
2628 04-02-2019 02:55:00 -0.2 C 94 % -1.05 C
2629 04-02-2019 03:00:00 -0.3 C 94 % -1.15 C
2630 04-02-2019 03:05:00 -0.2 C 94 % -1.05 C
2631 04-02-2019 03:10:00 -0.2 C 94 % -1.05 C
2632 04-02-2019 03:15:00 -0.2 C 94 % -1.05 C
2633 04-02-2019 03:20:00 -0.2 C 94 % -1.05 C
2634 04-02-2019 03:25:00 -0.2 C 94 % -1.05 C
2635 04-02-2019 03:30:00 -0.2 C 94 % -1.05 C
2636 04-02-2019 03:35:00 -0.2 C 94 % -1.05 C
2637 04-02-2019 03:40:00 -0.2 C 94 % -1.05 C
2638 04-02-2019 03:45:00 -0.1 C 94 % -0.95 C
2639 04-02-2019 03:50:00 -0.2 C 94 % -1.05 C
2640 04-02-2019 03:55:00 -0.2 C 94 % -1.05 C
2641 04-02-2019 04:00:00 -0.3 C 94 % -1.15 C
2642 04-02-2019 04:05:00 -0.3 C 94 % -1.15 C
2643 04-02-2019 04:10:00 -0.3 C 94 % -1.15 C
2644 04-02-2019 04:15:00 -0.4 C 94 % -1.25 C
2645 04-02-2019 04:20:00 -0.5 C 94 % -1.34 C
2646 04-02-2019 04:25:00 -0.6 C 94 % -1.44 C
2647 04-02-2019 04:30:00 -0.6 C 94 % -1.44 C
2648 04-02-2019 04:35:00 -0.6 C 94 % -1.44 C
2649 04-02-2019 04:40:00 -0.6 C 94 % -1.44 C
2650 04-02-2019 04:45:00 -0.5 C 94 % -1.34 C
Sensor: Nr:Datum:Temp:Feuchte:Taupunkt:
Aussen-T/F 2651 04-02-2019 04:50:00 -0.5 C 94 % -1.34 C
2652 04-02-2019 04:55:00 -0.5 C 95 % -1.2 C
2653 04-02-2019 05:00:00 -0.4 C 94 % -1.25 C
2654 04-02-2019 05:05:00 -0.4 C 95 % -1.1 C
2655 04-02-2019 05:10:00 -0.3 C 95 % -1 C
2656 04-02-2019 05:15:00 -0.2 C 95 % -0.9 C
2657 04-02-2019 05:20:00 -0.2 C 95 % -0.9 C
2658 04-02-2019 05:25:00 -0.1 C 95 % -0.8 C
2659 04-02-2019 05:30:00 0.1 C 95 % -0.6 C
2660 04-02-2019 05:35:00 0.1 C 95 % -0.6 C
2661 04-02-2019 05:40:00 0.2 C 95 % -0.5 C
2662 04-02-2019 05:45:00 0.2 C 95 % -0.5 C
2663 04-02-2019 05:50:00 0.3 C 95 % -0.4 C
2664 04-02-2019 05:55:00 0.3 C 95 % -0.4 C
2665 04-02-2019 06:00:00 0.3 C 95 % -0.4 C
2666 04-02-2019 06:05:00 0.3 C 95 % -0.4 C
2667 04-02-2019 06:10:00 0.3 C 95 % -0.4 C
2668 04-02-2019 06:15:00 0.3 C 95 % -0.4 C
2669 04-02-2019 06:20:00 0.4 C 95 % -0.31 C
2670 04-02-2019 06:25:00 0.4 C 95 % -0.31 C
2671 04-02-2019 06:30:00 0.4 C 95 % -0.31 C
2672 04-02-2019 06:35:00 0.4 C 95 % -0.31 C
2673 04-02-2019 06:40:00 0.4 C 95 % -0.31 C
2674 04-02-2019 06:45:00 0.4 C 95 % -0.31 C
2675 04-02-2019 06:50:00 0.4 C 95 % -0.31 C
Sensor: Nr:Datum:Temp:Feuchte:Taupunkt:
Aussen-T/F 2676 04-02-2019 06:55:00 0.4 C 95 % -0.31 C
2677 04-02-2019 07:00:00 0.4 C 95 % -0.31 C
2678 04-02-2019 07:05:00 0.4 C 95 % -0.31 C
2679 04-02-2019 07:10:00 0.5 C 95 % -0.21 C
2680 04-02-2019 07:15:00 0.5 C 95 % -0.21 C
2681 04-02-2019 07:20:00 0.5 C 95 % -0.21 C
2682 04-02-2019 07:25:00 0.6 C 95 % -0.11 C
2683 04-02-2019 07:30:00 0.5 C 95 % -0.21 C
2684 04-02-2019 07:35:00 0.5 C 95 % -0.21 C
2685 04-02-2019 07:40:00 0.5 C 95 % -0.21 C
2686 04-02-2019 07:45:00 0.6 C 95 % -0.11 C
2687 04-02-2019 07:50:00 0.6 C 94 % -0.25 C
2688 04-02-2019 07:55:00 0.6 C 95 % -0.11 C
2689 04-02-2019 08:00:00 0.6 C 95 % -0.11 C
2690 04-02-2019 08:05:00 0.6 C 95 % -0.11 C
2691 04-02-2019 08:10:00 0.6 C 95 % -0.11 C
2692 04-02-2019 08:15:00 0.6 C 95 % -0.11 C
2693 04-02-2019 08:20:00 0.7 C 95 % -0.01 C
2694 04-02-2019 08:25:00 0.7 C 94 % -0.15 C
2695 04-02-2019 08:30:00 0.7 C 94 % -0.15 C
2696 04-02-2019 08:35:00 0.7 C 94 % -0.15 C
2697 04-02-2019 08:40:00 0.8 C 94 % -0.05 C
2698 04-02-2019 08:45:00 0.8 C 94 % -0.05 C
2699 04-02-2019 08:50:00 0.8 C 94 % -0.05 C
2700 04-02-2019 08:55:00 0.8 C 94 % -0.05 C
Sensor: Nr:Datum:Temp:Feuchte:Taupunkt:
Aussen-T/F 2701 04-02-2019 09:00:00 0.8 C 94 % -0.05 C
2702 04-02-2019 09:05:00 0.8 C 94 % -0.05 C
2703 04-02-2019 09:10:00 0.7 C 94 % -0.15 C
2704 04-02-2019 09:15:00 0.7 C 94 % -0.15 C
2705 04-02-2019 09:20:00 0.6 C 93 % -0.4 C
2706 04-02-2019 09:25:00 0.6 C 94 % -0.25 C
2707 04-02-2019 09:30:00 0.5 C 94 % -0.35 C
2708 04-02-2019 09:35:00 0.5 C 94 % -0.35 C
2709 04-02-2019 09:40:00 0.5 C 94 % -0.35 C
2710 04-02-2019 09:45:00 0.6 C 94 % -0.25 C
2711 04-02-2019 09:50:00 0.5 C 94 % -0.35 C
2712 04-02-2019 09:55:00 0.5 C 94 % -0.35 C
2713 04-02-2019 10:00:00 0.6 C 94 % -0.25 C
2714 04-02-2019 10:05:00 0.6 C 94 % -0.25 C
2715 04-02-2019 10:10:00 0.6 C 94 % -0.25 C
2716 04-02-2019 10:15:00 0.7 C 94 % -0.15 C
2717 04-02-2019 10:20:00 0.8 C 94 % -0.05 C
2718 04-02-2019 10:25:00 0.8 C 95 % 0.09 C
2719 04-02-2019 10:30:00 0.9 C 94 % 0.05 C
2720 04-02-2019 10:35:00 1 C 94 % 0.15 C
2721 04-02-2019 10:40:00 1.1 C 94 % 0.24 C
2722 04-02-2019 10:45:00 1.2 C 94 % 0.34 C
2723 04-02-2019 10:50:00 1.2 C 94 % 0.34 C
2724 04-02-2019 10:55:00 1.3 C 94 % 0.44 C
2725 04-02-2019 11:00:00 1.4 C 94 % 0.54 C
Sensor: Nr:Datum:Temp:Feuchte:Taupunkt:
Aussen-T/F 2726 04-02-2019 11:05:00 1.6 C 93 % 0.59 C
2727 04-02-2019 11:10:00 1.7 C 93 % 0.69 C
2728 04-02-2019 11:15:00 1.8 C 93 % 0.79 C
2729 04-02-2019 11:20:00 1.9 C 92 % 0.74 C
2730 04-02-2019 11:25:00 2 C 91 % 0.69 C
2731 04-02-2019 11:30:00 2.1 C 91 % 0.79 C
2732 04-02-2019 11:35:00 2.2 C 90 % 0.73 C
2733 04-02-2019 11:40:00 2.3 C 90 % 0.83 C
2734 04-02-2019 11:45:00 2.4 C 90 % 0.93 C
2735 04-02-2019 11:50:00 2.5 C 89 % 0.88 C
2736 04-02-2019 11:55:00 2.6 C 89 % 0.97 C
2737 04-02-2019 12:00:00 2.7 C 89 % 1.07 C
2738 04-02-2019 12:05:00 2.9 C 89 % 1.27 C
2739 04-02-2019 12:10:00 3.1 C 88 % 1.31 C
2740 04-02-2019 12:15:00 3.2 C 88 % 1.41 C
2741 04-02-2019 12:20:00 3.3 C 85 % 1.03 C
2742 04-02-2019 12:25:00 3.6 C 82 % 0.82 C
2743 04-02-2019 12:30:00 3.9 C 80 % 0.77 C
2744 04-02-2019 12:35:00 4.2 C 78 % 0.71 C
2745 04-02-2019 12:40:00 4.3 C 77 % 0.63 C
2746 04-02-2019 12:45:00 4.5 C 77 % 0.83 C
2747 04-02-2019 12:50:00 4.6 C 75 % 0.56 C
2748 04-02-2019 12:55:00 4.7 C 74 % 0.47 C
2749 04-02-2019 13:00:00 4.8 C 74 % 0.57 C
2750 04-02-2019 13:05:00 4.8 C 73 % 0.38 C
Sensor: Nr:Datum:Temp:Feuchte:Taupunkt:
Aussen-T/F 2751 04-02-2019 13:10:00 4.8 C 74 % 0.57 C
2752 04-02-2019 13:15:00 4.8 C 73 % 0.38 C
2753 04-02-2019 13:20:00 4.8 C 72 % 0.19 C
2754 04-02-2019 13:25:00 4.8 C 72 % 0.19 C
2755 04-02-2019 13:30:00 4.8 C 72 % 0.19 C
2756 04-02-2019 13:35:00 4.7 C 72 % 0.09 C
2757 04-02-2019 13:40:00 4.7 C 73 % 0.28 C
2758 04-02-2019 13:45:00 4.7 C 72 % 0.09 C
2759 04-02-2019 13:50:00 4.8 C 72 % 0.19 C
2760 04-02-2019 13:55:00 4.9 C 72 % 0.29 C
2761 04-02-2019 14:00:00 4.9 C 71 % 0.09 C
2762 04-02-2019 14:05:00 5 C 72 % 0.38 C
2763 04-02-2019 14:10:00 5.2 C 71 % 0.38 C
2764 04-02-2019 14:15:00 5.2 C 69 % -0.01 C
2765 04-02-2019 14:20:00 5.3 C 69 % 0.09 C
2766 04-02-2019 14:25:00 5.4 C 70 % 0.38 C
2767 04-02-2019 14:30:00 5.4 C 67 % -0.22 C
2768 04-02-2019 14:35:00 5.4 C 67 % -0.22 C
2769 04-02-2019 14:40:00 5.4 C 67 % -0.22 C
2770 04-02-2019 14:45:00 5.5 C 66 % -0.33 C
2771 04-02-2019 14:50:00 5.5 C 67 % -0.13 C
2772 04-02-2019 14:55:00 5.5 C 66 % -0.33 C
2773 04-02-2019 15:00:00 5.4 C 66 % -0.43 C
2774 04-02-2019 15:05:00 5.4 C 66 % -0.43 C
2775 04-02-2019 15:10:00 5.4 C 67 % -0.22 C
Sensor: Nr:Datum:Temp:Feuchte:Taupunkt:
Aussen-T/F 2776 04-02-2019 15:15:00 5.3 C 68 % -0.12 C
2777 04-02-2019 15:20:00 5.3 C 66 % -0.52 C
2778 04-02-2019 15:25:00 5.3 C 66 % -0.52 C
2779 04-02-2019 15:30:00 5.3 C 65 % -0.73 C
2780 04-02-2019 15:35:00 5.3 C 67 % -0.32 C
2781 04-02-2019 15:40:00 5.3 C 68 % -0.12 C
2782 04-02-2019 15:45:00 5.3 C 68 % -0.12 C
2783 04-02-2019 15:50:00 5.3 C 68 % -0.12 C
2784 04-02-2019 15:55:00 5.3 C 66 % -0.52 C
2785 04-02-2019 16:00:00 5.3 C 67 % -0.32 C
2786 04-02-2019 16:05:00 5.3 C 69 % 0.09 C
2787 04-02-2019 16:10:00 5.3 C 70 % 0.28 C
2788 04-02-2019 16:15:00 5.3 C 68 % -0.12 C
2789 04-02-2019 16:20:00 5.3 C 67 % -0.32 C
2790 04-02-2019 16:25:00 5.2 C 70 % 0.19 C
2791 04-02-2019 16:30:00 5.2 C 73 % 0.77 C
2792 04-02-2019 16:35:00 5 C 73 % 0.57 C
2793 04-02-2019 16:40:00 4.8 C 74 % 0.57 C
2794 04-02-2019 16:45:00 4.7 C 76 % 0.84 C
2795 04-02-2019 16:50:00 4.4 C 77 % 0.73 C
2796 04-02-2019 16:55:00 4.2 C 78 % 0.71 C
2797 04-02-2019 17:00:00 3.9 C 79 % 0.6 C
2798 04-02-2019 17:05:00 3.6 C 81 % 0.65 C
2799 04-02-2019 17:10:00 3.3 C 81 % 0.36 C
2800 04-02-2019 17:15:00 3.1 C 82 % 0.33 C
Sensor: Nr:Datum:Temp:Feuchte:Taupunkt:
Aussen-T/F 2801 04-02-2019 17:20:00 2.9 C 83 % 0.31 C
2802 04-02-2019 17:25:00 2.7 C 84 % 0.27 C
2803 04-02-2019 17:30:00 2.6 C 84 % 0.18 C
2804 04-02-2019 17:35:00 2.4 C 85 % 0.14 C
2805 04-02-2019 17:40:00 2.3 C 85 % 0.04 C
2806 04-02-2019 17:45:00 2.2 C 85 % -0.05 C
2807 04-02-2019 17:50:00 2.1 C 86 % 0.01 C
2808 04-02-2019 17:55:00 1.9 C 86 % -0.19 C
2809 04-02-2019 18:00:00 1.8 C 86 % -0.29 C
2810 04-02-2019 18:05:00 1.7 C 87 % -0.23 C
2811 04-02-2019 18:10:00 1.6 C 87 % -0.32 C
2812 04-02-2019 18:15:00 1.6 C 87 % -0.32 C
2813 04-02-2019 18:20:00 1.5 C 87 % -0.42 C
2814 04-02-2019 18:25:00 1.4 C 87 % -0.52 C
2815 04-02-2019 18:30:00 1.3 C 87 % -0.62 C
2816 04-02-2019 18:35:00 1.3 C 88 % -0.46 C
2817 04-02-2019 18:40:00 1.2 C 88 % -0.56 C
2818 04-02-2019 18:45:00 1.2 C 88 % -0.56 C
2819 04-02-2019 18:50:00 1.1 C 89 % -0.51 C
2820 04-02-2019 18:55:00 1.1 C 89 % -0.51 C
2821 04-02-2019 19:00:00 1.1 C 89 % -0.51 C
2822 04-02-2019 19:05:00 1.1 C 89 % -0.51 C
2823 04-02-2019 19:10:00 1.2 C 89 % -0.41 C
2824 04-02-2019 19:15:00 1.2 C 89 % -0.41 C
2825 04-02-2019 19:20:00 1.3 C 90 % -0.15 C
Sensor: Nr:Datum:Temp:Feuchte:Taupunkt:
Aussen-T/F 2826 04-02-2019 19:25:00 1.3 C 90 % -0.15 C
2827 04-02-2019 19:30:00 1.4 C 90 % -0.06 C
2828 04-02-2019 19:35:00 1.5 C 90 % 0.04 C
2829 04-02-2019 19:40:00 1.6 C 90 % 0.14 C
2830 04-02-2019 19:45:00 1.7 C 89 % 0.09 C
2831 04-02-2019 19:50:00 1.7 C 90 % 0.24 C
2832 04-02-2019 19:55:00 1.8 C 90 % 0.34 C
2833 04-02-2019 20:00:00 1.8 C 89 % 0.19 C
2834 04-02-2019 20:05:00 1.9 C 89 % 0.28 C
2835 04-02-2019 20:10:00 1.9 C 89 % 0.28 C
2836 04-02-2019 20:15:00 1.9 C 89 % 0.28 C
2837 04-02-2019 20:20:00 1.9 C 88 % 0.13 C
2838 04-02-2019 20:25:00 2 C 88 % 0.23 C
2839 04-02-2019 20:30:00 2 C 88 % 0.23 C
2840 04-02-2019 20:35:00 2 C 88 % 0.23 C
2841 04-02-2019 20:40:00 2 C 88 % 0.23 C
2842 04-02-2019 20:45:00 2.2 C 86 % 0.11 C
2843 04-02-2019 20:50:00 2.2 C 85 % -0.05 C
2844 04-02-2019 20:55:00 2.3 C 84 % -0.12 C
2845 04-02-2019 21:00:00 2.3 C 83 % -0.28 C
2846 04-02-2019 21:05:00 2.4 C 83 % -0.18 C
2847 04-02-2019 21:10:00 2.5 C 83 % -0.09 C
2848 04-02-2019 21:15:00 2.6 C 83 % 0.01 C
2849 04-02-2019 21:20:00 2.7 C 82 % -0.06 C
2850 04-02-2019 21:25:00 2.7 C 83 % 0.11 C
Sensor: Nr:Datum:Temp:Feuchte:Taupunkt:
Aussen-T/F 2851 04-02-2019 21:30:00 2.7 C 83 % 0.11 C
2852 04-02-2019 21:35:00 2.7 C 83 % 0.11 C
2853 04-02-2019 21:40:00 2.7 C 83 % 0.11 C
2854 04-02-2019 21:45:00 2.7 C 82 % -0.06 C
2855 04-02-2019 21:50:00 2.7 C 82 % -0.06 C
2856 04-02-2019 21:55:00 2.8 C 81 % -0.13 C
2857 04-02-2019 22:00:00 2.8 C 82 % 0.04 C
2858 04-02-2019 22:05:00 2.9 C 83 % 0.31 C
2859 04-02-2019 22:10:00 2.9 C 82 % 0.14 C
2860 04-02-2019 22:15:00 2.9 C 83 % 0.31 C
2861 04-02-2019 22:20:00 2.9 C 82 % 0.14 C
2862 04-02-2019 22:25:00 2.9 C 83 % 0.31 C
2863 04-02-2019 22:30:00 2.8 C 83 % 0.21 C
2864 04-02-2019 22:35:00 2.8 C 82 % 0.04 C
2865 04-02-2019 22:40:00 2.8 C 83 % 0.21 C
2866 04-02-2019 22:45:00 2.8 C 83 % 0.21 C
2867 04-02-2019 22:50:00 2.9 C 84 % 0.47 C
2868 04-02-2019 22:55:00 2.8 C 85 % 0.54 C
2869 04-02-2019 23:00:00 2.8 C 85 % 0.54 C
2870 04-02-2019 23:05:00 2.8 C 85 % 0.54 C
2871 04-02-2019 23:10:00 2.7 C 86 % 0.6 C
2872 04-02-2019 23:15:00 2.7 C 85 % 0.44 C
2873 04-02-2019 23:20:00 2.7 C 85 % 0.44 C
2874 04-02-2019 23:25:00 2.7 C 86 % 0.6 C
2875 04-02-2019 23:30:00 2.7 C 86 % 0.6 C
Sensor: Nr:Datum:Temp:Feuchte:Taupunkt:
Aussen-T/F 2876 04-02-2019 23:35:00 2.7 C 85 % 0.44 C
2877 04-02-2019 23:40:00 2.7 C 85 % 0.44 C
2878 04-02-2019 23:45:00 2.7 C 85 % 0.44 C
2879 04-02-2019 23:50:00 2.7 C 83 % 0.11 C
2880 04-02-2019 23:55:00 2.7 C 83 % 0.11 C
2881 05-02-2019 00:00:00 2.8 C 83 % 0.21 C
2882 05-02-2019 00:05:00 2.8 C 83 % 0.21 C
2883 05-02-2019 00:10:00 2.9 C 83 % 0.31 C
2884 05-02-2019 00:15:00 2.9 C 83 % 0.31 C
2885 05-02-2019 00:20:00 2.9 C 83 % 0.31 C
2886 05-02-2019 00:25:00 3 C 83 % 0.4 C
2887 05-02-2019 00:30:00 3 C 83 % 0.4 C
2888 05-02-2019 00:35:00 3 C 84 % 0.57 C
2889 05-02-2019 00:40:00 3.1 C 82 % 0.33 C
2890 05-02-2019 00:45:00 3.1 C 82 % 0.33 C
2891 05-02-2019 00:50:00 3.2 C 82 % 0.43 C
2892 05-02-2019 00:55:00 3.2 C 81 % 0.26 C
2893 05-02-2019 01:00:00 3.2 C 83 % 0.6 C
2894 05-02-2019 01:05:00 3.2 C 81 % 0.26 C
2895 05-02-2019 01:10:00 3.3 C 81 % 0.36 C
2896 05-02-2019 01:15:00 3.3 C 80 % 0.19 C
2897 05-02-2019 01:20:00 3.3 C 81 % 0.36 C
2898 05-02-2019 01:25:00 3.3 C 80 % 0.19 C
2899 05-02-2019 01:30:00 3.4 C 81 % 0.46 C
2900 05-02-2019 01:35:00 3.3 C 79 % 0.02 C
Sensor: Nr:Datum:Temp:Feuchte:Taupunkt:
Aussen-T/F 2901 05-02-2019 01:40:00 3.4 C 80 % 0.29 C
2902 05-02-2019 01:45:00 3.4 C 81 % 0.46 C
2903 05-02-2019 01:50:00 3.4 C 82 % 0.63 C
2904 05-02-2019 01:55:00 3.3 C 81 % 0.36 C
2905 05-02-2019 02:00:00 3.3 C 82 % 0.53 C
2906 05-02-2019 02:05:00 3.3 C 80 % 0.19 C
2907 05-02-2019 02:10:00 3.3 C 80 % 0.19 C
2908 05-02-2019 02:15:00 3.3 C 81 % 0.36 C
2909 05-02-2019 02:20:00 3.3 C 80 % 0.19 C
2910 05-02-2019 02:25:00 3.4 C 80 % 0.29 C
2911 05-02-2019 02:30:00 3.4 C 79 % 0.11 C
2912 05-02-2019 02:35:00 3.4 C 78 % -0.06 C
2913 05-02-2019 02:40:00 3.5 C 78 % 0.04 C
2914 05-02-2019 02:45:00 3.6 C 78 % 0.13 C
2915 05-02-2019 02:50:00 3.6 C 78 % 0.13 C
2916 05-02-2019 02:55:00 3.6 C 77 % -0.05 C
2917 05-02-2019 03:00:00 3.6 C 77 % -0.05 C
2918 05-02-2019 03:05:00 3.6 C 77 % -0.05 C
2919 05-02-2019 03:10:00 3.7 C 77 % 0.05 C
2920 05-02-2019 03:15:00 3.7 C 77 % 0.05 C
2921 05-02-2019 03:20:00 3.6 C 76 % -0.22 C
2922 05-02-2019 03:25:00 3.6 C 77 % -0.05 C
2923 05-02-2019 03:30:00 3.6 C 78 % 0.13 C
2924 05-02-2019 03:35:00 3.6 C 78 % 0.13 C
2925 05-02-2019 03:40:00 3.6 C 80 % 0.48 C
Sensor: Nr:Datum:Temp:Feuchte:Taupunkt:
Aussen-T/F 2926 05-02-2019 03:45:00 3.6 C 79 % 0.31 C
2927 05-02-2019 03:50:00 3.5 C 80 % 0.38 C
2928 05-02-2019 03:55:00 3.5 C 78 % 0.04 C
2929 05-02-2019 04:00:00 3.5 C 81 % 0.55 C
2930 05-02-2019 04:05:00 3.5 C 80 % 0.38 C
2931 05-02-2019 04:10:00 3.4 C 79 % 0.11 C
2932 05-02-2019 04:15:00 3.4 C 79 % 0.11 C
2933 05-02-2019 04:20:00 3.4 C 80 % 0.29 C
2934 05-02-2019 04:25:00 3.4 C 80 % 0.29 C
2935 05-02-2019 04:30:00 3.4 C 79 % 0.11 C
2936 05-02-2019 04:35:00 3.4 C 78 % -0.06 C
2937 05-02-2019 04:40:00 3.4 C 78 % -0.06 C
2938 05-02-2019 04:45:00 3.4 C 78 % -0.06 C
2939 05-02-2019 04:50:00 3.5 C 77 % -0.14 C
2940 05-02-2019 04:55:00 3.6 C 78 % 0.13 C
2941 05-02-2019 05:00:00 3.6 C 77 % -0.05 C
2942 05-02-2019 05:05:00 3.6 C 77 % -0.05 C
2943 05-02-2019 05:10:00 3.6 C 77 % -0.05 C
2944 05-02-2019 05:15:00 3.6 C 77 % -0.05 C
2945 05-02-2019 05:20:00 3.6 C 76 % -0.22 C
2946 05-02-2019 05:25:00 3.7 C 77 % 0.05 C
2947 05-02-2019 05:30:00 3.6 C 77 % -0.05 C
2948 05-02-2019 05:35:00 3.7 C 76 % -0.13 C
2949 05-02-2019 05:40:00 3.7 C 76 % -0.13 C
2950 05-02-2019 05:45:00 3.7 C 76 % -0.13 C
Sensor: Nr:Datum:Temp:Feuchte:Taupunkt:
Aussen-T/F 2951 05-02-2019 05:50:00 3.7 C 75 % -0.31 C
2952 05-02-2019 05:55:00 3.7 C 78 % 0.23 C
2953 05-02-2019 06:00:00 3.7 C 78 % 0.23 C
2954 05-02-2019 06:05:00 3.7 C 80 % 0.58 C
2955 05-02-2019 06:10:00 3.6 C 80 % 0.48 C
2956 05-02-2019 06:15:00 3.6 C 80 % 0.48 C
2957 05-02-2019 06:20:00 3.4 C 80 % 0.29 C
2958 05-02-2019 06:25:00 3.4 C 81 % 0.46 C
2959 05-02-2019 06:30:00 3.3 C 82 % 0.53 C
2960 05-02-2019 06:35:00 3.3 C 83 % 0.7 C
2961 05-02-2019 06:40:00 3.2 C 83 % 0.6 C
2962 05-02-2019 06:45:00 3.2 C 83 % 0.6 C
2963 05-02-2019 06:50:00 3.2 C 84 % 0.76 C
2964 05-02-2019 06:55:00 3.1 C 84 % 0.67 C
2965 05-02-2019 07:00:00 3.1 C 84 % 0.67 C
2966 05-02-2019 07:05:00 3.1 C 84 % 0.67 C
2967 05-02-2019 07:10:00 3 C 84 % 0.57 C
2968 05-02-2019 07:15:00 3 C 85 % 0.73 C
2969 05-02-2019 07:20:00 3 C 85 % 0.73 C
2970 05-02-2019 07:25:00 3 C 84 % 0.57 C
2971 05-02-2019 07:30:00 3 C 85 % 0.73 C
2972 05-02-2019 07:35:00 3 C 85 % 0.73 C
2973 05-02-2019 07:40:00 2.9 C 85 % 0.63 C
2974 05-02-2019 07:45:00 2.9 C 86 % 0.8 C
2975 05-02-2019 07:50:00 2.9 C 86 % 0.8 C
Sensor: Nr:Datum:Temp:Feuchte:Taupunkt:
Aussen-T/F 2976 05-02-2019 07:55:00 2.9 C 85 % 0.63 C
2977 05-02-2019 08:00:00 2.9 C 86 % 0.8 C
2978 05-02-2019 08:05:00 2.9 C 86 % 0.8 C
2979 05-02-2019 08:10:00 2.9 C 86 % 0.8 C
2980 05-02-2019 08:15:00 2.9 C 86 % 0.8 C
2981 05-02-2019 08:20:00 2.9 C 85 % 0.63 C
2982 05-02-2019 08:25:00 2.9 C 86 % 0.8 C
2983 05-02-2019 08:30:00 2.9 C 86 % 0.8 C
2984 05-02-2019 08:35:00 3 C 85 % 0.73 C
2985 05-02-2019 08:40:00 3 C 84 % 0.57 C
2986 05-02-2019 08:45:00 3.1 C 83 % 0.5 C
2987 05-02-2019 08:50:00 3.2 C 84 % 0.76 C
2988 05-02-2019 08:55:00 3.2 C 83 % 0.6 C
2989 05-02-2019 09:00:00 3.3 C 83 % 0.7 C
2990 05-02-2019 09:05:00 3.3 C 82 % 0.53 C
2991 05-02-2019 09:10:00 3.4 C 82 % 0.63 C
2992 05-02-2019 09:15:00 3.5 C 81 % 0.55 C
2993 05-02-2019 09:20:00 3.6 C 80 % 0.48 C
2994 05-02-2019 09:25:00 3.6 C 80 % 0.48 C
2995 05-02-2019 09:30:00 3.6 C 80 % 0.48 C
2996 05-02-2019 09:35:00 3.7 C 80 % 0.58 C
2997 05-02-2019 09:40:00 3.7 C 80 % 0.58 C
2998 05-02-2019 09:45:00 3.7 C 79 % 0.4 C
2999 05-02-2019 09:50:00 3.8 C 79 % 0.5 C
3000 05-02-2019 09:55:00 3.8 C 79 % 0.5 C
Sensor: Nr:Datum:Temp:Feuchte:Taupunkt:
Aussen-T/F 3001 05-02-2019 10:00:00 3.8 C 79 % 0.5 C
3002 05-02-2019 10:05:00 3.9 C 79 % 0.6 C
3003 05-02-2019 10:10:00 3.9 C 79 % 0.6 C
3004 05-02-2019 10:15:00 4 C 79 % 0.7 C
3005 05-02-2019 10:20:00 4.1 C 78 % 0.62 C
3006 05-02-2019 10:25:00 4.2 C 78 % 0.71 C
3007 05-02-2019 10:30:00 4.2 C 78 % 0.71 C
3008 05-02-2019 10:35:00 4.3 C 77 % 0.63 C
3009 05-02-2019 10:40:00 4.3 C 78 % 0.81 C
3010 05-02-2019 10:45:00 4.4 C 78 % 0.91 C
3011 05-02-2019 10:50:00 4.4 C 77 % 0.73 C
3012 05-02-2019 10:55:00 4.6 C 77 % 0.92 C
3013 05-02-2019 11:00:00 4.7 C 78 % 1.2 C
3014 05-02-2019 11:05:00 4.7 C 77 % 1.02 C
3015 05-02-2019 11:10:00 4.8 C 76 % 0.94 C
3016 05-02-2019 11:15:00 4.8 C 76 % 0.94 C
3017 05-02-2019 11:20:00 4.9 C 76 % 1.03 C
3018 05-02-2019 11:25:00 5 C 76 % 1.13 C
3019 05-02-2019 11:30:00 5.1 C 75 % 1.04 C
3020 05-02-2019 11:35:00 5.1 C 75 % 1.04 C
3021 05-02-2019 11:40:00 5.2 C 75 % 1.14 C
3022 05-02-2019 11:45:00 5.2 C 75 % 1.14 C
3023 05-02-2019 11:50:00 5.3 C 75 % 1.24 C
3024 05-02-2019 11:55:00 5.3 C 75 % 1.24 C
3025 05-02-2019 12:00:00 5.4 C 76 % 1.52 C
Sensor: Nr:Datum:Temp:Feuchte:Taupunkt:
Aussen-T/F 3026 05-02-2019 12:05:00 5.6 C 76 % 1.71 C
3027 05-02-2019 12:10:00 5.6 C 75 % 1.53 C
3028 05-02-2019 12:15:00 5.8 C 75 % 1.72 C
3029 05-02-2019 12:20:00 5.8 C 75 % 1.72 C
3030 05-02-2019 12:25:00 5.9 C 74 % 1.63 C
3031 05-02-2019 12:30:00 6 C 75 % 1.91 C
3032 05-02-2019 12:35:00 6 C 74 % 1.73 C
3033 05-02-2019 12:40:00 6 C 74 % 1.73 C
3034 05-02-2019 12:45:00 6.1 C 74 % 1.82 C
3035 05-02-2019 12:50:00 6 C 74 % 1.73 C
3036 05-02-2019 12:55:00 6.1 C 74 % 1.82 C
3037 05-02-2019 13:00:00 6.1 C 74 % 1.82 C
3038 05-02-2019 13:05:00 6.1 C 74 % 1.82 C
3039 05-02-2019 13:10:00 6.2 C 73 % 1.73 C
3040 05-02-2019 13:15:00 6.2 C 74 % 1.92 C
3041 05-02-2019 13:20:00 6.3 C 74 % 2.02 C
3042 05-02-2019 13:25:00 6.3 C 74 % 2.02 C
3043 05-02-2019 13:30:00 6.4 C 73 % 1.92 C
3044 05-02-2019 13:35:00 6.4 C 73 % 1.92 C
3045 05-02-2019 13:40:00 6.4 C 73 % 1.92 C
3046 05-02-2019 13:45:00 6.4 C 73 % 1.92 C
3047 05-02-2019 13:50:00 6.4 C 73 % 1.92 C
3048 05-02-2019 13:55:00 6.5 C 73 % 2.02 C
3049 05-02-2019 14:00:00 6.5 C 72 % 1.83 C
3050 05-02-2019 14:05:00 6.6 C 73 % 2.12 C
Sensor: Nr:Datum:Temp:Feuchte:Taupunkt:
Aussen-T/F 3051 05-02-2019 14:10:00 6.6 C 73 % 2.12 C
3052 05-02-2019 14:15:00 6.7 C 73 % 2.21 C
3053 05-02-2019 14:20:00 6.7 C 73 % 2.21 C
3054 05-02-2019 14:25:00 6.7 C 73 % 2.21 C
3055 05-02-2019 14:30:00 6.7 C 73 % 2.21 C
3056 05-02-2019 14:35:00 6.8 C 73 % 2.31 C
3057 05-02-2019 14:40:00 6.8 C 73 % 2.31 C
3058 05-02-2019 14:45:00 6.9 C 73 % 2.4 C
3059 05-02-2019 14:50:00 6.9 C 73 % 2.4 C
3060 05-02-2019 14:55:00 6.9 C 72 % 2.21 C
3061 05-02-2019 15:00:00 7 C 74 % 2.69 C
3062 05-02-2019 15:05:00 7 C 73 % 2.5 C
3063 05-02-2019 15:10:00 7.1 C 73 % 2.6 C
3064 05-02-2019 15:15:00 7.1 C 73 % 2.6 C
3065 05-02-2019 15:20:00 7 C 74 % 2.69 C
3066 05-02-2019 15:25:00 7.1 C 74 % 2.79 C
3067 05-02-2019 15:30:00 7.1 C 73 % 2.6 C
3068 05-02-2019 15:35:00 7 C 73 % 2.5 C
3069 05-02-2019 15:40:00 7 C 73 % 2.5 C
3070 05-02-2019 15:45:00 7 C 74 % 2.69 C
3071 05-02-2019 15:50:00 7 C 75 % 2.88 C
3072 05-02-2019 15:55:00 7 C 74 % 2.69 C
3073 05-02-2019 16:00:00 7 C 74 % 2.69 C
3074 05-02-2019 16:05:00 6.9 C 74 % 2.6 C
3075 05-02-2019 16:10:00 6.9 C 74 % 2.6 C
Sensor: Nr:Datum:Temp:Feuchte:Taupunkt:
Aussen-T/F 3076 05-02-2019 16:15:00 6.9 C 75 % 2.78 C
3077 05-02-2019 16:20:00 6.9 C 75 % 2.78 C
3078 05-02-2019 16:25:00 6.8 C 76 % 2.87 C
3079 05-02-2019 16:30:00 6.8 C 76 % 2.87 C
3080 05-02-2019 16:35:00 6.8 C 77 % 3.06 C
3081 05-02-2019 16:40:00 6.8 C 78 % 3.24 C
3082 05-02-2019 16:45:00 6.8 C 79 % 3.42 C
3083 05-02-2019 16:50:00 6.7 C 80 % 3.5 C
3084 05-02-2019 16:55:00 6.7 C 80 % 3.5 C
3085 05-02-2019 17:00:00 6.6 C 81 % 3.58 C
3086 05-02-2019 17:05:00 6.6 C 81 % 3.58 C
3087 05-02-2019 17:10:00 6.6 C 81 % 3.58 C
3088 05-02-2019 17:15:00 6.4 C 82 % 3.56 C
3089 05-02-2019 17:20:00 6.3 C 82 % 3.46 C
3090 05-02-2019 17:25:00 6.3 C 83 % 3.63 C
3091 05-02-2019 17:30:00 6.1 C 83 % 3.44 C
3092 05-02-2019 17:35:00 6 C 84 % 3.51 C
3093 05-02-2019 17:40:00 5.9 C 84 % 3.41 C
3094 05-02-2019 17:45:00 5.8 C 84 % 3.31 C
3095 05-02-2019 17:50:00 5.7 C 85 % 3.38 C
3096 05-02-2019 17:55:00 5.6 C 85 % 3.28 C
3097 05-02-2019 18:00:00 5.5 C 85 % 3.18 C
3098 05-02-2019 18:05:00 5.4 C 86 % 3.25 C
3099 05-02-2019 18:10:00 5.3 C 86 % 3.15 C
3100 05-02-2019 18:15:00 5.3 C 86 % 3.15 C
Sensor: Nr:Datum:Temp:Feuchte:Taupunkt:
Aussen-T/F 3101 05-02-2019 18:20:00 5.2 C 86 % 3.05 C
3102 05-02-2019 18:25:00 5.2 C 86 % 3.05 C
3103 05-02-2019 18:30:00 5.1 C 86 % 2.96 C
3104 05-02-2019 18:35:00 5.1 C 86 % 2.96 C
3105 05-02-2019 18:40:00 5 C 87 % 3.02 C
3106 05-02-2019 18:45:00 5 C 87 % 3.02 C
3107 05-02-2019 18:50:00 4.9 C 87 % 2.92 C
3108 05-02-2019 18:55:00 4.9 C 87 % 2.92 C
3109 05-02-2019 19:00:00 4.8 C 87 % 2.82 C
3110 05-02-2019 19:05:00 4.8 C 87 % 2.82 C
3111 05-02-2019 19:10:00 4.8 C 87 % 2.82 C
3112 05-02-2019 19:15:00 4.8 C 87 % 2.82 C
3113 05-02-2019 19:20:00 4.8 C 87 % 2.82 C
3114 05-02-2019 19:25:00 4.8 C 88 % 2.99 C
3115 05-02-2019 19:30:00 4.7 C 88 % 2.89 C
3116 05-02-2019 19:35:00 4.7 C 87 % 2.73 C
3117 05-02-2019 19:40:00 4.7 C 88 % 2.89 C
3118 05-02-2019 19:45:00 4.7 C 88 % 2.89 C
3119 05-02-2019 19:50:00 4.7 C 88 % 2.89 C
3120 05-02-2019 19:55:00 4.7 C 88 % 2.89 C
3121 05-02-2019 20:00:00 4.7 C 88 % 2.89 C
3122 05-02-2019 20:05:00 4.6 C 88 % 2.79 C
3123 05-02-2019 20:10:00 4.6 C 88 % 2.79 C
3124 05-02-2019 20:15:00 4.5 C 88 % 2.69 C
3125 05-02-2019 20:20:00 4.4 C 88 % 2.59 C
Sensor: Nr:Datum:Temp:Feuchte:Taupunkt:
Aussen-T/F 3126 05-02-2019 20:25:00 4.4 C 88 % 2.59 C
3127 05-02-2019 20:30:00 4.3 C 88 % 2.49 C
3128 05-02-2019 20:35:00 4.2 C 88 % 2.39 C
3129 05-02-2019 20:40:00 4.2 C 88 % 2.39 C
3130 05-02-2019 20:45:00 4.1 C 89 % 2.45 C
3131 05-02-2019 20:50:00 4.1 C 89 % 2.45 C
3132 05-02-2019 20:55:00 4.1 C 89 % 2.45 C
3133 05-02-2019 21:00:00 4.1 C 89 % 2.45 C
3134 05-02-2019 21:05:00 4.1 C 89 % 2.45 C
3135 05-02-2019 21:10:00 4.2 C 90 % 2.71 C
3136 05-02-2019 21:15:00 4.2 C 90 % 2.71 C
3137 05-02-2019 21:20:00 4.2 C 90 % 2.71 C
3138 05-02-2019 21:25:00 4.2 C 90 % 2.71 C
3139 05-02-2019 21:30:00 4.2 C 90 % 2.71 C
3140 05-02-2019 21:35:00 4.2 C 90 % 2.71 C
3141 05-02-2019 21:40:00 4.2 C 89 % 2.55 C
3142 05-02-2019 21:45:00 4.1 C 89 % 2.45 C
3143 05-02-2019 21:50:00 3.9 C 88 % 2.1 C
3144 05-02-2019 21:55:00 3.7 C 88 % 1.9 C
3145 05-02-2019 22:00:00 3.4 C 88 % 1.61 C
3146 05-02-2019 22:05:00 3.3 C 89 % 1.67 C
3147 05-02-2019 22:10:00 3.1 C 89 % 1.47 C
3148 05-02-2019 22:15:00 2.9 C 89 % 1.27 C
3149 05-02-2019 22:20:00 2.8 C 89 % 1.17 C
3150 05-02-2019 22:25:00 2.7 C 89 % 1.07 C
Sensor: Nr:Datum:Temp:Feuchte:Taupunkt:
Aussen-T/F 3151 05-02-2019 22:30:00 2.6 C 90 % 1.13 C
3152 05-02-2019 22:35:00 2.4 C 90 % 0.93 C
3153 05-02-2019 22:40:00 2.4 C 90 % 0.93 C
3154 05-02-2019 22:45:00 2.3 C 91 % 0.99 C
3155 05-02-2019 22:50:00 2.2 C 91 % 0.89 C
3156 05-02-2019 22:55:00 2.2 C 91 % 0.89 C
3157 05-02-2019 23:00:00 2.1 C 91 % 0.79 C
3158 05-02-2019 23:05:00 2.1 C 91 % 0.79 C
3159 05-02-2019 23:10:00 2 C 92 % 0.84 C
3160 05-02-2019 23:15:00 1.9 C 91 % 0.59 C
3161 05-02-2019 23:20:00 1.9 C 92 % 0.74 C
3162 05-02-2019 23:25:00 1.8 C 92 % 0.64 C
3163 05-02-2019 23:30:00 1.8 C 92 % 0.64 C
3164 05-02-2019 23:35:00 1.7 C 92 % 0.54 C
3165 05-02-2019 23:40:00 1.6 C 92 % 0.44 C
3166 05-02-2019 23:45:00 1.4 C 92 % 0.25 C
3167 05-02-2019 23:50:00 1.3 C 91 % 0 C
3168 05-02-2019 23:55:00 1.1 C 92 % -0.05 C
3169 06-02-2019 00:00:00 1 C 92 % -0.15 C
3170 06-02-2019 00:05:00 0.8 C 92 % -0.35 C
3171 06-02-2019 00:10:00 0.7 C 92 % -0.45 C
3172 06-02-2019 00:15:00 0.6 C 92 % -0.55 C
3173 06-02-2019 00:20:00 0.5 C 92 % -0.65 C
3174 06-02-2019 00:25:00 0.4 C 93 % -0.6 C
3175 06-02-2019 00:30:00 0.3 C 93 % -0.7 C
Sensor: Nr:Datum:Temp:Feuchte:Taupunkt:
Aussen-T/F 3176 06-02-2019 00:35:00 0.3 C 93 % -0.7 C
3177 06-02-2019 00:40:00 0.2 C 93 % -0.79 C
3178 06-02-2019 00:45:00 0.2 C 93 % -0.79 C
3179 06-02-2019 00:50:00 0.1 C 93 % -0.89 C
3180 06-02-2019 00:55:00 0.1 C 93 % -0.89 C
3181 06-02-2019 01:00:00 0 C 94 % -0.85 C
3182 06-02-2019 01:05:00 0 C 94 % -0.85 C
3183 06-02-2019 01:10:00 -0.1 C 94 % -0.95 C
3184 06-02-2019 01:15:00 -0.1 C 94 % -0.95 C
3185 06-02-2019 01:20:00 -0.2 C 94 % -1.05 C
3186 06-02-2019 01:25:00 -0.3 C 94 % -1.15 C
3187 06-02-2019 01:30:00 -0.3 C 94 % -1.15 C
3188 06-02-2019 01:35:00 -0.3 C 94 % -1.15 C
3189 06-02-2019 01:40:00 -0.3 C 94 % -1.15 C
3190 06-02-2019 01:45:00 -0.3 C 94 % -1.15 C
3191 06-02-2019 01:50:00 -0.4 C 94 % -1.25 C
3192 06-02-2019 01:55:00 -0.4 C 94 % -1.25 C
3193 06-02-2019 02:00:00 -0.5 C 94 % -1.34 C
3194 06-02-2019 02:05:00 -0.6 C 94 % -1.44 C
3195 06-02-2019 02:10:00 -0.6 C 94 % -1.44 C
3196 06-02-2019 02:15:00 -0.6 C 94 % -1.44 C
3197 06-02-2019 02:20:00 -0.6 C 95 % -1.3 C
3198 06-02-2019 02:25:00 -0.6 C 95 % -1.3 C
3199 06-02-2019 02:30:00 -0.7 C 95 % -1.4 C
3200 06-02-2019 02:35:00 -0.7 C 95 % -1.4 C
Sensor: Nr:Datum:Temp:Feuchte:Taupunkt:
Aussen-T/F 3201 06-02-2019 02:40:00 -0.7 C 94 % -1.54 C
3202 06-02-2019 02:45:00 -0.8 C 94 % -1.64 C
3203 06-02-2019 02:50:00 -0.8 C 94 % -1.64 C
3204 06-02-2019 02:55:00 -0.9 C 95 % -1.6 C
3205 06-02-2019 03:00:00 -0.9 C 95 % -1.6 C
3206 06-02-2019 03:05:00 -1 C 95 % -1.7 C
3207 06-02-2019 03:10:00 -1.1 C 95 % -1.8 C
3208 06-02-2019 03:15:00 -1.1 C 94 % -1.94 C
3209 06-02-2019 03:20:00 -1.2 C 94 % -2.04 C
3210 06-02-2019 03:25:00 -1.2 C 95 % -1.9 C
3211 06-02-2019 03:30:00 -1.2 C 95 % -1.9 C
3212 06-02-2019 03:35:00 -1.3 C 95 % -2 C
3213 06-02-2019 03:40:00 -1.2 C 95 % -1.9 C
3214 06-02-2019 03:45:00 -1.2 C 95 % -1.9 C
3215 06-02-2019 03:50:00 -1.3 C 95 % -2 C
3216 06-02-2019 03:55:00 -1.3 C 95 % -2 C
3217 06-02-2019 04:00:00 -1.3 C 95 % -2 C
3218 06-02-2019 04:05:00 -1.4 C 95 % -2.1 C
3219 06-02-2019 04:10:00 -1.4 C 95 % -2.1 C
3220 06-02-2019 04:15:00 -1.4 C 95 % -2.1 C
3221 06-02-2019 04:20:00 -1.3 C 95 % -2 C
3222 06-02-2019 04:25:00 -1.3 C 95 % -2 C
3223 06-02-2019 04:30:00 -1.4 C 95 % -2.1 C
3224 06-02-2019 04:35:00 -1.4 C 95 % -2.1 C
3225 06-02-2019 04:40:00 -1.5 C 95 % -2.19 C
Sensor: Nr:Datum:Temp:Feuchte:Taupunkt:
Aussen-T/F 3226 06-02-2019 04:45:00 -1.5 C 95 % -2.19 C
3227 06-02-2019 04:50:00 -1.6 C 95 % -2.29 C
3228 06-02-2019 04:55:00 -1.6 C 95 % -2.29 C
3229 06-02-2019 05:00:00 -1.6 C 95 % -2.29 C
3230 06-02-2019 05:05:00 -1.6 C 95 % -2.29 C
3231 06-02-2019 05:10:00 -1.4 C 95 % -2.1 C
3232 06-02-2019 05:15:00 -1.4 C 95 % -2.1 C
3233 06-02-2019 05:20:00 -1.4 C 95 % -2.1 C
3234 06-02-2019 05:25:00 -1.6 C 95 % -2.29 C
3235 06-02-2019 05:30:00 -1.6 C 95 % -2.29 C
3236 06-02-2019 05:35:00 -1.7 C 95 % -2.39 C
3237 06-02-2019 05:40:00 -1.7 C 95 % -2.39 C
3238 06-02-2019 05:45:00 -1.7 C 95 % -2.39 C
3239 06-02-2019 05:50:00 -1.7 C 95 % -2.39 C
3240 06-02-2019 05:55:00 -1.7 C 95 % -2.39 C
3241 06-02-2019 06:00:00 -1.7 C 95 % -2.39 C
3242 06-02-2019 06:05:00 -1.7 C 95 % -2.39 C
3243 06-02-2019 06:10:00 -1.7 C 95 % -2.39 C
3244 06-02-2019 06:15:00 -1.7 C 95 % -2.39 C
3245 06-02-2019 06:20:00 -1.8 C 95 % -2.49 C
3246 06-02-2019 06:25:00 -1.8 C 95 % -2.49 C
3247 06-02-2019 06:30:00 -1.8 C 95 % -2.49 C
3248 06-02-2019 06:35:00 -1.8 C 95 % -2.49 C
3249 06-02-2019 06:40:00 -1.8 C 95 % -2.49 C
3250 06-02-2019 06:45:00 -1.8 C 95 % -2.49 C
Sensor: Nr:Datum:Temp:Feuchte:Taupunkt:
Aussen-T/F 3251 06-02-2019 06:50:00 -1.8 C 95 % -2.49 C
3252 06-02-2019 06:55:00 -1.8 C 95 % -2.49 C
3253 06-02-2019 07:00:00 -1.8 C 95 % -2.49 C
3254 06-02-2019 07:05:00 -1.9 C 95 % -2.59 C
3255 06-02-2019 07:10:00 -1.9 C 95 % -2.59 C
3256 06-02-2019 07:15:00 -1.9 C 95 % -2.59 C
3257 06-02-2019 07:20:00 -2 C 95 % -2.69 C
3258 06-02-2019 07:25:00 -2.1 C 95 % -2.79 C
3259 06-02-2019 07:30:00 -2.1 C 95 % -2.79 C
3260 06-02-2019 07:35:00 -1.9 C 95 % -2.59 C
3261 06-02-2019 07:40:00 -1.9 C 95 % -2.59 C
3262 06-02-2019 07:45:00 -2 C 95 % -2.69 C
3263 06-02-2019 07:50:00 -2.1 C 95 % -2.79 C
3264 06-02-2019 07:55:00 -2.1 C 95 % -2.79 C
3265 06-02-2019 08:00:00 -2.2 C 95 % -2.89 C
3266 06-02-2019 08:05:00 -2.2 C 95 % -2.89 C
3267 06-02-2019 08:10:00 -2.3 C 95 % -2.99 C
3268 06-02-2019 08:15:00 -2.3 C 95 % -2.99 C
3269 06-02-2019 08:20:00 -2.3 C 95 % -2.99 C
3270 06-02-2019 08:25:00 -2.2 C 96 % -2.75 C
3271 06-02-2019 08:30:00 -2.2 C 96 % -2.75 C
3272 06-02-2019 08:35:00 -2.2 C 96 % -2.75 C
3273 06-02-2019 08:40:00 -2.2 C 96 % -2.75 C
3274 06-02-2019 08:45:00 -2.2 C 96 % -2.75 C
3275 06-02-2019 08:50:00 -2.2 C 96 % -2.75 C
Sensor: Nr:Datum:Temp:Feuchte:Taupunkt:
Aussen-T/F 3276 06-02-2019 08:55:00 -2.1 C 96 % -2.65 C
3277 06-02-2019 09:00:00 -2 C 96 % -2.55 C
3278 06-02-2019 09:05:00 -1.9 C 96 % -2.45 C
3279 06-02-2019 09:10:00 -1.8 C 96 % -2.35 C
3280 06-02-2019 09:15:00 -1.7 C 96 % -2.25 C
3281 06-02-2019 09:20:00 -1.6 C 96 % -2.15 C
3282 06-02-2019 09:25:00 -1.4 C 96 % -1.95 C
3283 06-02-2019 09:30:00 -1.3 C 96 % -1.85 C
3284 06-02-2019 09:35:00 -1.2 C 96 % -1.75 C
3285 06-02-2019 09:40:00 -1.1 C 96 % -1.66 C
3286 06-02-2019 09:45:00 -0.9 C 96 % -1.46 C
3287 06-02-2019 09:50:00 -0.8 C 96 % -1.36 C
3288 06-02-2019 09:55:00 -0.7 C 96 % -1.26 C
3289 06-02-2019 10:00:00 -0.6 C 96 % -1.16 C
3290 06-02-2019 10:05:00 -0.4 C 96 % -0.96 C
3291 06-02-2019 10:10:00 -0.4 C 97 % -0.82 C
3292 06-02-2019 10:15:00 -0.3 C 96 % -0.86 C
3293 06-02-2019 10:20:00 -0.1 C 96 % -0.66 C
3294 06-02-2019 10:25:00 0.1 C 97 % -0.32 C
3295 06-02-2019 10:30:00 0.2 C 96 % -0.36 C
3296 06-02-2019 10:35:00 0.3 C 96 % -0.26 C
3297 06-02-2019 10:40:00 0.4 C 96 % -0.16 C
3298 06-02-2019 10:45:00 0.6 C 96 % 0.04 C
3299 06-02-2019 10:50:00 0.7 C 96 % 0.14 C
3300 06-02-2019 10:55:00 0.8 C 96 % 0.24 C
Sensor: Nr:Datum:Temp:Feuchte:Taupunkt:
Aussen-T/F 3301 06-02-2019 11:00:00 0.9 C 96 % 0.34 C
3302 06-02-2019 11:05:00 1.1 C 96 % 0.54 C
3303 06-02-2019 11:10:00 1.3 C 96 % 0.73 C
3304 06-02-2019 11:15:00 1.4 C 95 % 0.69 C
3305 06-02-2019 11:20:00 1.5 C 95 % 0.79 C
3306 06-02-2019 11:25:00 1.6 C 95 % 0.89 C
3307 06-02-2019 11:30:00 1.8 C 94 % 0.94 C
3308 06-02-2019 11:35:00 1.9 C 94 % 1.04 C
3309 06-02-2019 11:40:00 2 C 94 % 1.14 C
3310 06-02-2019 11:45:00 2.1 C 93 % 1.09 C
3311 06-02-2019 11:50:00 2.2 C 93 % 1.19 C
3312 06-02-2019 11:55:00 2.3 C 92 % 1.14 C
3313 06-02-2019 12:00:00 2.4 C 92 % 1.24 C
3314 06-02-2019 12:05:00 2.5 C 91 % 1.18 C
3315 06-02-2019 12:10:00 2.6 C 91 % 1.28 C
3316 06-02-2019 12:15:00 2.7 C 91 % 1.38 C
3317 06-02-2019 12:20:00 2.8 C 92 % 1.63 C
3318 06-02-2019 12:25:00 2.9 C 91 % 1.58 C
3319 06-02-2019 12:30:00 3.1 C 91 % 1.78 C
3320 06-02-2019 12:35:00 3.2 C 91 % 1.88 C
3321 06-02-2019 12:40:00 3.3 C 91 % 1.98 C
3322 06-02-2019 12:45:00 3.4 C 91 % 2.07 C
3323 06-02-2019 12:50:00 3.4 C 91 % 2.07 C
3324 06-02-2019 12:55:00 3.5 C 90 % 2.02 C
3325 06-02-2019 13:00:00 3.6 C 90 % 2.12 C
Sensor: Nr:Datum:Temp:Feuchte:Taupunkt:
Aussen-T/F 3326 06-02-2019 13:05:00 3.7 C 90 % 2.22 C
3327 06-02-2019 13:10:00 3.7 C 90 % 2.22 C
3328 06-02-2019 13:15:00 3.8 C 90 % 2.31 C
3329 06-02-2019 13:20:00 3.9 C 89 % 2.26 C
3330 06-02-2019 13:25:00 4.1 C 88 % 2.3 C
3331 06-02-2019 13:30:00 4.2 C 87 % 2.23 C
3332 06-02-2019 13:35:00 4.3 C 87 % 2.33 C
3333 06-02-2019 13:40:00 4.4 C 86 % 2.27 C
3334 06-02-2019 13:45:00 4.6 C 84 % 2.14 C
3335 06-02-2019 13:50:00 4.7 C 84 % 2.23 C
3336 06-02-2019 13:55:00 4.8 C 82 % 1.99 C
3337 06-02-2019 14:00:00 4.8 C 81 % 1.82 C
3338 06-02-2019 14:05:00 4.9 C 78 % 1.39 C
3339 06-02-2019 14:10:00 5.1 C 76 % 1.23 C
3340 06-02-2019 14:15:00 5.3 C 74 % 1.05 C
3341 06-02-2019 14:20:00 5.6 C 74 % 1.34 C
3342 06-02-2019 14:25:00 5.8 C 67 % 0.16 C
3343 06-02-2019 14:30:00 6 C 68 % 0.55 C
3344 06-02-2019 14:35:00 6.1 C 68 % 0.65 C
3345 06-02-2019 14:40:00 6.1 C 68 % 0.65 C
3346 06-02-2019 14:45:00 6.1 C 67 % 0.44 C
3347 06-02-2019 14:50:00 6.1 C 66 % 0.24 C
3348 06-02-2019 14:55:00 6.2 C 66 % 0.33 C
3349 06-02-2019 15:00:00 6.2 C 67 % 0.54 C
3350 06-02-2019 15:05:00 6.3 C 69 % 1.04 C
Sensor: Nr:Datum:Temp:Feuchte:Taupunkt:
Aussen-T/F 3351 06-02-2019 15:10:00 6.2 C 69 % 0.95 C
3352 06-02-2019 15:15:00 6.2 C 70 % 1.15 C
3353 06-02-2019 15:20:00 6.2 C 72 % 1.54 C
3354 06-02-2019 15:25:00 6.1 C 72 % 1.44 C
3355 06-02-2019 15:30:00 5.9 C 72 % 1.25 C
3356 06-02-2019 15:35:00 5.8 C 73 % 1.34 C
3357 06-02-2019 15:40:00 5.8 C 75 % 1.72 C
3358 06-02-2019 15:45:00 5.7 C 75 % 1.62 C
3359 06-02-2019 15:50:00 5.7 C 76 % 1.81 C
3360 06-02-2019 15:55:00 5.6 C 77 % 1.89 C
3361 06-02-2019 16:00:00 5.4 C 77 % 1.7 C
3362 06-02-2019 16:05:00 5.4 C 77 % 1.7 C
3363 06-02-2019 16:10:00 5.3 C 78 % 1.78 C
3364 06-02-2019 16:15:00 5.3 C 78 % 1.78 C
3365 06-02-2019 16:20:00 5.3 C 78 % 1.78 C
3366 06-02-2019 16:25:00 5.2 C 79 % 1.86 C
3367 06-02-2019 16:30:00 5.2 C 78 % 1.69 C
3368 06-02-2019 16:35:00 5.1 C 78 % 1.59 C
3369 06-02-2019 16:40:00 5 C 78 % 1.49 C
3370 06-02-2019 16:45:00 4.9 C 78 % 1.39 C
3371 06-02-2019 16:50:00 4.8 C 79 % 1.47 C
3372 06-02-2019 16:55:00 4.7 C 79 % 1.38 C
3373 06-02-2019 17:00:00 4.6 C 80 % 1.46 C
3374 06-02-2019 17:05:00 4.4 C 80 % 1.26 C
3375 06-02-2019 17:10:00 4.3 C 81 % 1.34 C
Sensor: Nr:Datum:Temp:Feuchte:Taupunkt:
Aussen-T/F 3376 06-02-2019 17:15:00 4.1 C 81 % 1.14 C
3377 06-02-2019 17:20:00 4 C 82 % 1.21 C
3378 06-02-2019 17:25:00 3.8 C 82 % 1.02 C
3379 06-02-2019 17:30:00 3.7 C 83 % 1.09 C
3380 06-02-2019 17:35:00 3.6 C 82 % 0.82 C
3381 06-02-2019 17:40:00 3.4 C 82 % 0.63 C
3382 06-02-2019 17:45:00 3.3 C 83 % 0.7 C
3383 06-02-2019 17:50:00 3.2 C 83 % 0.6 C
3384 06-02-2019 17:55:00 3.1 C 84 % 0.67 C
3385 06-02-2019 18:00:00 3.1 C 84 % 0.67 C
3386 06-02-2019 18:05:00 2.9 C 85 % 0.63 C
3387 06-02-2019 18:10:00 2.8 C 85 % 0.54 C
3388 06-02-2019 18:15:00 2.8 C 86 % 0.7 C
3389 06-02-2019 18:20:00 2.7 C 86 % 0.6 C
3390 06-02-2019 18:25:00 2.7 C 86 % 0.6 C
3391 06-02-2019 18:30:00 2.6 C 86 % 0.5 C
3392 06-02-2019 18:35:00 2.5 C 86 % 0.4 C
3393 06-02-2019 18:40:00 2.5 C 87 % 0.56 C
3394 06-02-2019 18:45:00 2.4 C 87 % 0.46 C
3395 06-02-2019 18:50:00 2.4 C 87 % 0.46 C
3396 06-02-2019 18:55:00 2.3 C 87 % 0.36 C
3397 06-02-2019 19:00:00 2.3 C 88 % 0.52 C
3398 06-02-2019 19:05:00 2.2 C 88 % 0.42 C
3399 06-02-2019 19:10:00 2.1 C 89 % 0.48 C
3400 06-02-2019 19:15:00 2.1 C 89 % 0.48 C
Sensor: Nr:Datum:Temp:Feuchte:Taupunkt:
Aussen-T/F 3401 06-02-2019 19:20:00 2.1 C 89 % 0.48 C
3402 06-02-2019 19:25:00 2.1 C 90 % 0.64 C
3403 06-02-2019 19:30:00 2.1 C 90 % 0.64 C
3404 06-02-2019 19:35:00 2.1 C 90 % 0.64 C
3405 06-02-2019 19:40:00 2.2 C 90 % 0.73 C
3406 06-02-2019 19:45:00 2.2 C 90 % 0.73 C
3407 06-02-2019 19:50:00 2.1 C 89 % 0.48 C
3408 06-02-2019 19:55:00 2.1 C 89 % 0.48 C
3409 06-02-2019 20:00:00 2.1 C 89 % 0.48 C
3410 06-02-2019 20:05:00 2.1 C 89 % 0.48 C
3411 06-02-2019 20:10:00 2 C 89 % 0.38 C
3412 06-02-2019 20:15:00 2 C 89 % 0.38 C
3413 06-02-2019 20:20:00 1.9 C 89 % 0.28 C
3414 06-02-2019 20:25:00 1.9 C 89 % 0.28 C
3415 06-02-2019 20:30:00 1.9 C 90 % 0.44 C
3416 06-02-2019 20:35:00 1.9 C 90 % 0.44 C
3417 06-02-2019 20:40:00 1.9 C 90 % 0.44 C
3418 06-02-2019 20:45:00 1.8 C 90 % 0.34 C
3419 06-02-2019 20:50:00 1.8 C 90 % 0.34 C
3420 06-02-2019 20:55:00 1.7 C 91 % 0.39 C
3421 06-02-2019 21:00:00 1.7 C 91 % 0.39 C
3422 06-02-2019 21:05:00 1.7 C 91 % 0.39 C
3423 06-02-2019 21:10:00 1.7 C 91 % 0.39 C
3424 06-02-2019 21:15:00 1.7 C 91 % 0.39 C
3425 06-02-2019 21:20:00 1.6 C 91 % 0.29 C
Sensor: Nr:Datum:Temp:Feuchte:Taupunkt:
Aussen-T/F 3426 06-02-2019 21:25:00 1.6 C 91 % 0.29 C
3427 06-02-2019 21:30:00 1.5 C 91 % 0.19 C
3428 06-02-2019 21:35:00 1.4 C 91 % 0.1 C
3429 06-02-2019 21:40:00 1.4 C 91 % 0.1 C
3430 06-02-2019 21:45:00 1.3 C 91 % 0 C
3431 06-02-2019 21:50:00 1.4 C 91 % 0.1 C
3432 06-02-2019 21:55:00 1.4 C 92 % 0.25 C
3433 06-02-2019 22:00:00 1.3 C 91 % 0 C
3434 06-02-2019 22:05:00 1.3 C 91 % 0 C
3435 06-02-2019 22:10:00 1.2 C 91 % -0.1 C
3436 06-02-2019 22:15:00 1.2 C 92 % 0.05 C
3437 06-02-2019 22:20:00 1.2 C 92 % 0.05 C
3438 06-02-2019 22:25:00 1.2 C 92 % 0.05 C
3439 06-02-2019 22:30:00 1.2 C 92 % 0.05 C
3440 06-02-2019 22:35:00 1.2 C 92 % 0.05 C
3441 06-02-2019 22:40:00 1.2 C 92 % 0.05 C
3442 06-02-2019 22:45:00 1.2 C 92 % 0.05 C
3443 06-02-2019 22:50:00 1.2 C 92 % 0.05 C
3444 06-02-2019 22:55:00 1.2 C 92 % 0.05 C
3445 06-02-2019 23:00:00 1.2 C 92 % 0.05 C
3446 06-02-2019 23:05:00 1.2 C 92 % 0.05 C
3447 06-02-2019 23:10:00 1.3 C 92 % 0.15 C
3448 06-02-2019 23:15:00 1.3 C 92 % 0.15 C
3449 06-02-2019 23:20:00 1.3 C 92 % 0.15 C
3450 06-02-2019 23:25:00 1.3 C 92 % 0.15 C
Sensor: Nr:Datum:Temp:Feuchte:Taupunkt:
Aussen-T/F 3451 06-02-2019 23:30:00 1.3 C 92 % 0.15 C
3452 06-02-2019 23:35:00 1.3 C 92 % 0.15 C
3453 06-02-2019 23:40:00 1.3 C 92 % 0.15 C
3454 06-02-2019 23:45:00 1.3 C 92 % 0.15 C
3455 06-02-2019 23:50:00 1.2 C 92 % 0.05 C
3456 06-02-2019 23:55:00 1.2 C 91 % -0.1 C
3457 07-02-2019 00:00:00 1.1 C 91 % -0.2 C
3458 07-02-2019 00:05:00 1 C 91 % -0.3 C
3459 07-02-2019 00:10:00 0.9 C 91 % -0.4 C
3460 07-02-2019 00:15:00 0.8 C 91 % -0.5 C
3461 07-02-2019 00:20:00 0.8 C 92 % -0.35 C
3462 07-02-2019 00:25:00 0.9 C 92 % -0.25 C
3463 07-02-2019 00:30:00 0.9 C 92 % -0.25 C
3464 07-02-2019 00:35:00 0.9 C 92 % -0.25 C
3465 07-02-2019 00:40:00 0.9 C 92 % -0.25 C
3466 07-02-2019 00:45:00 0.9 C 92 % -0.25 C
3467 07-02-2019 00:50:00 0.9 C 92 % -0.25 C
3468 07-02-2019 00:55:00 0.9 C 92 % -0.25 C
3469 07-02-2019 01:00:00 1 C 92 % -0.15 C
3470 07-02-2019 01:05:00 1.1 C 92 % -0.05 C
3471 07-02-2019 01:10:00 1.1 C 92 % -0.05 C
3472 07-02-2019 01:15:00 1.1 C 92 % -0.05 C
3473 07-02-2019 01:20:00 1.2 C 92 % 0.05 C
3474 07-02-2019 01:25:00 1.2 C 92 % 0.05 C
3475 07-02-2019 01:30:00 1.3 C 92 % 0.15 C
Sensor: Nr:Datum:Temp:Feuchte:Taupunkt:
Aussen-T/F 3476 07-02-2019 01:35:00 1.3 C 92 % 0.15 C
3477 07-02-2019 01:40:00 1.3 C 92 % 0.15 C
3478 07-02-2019 01:45:00 1.3 C 92 % 0.15 C
3479 07-02-2019 01:50:00 1.3 C 92 % 0.15 C
3480 07-02-2019 01:55:00 1.3 C 92 % 0.15 C
3481 07-02-2019 02:00:00 1.3 C 92 % 0.15 C
3482 07-02-2019 02:05:00 1.3 C 92 % 0.15 C
3483 07-02-2019 02:10:00 1.4 C 92 % 0.25 C
3484 07-02-2019 02:15:00 1.4 C 92 % 0.25 C
3485 07-02-2019 02:20:00 1.4 C 91 % 0.1 C
3486 07-02-2019 02:25:00 1.5 C 91 % 0.19 C
3487 07-02-2019 02:30:00 1.5 C 91 % 0.19 C
3488 07-02-2019 02:35:00 1.5 C 91 % 0.19 C
3489 07-02-2019 02:40:00 1.5 C 91 % 0.19 C
3490 07-02-2019 02:45:00 1.5 C 91 % 0.19 C
3491 07-02-2019 02:50:00 1.5 C 91 % 0.19 C
3492 07-02-2019 02:55:00 1.5 C 92 % 0.35 C
3493 07-02-2019 03:00:00 1.6 C 92 % 0.44 C
3494 07-02-2019 03:05:00 1.6 C 92 % 0.44 C
3495 07-02-2019 03:10:00 1.6 C 92 % 0.44 C
3496 07-02-2019 03:15:00 1.7 C 92 % 0.54 C
3497 07-02-2019 03:20:00 1.7 C 92 % 0.54 C
3498 07-02-2019 03:25:00 1.7 C 92 % 0.54 C
3499 07-02-2019 03:30:00 1.7 C 92 % 0.54 C
3500 07-02-2019 03:35:00 1.8 C 92 % 0.64 C
Sensor: Nr:Datum:Temp:Feuchte:Taupunkt:
Aussen-T/F 3501 07-02-2019 03:40:00 1.8 C 91 % 0.49 C
3502 07-02-2019 03:45:00 1.8 C 91 % 0.49 C
3503 07-02-2019 03:50:00 1.9 C 91 % 0.59 C
3504 07-02-2019 03:55:00 1.9 C 91 % 0.59 C
3505 07-02-2019 04:00:00 2 C 91 % 0.69 C
3506 07-02-2019 04:05:00 2.1 C 91 % 0.79 C
3507 07-02-2019 04:10:00 2.2 C 90 % 0.73 C
3508 07-02-2019 04:15:00 2.2 C 90 % 0.73 C
3509 07-02-2019 04:20:00 2.3 C 90 % 0.83 C
3510 07-02-2019 04:25:00 2.3 C 90 % 0.83 C
3511 07-02-2019 04:30:00 2.4 C 90 % 0.93 C
3512 07-02-2019 04:35:00 2.4 C 90 % 0.93 C
3513 07-02-2019 04:40:00 2.4 C 90 % 0.93 C
3514 07-02-2019 04:45:00 2.5 C 91 % 1.18 C
3515 07-02-2019 04:50:00 2.6 C 91 % 1.28 C
3516 07-02-2019 04:55:00 2.6 C 91 % 1.28 C
3517 07-02-2019 05:00:00 2.6 C 92 % 1.43 C
3518 07-02-2019 05:05:00 2.6 C 92 % 1.43 C
3519 07-02-2019 05:10:00 2.6 C 92 % 1.43 C
3520 07-02-2019 05:15:00 2.6 C 92 % 1.43 C
3521 07-02-2019 05:20:00 2.6 C 92 % 1.43 C
3522 07-02-2019 05:25:00 2.6 C 91 % 1.28 C
3523 07-02-2019 05:30:00 2.6 C 91 % 1.28 C
3524 07-02-2019 05:35:00 2.7 C 90 % 1.23 C
3525 07-02-2019 05:40:00 2.7 C 90 % 1.23 C
Sensor: Nr:Datum:Temp:Feuchte:Taupunkt:
Aussen-T/F 3526 07-02-2019 05:45:00 2.7 C 90 % 1.23 C
3527 07-02-2019 05:50:00 2.8 C 90 % 1.33 C
3528 07-02-2019 05:55:00 2.8 C 90 % 1.33 C
3529 07-02-2019 06:00:00 2.8 C 90 % 1.33 C
3530 07-02-2019 06:05:00 2.9 C 90 % 1.43 C
3531 07-02-2019 06:10:00 2.9 C 89 % 1.27 C
3532 07-02-2019 06:15:00 2.9 C 89 % 1.27 C
3533 07-02-2019 06:20:00 3 C 88 % 1.21 C
3534 07-02-2019 06:25:00 3 C 88 % 1.21 C
3535 07-02-2019 06:30:00 3 C 88 % 1.21 C
3536 07-02-2019 06:35:00 3.1 C 88 % 1.31 C
3537 07-02-2019 06:40:00 3.1 C 88 % 1.31 C
3538 07-02-2019 06:45:00 3.1 C 88 % 1.31 C
3539 07-02-2019 06:50:00 3.1 C 88 % 1.31 C
3540 07-02-2019 06:55:00 3.2 C 88 % 1.41 C
3541 07-02-2019 07:00:00 3.2 C 89 % 1.57 C
3542 07-02-2019 07:05:00 3.3 C 89 % 1.67 C
3543 07-02-2019 07:10:00 3.3 C 89 % 1.67 C
3544 07-02-2019 07:15:00 3.4 C 89 % 1.76 C
3545 07-02-2019 07:20:00 3.4 C 90 % 1.92 C
3546 07-02-2019 07:25:00 3.4 C 89 % 1.76 C
3547 07-02-2019 07:30:00 3.5 C 90 % 2.02 C
3548 07-02-2019 07:35:00 3.6 C 90 % 2.12 C
3549 07-02-2019 07:40:00 3.7 C 89 % 2.06 C
3550 07-02-2019 07:45:00 3.7 C 89 % 2.06 C
Sensor: Nr:Datum:Temp:Feuchte:Taupunkt:
Aussen-T/F 3551 07-02-2019 07:50:00 3.7 C 90 % 2.22 C
3552 07-02-2019 07:55:00 3.8 C 90 % 2.31 C
3553 07-02-2019 08:00:00 3.8 C 90 % 2.31 C
3554 07-02-2019 08:05:00 3.9 C 91 % 2.57 C
3555 07-02-2019 08:10:00 3.9 C 91 % 2.57 C
3556 07-02-2019 08:15:00 3.9 C 92 % 2.72 C
3557 07-02-2019 08:20:00 3.9 C 92 % 2.72 C
3558 07-02-2019 08:25:00 4 C 93 % 2.97 C
3559 07-02-2019 08:30:00 4 C 93 % 2.97 C
3560 07-02-2019 08:35:00 4.1 C 93 % 3.07 C
3561 07-02-2019 08:40:00 4.1 C 93 % 3.07 C
3562 07-02-2019 08:45:00 4.1 C 93 % 3.07 C
3563 07-02-2019 08:50:00 4.1 C 94 % 3.22 C
3564 07-02-2019 08:55:00 4.1 C 94 % 3.22 C
3565 07-02-2019 09:00:00 4.2 C 94 % 3.32 C
3566 07-02-2019 09:05:00 4.2 C 94 % 3.32 C
3567 07-02-2019 09:10:00 4.3 C 94 % 3.42 C
3568 07-02-2019 09:15:00 4.3 C 94 % 3.42 C
3569 07-02-2019 09:20:00 4.4 C 95 % 3.67 C
3570 07-02-2019 09:25:00 4.5 C 95 % 3.77 C
3571 07-02-2019 09:30:00 4.6 C 95 % 3.87 C
3572 07-02-2019 09:35:00 4.6 C 95 % 3.87 C
3573 07-02-2019 09:40:00 4.7 C 95 % 3.97 C
3574 07-02-2019 09:45:00 4.8 C 95 % 4.07 C
3575 07-02-2019 09:50:00 4.9 C 95 % 4.17 C
Sensor: Nr:Datum:Temp:Feuchte:Taupunkt:
Aussen-T/F 3576 07-02-2019 09:55:00 4.9 C 95 % 4.17 C
3577 07-02-2019 10:00:00 4.9 C 95 % 4.17 C
3578 07-02-2019 10:05:00 5 C 95 % 4.27 C
3579 07-02-2019 10:10:00 5 C 95 % 4.27 C
3580 07-02-2019 10:15:00 5.1 C 95 % 4.37 C
3581 07-02-2019 10:20:00 5.1 C 95 % 4.37 C
3582 07-02-2019 10:25:00 5.2 C 95 % 4.47 C
3583 07-02-2019 10:30:00 5.2 C 95 % 4.47 C
3584 07-02-2019 10:35:00 5.2 C 95 % 4.47 C
3585 07-02-2019 10:40:00 5.3 C 95 % 4.57 C
3586 07-02-2019 10:45:00 5.3 C 95 % 4.57 C
3587 07-02-2019 10:50:00 5.4 C 96 % 4.81 C
3588 07-02-2019 10:55:00 5.4 C 95 % 4.66 C
3589 07-02-2019 11:00:00 5.5 C 96 % 4.91 C
3590 07-02-2019 11:05:00 5.4 C 95 % 4.66 C
3591 07-02-2019 11:10:00 5.5 C 96 % 4.91 C
3592 07-02-2019 11:15:00 5.6 C 95 % 4.86 C
3593 07-02-2019 11:20:00 5.7 C 96 % 5.11 C
3594 07-02-2019 11:25:00 5.7 C 96 % 5.11 C
3595 07-02-2019 11:30:00 5.7 C 96 % 5.11 C
3596 07-02-2019 11:35:00 5.7 C 96 % 5.11 C
3597 07-02-2019 11:40:00 5.7 C 95 % 4.96 C
3598 07-02-2019 11:45:00 5.7 C 95 % 4.96 C
3599 07-02-2019 11:50:00 5.8 C 96 % 5.21 C
3600 07-02-2019 11:55:00 6.1 C 96 % 5.51 C
Sensor: Nr:Datum:Temp:Feuchte:Taupunkt:
Aussen-T/F 3601 07-02-2019 12:00:00 6.3 C 96 % 5.71 C
3602 07-02-2019 12:05:00 6.4 C 96 % 5.81 C
3603 07-02-2019 12:10:00 6.6 C 96 % 6.01 C
3604 07-02-2019 12:15:00 6.7 C 96 % 6.11 C
3605 07-02-2019 12:20:00 6.7 C 95 % 5.96 C
3606 07-02-2019 12:25:00 6.7 C 95 % 5.96 C
3607 07-02-2019 12:30:00 6.8 C 95 % 6.06 C
3608 07-02-2019 12:35:00 6.9 C 95 % 6.16 C
3609 07-02-2019 12:40:00 6.9 C 95 % 6.16 C
3610 07-02-2019 12:45:00 7 C 94 % 6.1 C
3611 07-02-2019 12:50:00 7.1 C 94 % 6.2 C
3612 07-02-2019 12:55:00 7.2 C 94 % 6.3 C
3613 07-02-2019 13:00:00 7.3 C 93 % 6.25 C
3614 07-02-2019 13:05:00 7.3 C 93 % 6.25 C
3615 07-02-2019 13:10:00 7.4 C 93 % 6.34 C
3616 07-02-2019 13:15:00 7.5 C 92 % 6.29 C
3617 07-02-2019 13:20:00 7.6 C 91 % 6.23 C
3618 07-02-2019 13:25:00 7.6 C 91 % 6.23 C
3619 07-02-2019 13:30:00 7.6 C 90 % 6.07 C
3620 07-02-2019 13:35:00 7.6 C 90 % 6.07 C
3621 07-02-2019 13:40:00 7.6 C 90 % 6.07 C
3622 07-02-2019 13:45:00 7.6 C 90 % 6.07 C
3623 07-02-2019 13:50:00 7.7 C 89 % 6 C
3624 07-02-2019 13:55:00 7.7 C 89 % 6 C
3625 07-02-2019 14:00:00 7.8 C 89 % 6.1 C
Sensor: Nr:Datum:Temp:Feuchte:Taupunkt:
Aussen-T/F 3626 07-02-2019 14:05:00 7.8 C 88 % 5.94 C
3627 07-02-2019 14:10:00 7.8 C 87 % 5.78 C
3628 07-02-2019 14:15:00 7.9 C 87 % 5.87 C
3629 07-02-2019 14:20:00 8 C 86 % 5.81 C
3630 07-02-2019 14:25:00 8.1 C 85 % 5.73 C
3631 07-02-2019 14:30:00 8.1 C 84 % 5.56 C
3632 07-02-2019 14:35:00 8.2 C 84 % 5.66 C
3633 07-02-2019 14:40:00 8.3 C 84 % 5.76 C
3634 07-02-2019 14:45:00 8.3 C 84 % 5.76 C
3635 07-02-2019 14:50:00 8.4 C 82 % 5.51 C
3636 07-02-2019 14:55:00 8.4 C 82 % 5.51 C
3637 07-02-2019 15:00:00 8.4 C 82 % 5.51 C
3638 07-02-2019 15:05:00 8.5 C 82 % 5.61 C
3639 07-02-2019 15:10:00 8.5 C 81 % 5.43 C
3640 07-02-2019 15:15:00 8.5 C 81 % 5.43 C
3641 07-02-2019 15:20:00 8.5 C 81 % 5.43 C
3642 07-02-2019 15:25:00 8.4 C 81 % 5.33 C
3643 07-02-2019 15:30:00 8.5 C 81 % 5.43 C
3644 07-02-2019 15:35:00 8.5 C 81 % 5.43 C
3645 07-02-2019 15:40:00 8.6 C 81 % 5.53 C
3646 07-02-2019 15:45:00 8.7 C 80 % 5.45 C
3647 07-02-2019 15:50:00 8.7 C 80 % 5.45 C
3648 07-02-2019 15:55:00 8.6 C 79 % 5.17 C
3649 07-02-2019 16:00:00 8.6 C 80 % 5.35 C
3650 07-02-2019 16:05:00 8.6 C 80 % 5.35 C
Sensor: Nr:Datum:Temp:Feuchte:Taupunkt:
Aussen-T/F 3651 07-02-2019 16:10:00 8.6 C 80 % 5.35 C
3652 07-02-2019 16:15:00 8.6 C 80 % 5.35 C
3653 07-02-2019 16:20:00 8.7 C 79 % 5.27 C
3654 07-02-2019 16:25:00 8.7 C 78 % 5.08 C
3655 07-02-2019 16:30:00 8.7 C 79 % 5.27 C
3656 07-02-2019 16:35:00 8.7 C 79 % 5.27 C
3657 07-02-2019 16:40:00 8.7 C 79 % 5.27 C
3658 07-02-2019 16:45:00 8.5 C 79 % 5.07 C
3659 07-02-2019 16:50:00 8.4 C 79 % 4.98 C
3660 07-02-2019 16:55:00 8.3 C 79 % 4.88 C
3661 07-02-2019 17:00:00 8.1 C 79 % 4.68 C
3662 07-02-2019 17:05:00 8.1 C 80 % 4.86 C
3663 07-02-2019 17:10:00 7.9 C 80 % 4.67 C
3664 07-02-2019 17:15:00 7.8 C 80 % 4.57 C
3665 07-02-2019 17:20:00 7.5 C 81 % 4.46 C
3666 07-02-2019 17:25:00 7.4 C 82 % 4.53 C
3667 07-02-2019 17:30:00 7.3 C 83 % 4.61 C
3668 07-02-2019 17:35:00 7.3 C 83 % 4.61 C
3669 07-02-2019 17:40:00 7.2 C 84 % 4.68 C
3670 07-02-2019 17:45:00 7.2 C 84 % 4.68 C
3671 07-02-2019 17:50:00 7.2 C 84 % 4.68 C
3672 07-02-2019 17:55:00 7.2 C 85 % 4.85 C
3673 07-02-2019 18:00:00 7.1 C 84 % 4.58 C
3674 07-02-2019 18:05:00 7.1 C 84 % 4.58 C
3675 07-02-2019 18:10:00 7 C 84 % 4.49 C
Sensor: Nr:Datum:Temp:Feuchte:Taupunkt:
Aussen-T/F 3676 07-02-2019 18:15:00 6.9 C 84 % 4.39 C
3677 07-02-2019 18:20:00 6.7 C 83 % 4.02 C
3678 07-02-2019 18:25:00 6.6 C 84 % 4.1 C
3679 07-02-2019 18:30:00 6.5 C 84 % 4 C
3680 07-02-2019 18:35:00 6.4 C 84 % 3.9 C
3681 07-02-2019 18:40:00 6.3 C 84 % 3.8 C
3682 07-02-2019 18:45:00 6.2 C 84 % 3.7 C
3683 07-02-2019 18:50:00 6.2 C 84 % 3.7 C
3684 07-02-2019 18:55:00 6.2 C 83 % 3.53 C
3685 07-02-2019 19:00:00 6.4 C 82 % 3.56 C
3686 07-02-2019 19:05:00 6.7 C 81 % 3.68 C
3687 07-02-2019 19:10:00 6.8 C 81 % 3.77 C
3688 07-02-2019 19:15:00 6.8 C 81 % 3.77 C
3689 07-02-2019 19:20:00 6.7 C 80 % 3.5 C
3690 07-02-2019 19:25:00 6.7 C 81 % 3.68 C
3691 07-02-2019 19:30:00 6.6 C 81 % 3.58 C
3692 07-02-2019 19:35:00 6.6 C 81 % 3.58 C
3693 07-02-2019 19:40:00 6.7 C 81 % 3.68 C
3694 07-02-2019 19:45:00 6.7 C 81 % 3.68 C
3695 07-02-2019 19:50:00 6.6 C 81 % 3.58 C
3696 07-02-2019 19:55:00 6.5 C 82 % 3.66 C
3697 07-02-2019 20:00:00 6.4 C 83 % 3.73 C
3698 07-02-2019 20:05:00 6.4 C 83 % 3.73 C
3699 07-02-2019 20:10:00 6.4 C 83 % 3.73 C
3700 07-02-2019 20:15:00 6.4 C 83 % 3.73 C
Sensor: Nr:Datum:Temp:Feuchte:Taupunkt:
Aussen-T/F 3701 07-02-2019 20:20:00 6.3 C 82 % 3.46 C
3702 07-02-2019 20:25:00 6.3 C 83 % 3.63 C
3703 07-02-2019 20:30:00 6.2 C 83 % 3.53 C
3704 07-02-2019 20:35:00 6.2 C 83 % 3.53 C
3705 07-02-2019 20:40:00 6.2 C 83 % 3.53 C
3706 07-02-2019 20:45:00 6.2 C 83 % 3.53 C
3707 07-02-2019 20:50:00 6.2 C 84 % 3.7 C
3708 07-02-2019 20:55:00 6.2 C 84 % 3.7 C
3709 07-02-2019 21:00:00 6.2 C 84 % 3.7 C
3710 07-02-2019 21:05:00 6.3 C 84 % 3.8 C
3711 07-02-2019 21:10:00 6.5 C 84 % 4 C
3712 07-02-2019 21:15:00 6.7 C 83 % 4.02 C
3713 07-02-2019 21:20:00 6.9 C 83 % 4.22 C
3714 07-02-2019 21:25:00 7.2 C 82 % 4.34 C
3715 07-02-2019 21:30:00 7.3 C 81 % 4.26 C
3716 07-02-2019 21:35:00 7.3 C 81 % 4.26 C
3717 07-02-2019 21:40:00 7.2 C 81 % 4.16 C
3718 07-02-2019 21:45:00 7.1 C 81 % 4.07 C
3719 07-02-2019 21:50:00 7.1 C 81 % 4.07 C
3720 07-02-2019 21:55:00 7 C 81 % 3.97 C
3721 07-02-2019 22:00:00 6.9 C 81 % 3.87 C
3722 07-02-2019 22:05:00 6.8 C 81 % 3.77 C
3723 07-02-2019 22:10:00 6.7 C 81 % 3.68 C
3724 07-02-2019 22:15:00 6.6 C 81 % 3.58 C
3725 07-02-2019 22:20:00 6.5 C 81 % 3.48 C
Sensor: Nr:Datum:Temp:Feuchte:Taupunkt:
Aussen-T/F 3726 07-02-2019 22:25:00 6.4 C 81 % 3.38 C
3727 07-02-2019 22:30:00 6.3 C 82 % 3.46 C
3728 07-02-2019 22:35:00 6.3 C 83 % 3.63 C
3729 07-02-2019 22:40:00 6.2 C 83 % 3.53 C
3730 07-02-2019 22:45:00 6.2 C 84 % 3.7 C
3731 07-02-2019 22:50:00 6.2 C 84 % 3.7 C
3732 07-02-2019 22:55:00 6.2 C 84 % 3.7 C
3733 07-02-2019 23:00:00 6.2 C 84 % 3.7 C
3734 07-02-2019 23:05:00 6.3 C 84 % 3.8 C
3735 07-02-2019 23:10:00 6.4 C 84 % 3.9 C
3736 07-02-2019 23:15:00 6.3 C 84 % 3.8 C
3737 07-02-2019 23:20:00 6.3 C 84 % 3.8 C
3738 07-02-2019 23:25:00 6.3 C 84 % 3.8 C
3739 07-02-2019 23:30:00 6.3 C 85 % 3.97 C
3740 07-02-2019 23:35:00 6.2 C 84 % 3.7 C
3741 07-02-2019 23:40:00 6.1 C 85 % 3.77 C
3742 07-02-2019 23:45:00 6.1 C 85 % 3.77 C
3743 07-02-2019 23:50:00 6 C 85 % 3.67 C
3744 07-02-2019 23:55:00 5.9 C 85 % 3.58 C
3745 08-02-2019 00:00:00 5.8 C 85 % 3.48 C
3746 08-02-2019 00:05:00 5.7 C 86 % 3.55 C
3747 08-02-2019 00:10:00 5.6 C 86 % 3.45 C
3748 08-02-2019 00:15:00 5.4 C 86 % 3.25 C
3749 08-02-2019 00:20:00 5.3 C 87 % 3.32 C
3750 08-02-2019 00:25:00 5.3 C 88 % 3.48 C
Sensor: Nr:Datum:Temp:Feuchte:Taupunkt:
Aussen-T/F 3751 08-02-2019 00:30:00 5.4 C 89 % 3.74 C
3752 08-02-2019 00:35:00 5.4 C 89 % 3.74 C
3753 08-02-2019 00:40:00 5.5 C 88 % 3.67 C
3754 08-02-2019 00:45:00 5.6 C 88 % 3.77 C
3755 08-02-2019 00:50:00 5.6 C 88 % 3.77 C
3756 08-02-2019 00:55:00 5.7 C 88 % 3.87 C
3757 08-02-2019 01:00:00 5.9 C 88 % 4.07 C
3758 08-02-2019 01:05:00 6 C 87 % 4 C
3759 08-02-2019 01:10:00 6.1 C 86 % 3.94 C
3760 08-02-2019 01:15:00 6.2 C 86 % 4.04 C
3761 08-02-2019 01:20:00 6.1 C 85 % 3.77 C
3762 08-02-2019 01:25:00 5.9 C 85 % 3.58 C
3763 08-02-2019 01:30:00 5.8 C 86 % 3.64 C
3764 08-02-2019 01:35:00 5.7 C 86 % 3.55 C
3765 08-02-2019 01:40:00 5.7 C 87 % 3.71 C
3766 08-02-2019 01:45:00 5.8 C 87 % 3.81 C
3767 08-02-2019 01:50:00 5.8 C 87 % 3.81 C
3768 08-02-2019 01:55:00 5.7 C 87 % 3.71 C
3769 08-02-2019 02:00:00 5.7 C 87 % 3.71 C
3770 08-02-2019 02:05:00 5.7 C 87 % 3.71 C
3771 08-02-2019 02:10:00 5.7 C 87 % 3.71 C
3772 08-02-2019 02:15:00 5.8 C 87 % 3.81 C
3773 08-02-2019 02:20:00 5.8 C 87 % 3.81 C
3774 08-02-2019 02:25:00 5.9 C 87 % 3.91 C
3775 08-02-2019 02:30:00 5.9 C 87 % 3.91 C
Sensor: Nr:Datum:Temp:Feuchte:Taupunkt:
Aussen-T/F 3776 08-02-2019 02:35:00 5.9 C 87 % 3.91 C
3777 08-02-2019 02:40:00 5.9 C 87 % 3.91 C
3778 08-02-2019 02:45:00 5.8 C 86 % 3.64 C
3779 08-02-2019 02:50:00 5.8 C 86 % 3.64 C
3780 08-02-2019 02:55:00 5.7 C 87 % 3.71 C
3781 08-02-2019 03:00:00 5.6 C 87 % 3.61 C
3782 08-02-2019 03:05:00 5.6 C 88 % 3.77 C
3783 08-02-2019 03:10:00 5.7 C 88 % 3.87 C
3784 08-02-2019 03:15:00 5.7 C 88 % 3.87 C
3785 08-02-2019 03:20:00 5.8 C 88 % 3.97 C
3786 08-02-2019 03:25:00 5.8 C 88 % 3.97 C
3787 08-02-2019 03:30:00 5.8 C 87 % 3.81 C
3788 08-02-2019 03:35:00 5.8 C 87 % 3.81 C
3789 08-02-2019 03:40:00 5.8 C 87 % 3.81 C
3790 08-02-2019 03:45:00 5.8 C 87 % 3.81 C
3791 08-02-2019 03:50:00 5.8 C 88 % 3.97 C
3792 08-02-2019 03:55:00 5.8 C 88 % 3.97 C
3793 08-02-2019 04:00:00 5.9 C 88 % 4.07 C
3794 08-02-2019 04:05:00 6.1 C 87 % 4.1 C
3795 08-02-2019 04:10:00 6.2 C 87 % 4.2 C
3796 08-02-2019 04:15:00 6.3 C 86 % 4.14 C
3797 08-02-2019 04:20:00 6.3 C 86 % 4.14 C
3798 08-02-2019 04:25:00 6.3 C 86 % 4.14 C
3799 08-02-2019 04:30:00 6.3 C 86 % 4.14 C
3800 08-02-2019 04:35:00 6.4 C 86 % 4.23 C
Sensor: Nr:Datum:Temp:Feuchte:Taupunkt:
Aussen-T/F 3801 08-02-2019 04:40:00 6.4 C 86 % 4.23 C
3802 08-02-2019 04:45:00 6.4 C 86 % 4.23 C
3803 08-02-2019 04:50:00 6.4 C 86 % 4.23 C
3804 08-02-2019 04:55:00 6.4 C 86 % 4.23 C
3805 08-02-2019 05:00:00 6.3 C 86 % 4.14 C
3806 08-02-2019 05:05:00 6.3 C 86 % 4.14 C
3807 08-02-2019 05:10:00 6.3 C 86 % 4.14 C
3808 08-02-2019 05:15:00 6.3 C 86 % 4.14 C
3809 08-02-2019 05:20:00 6.3 C 86 % 4.14 C
3810 08-02-2019 05:25:00 6.4 C 87 % 4.4 C
3811 08-02-2019 05:30:00 6.4 C 86 % 4.23 C
3812 08-02-2019 05:35:00 6.4 C 86 % 4.23 C
3813 08-02-2019 05:40:00 6.5 C 86 % 4.33 C
3814 08-02-2019 05:45:00 6.5 C 86 % 4.33 C
3815 08-02-2019 05:50:00 6.5 C 86 % 4.33 C
3816 08-02-2019 05:55:00 6.6 C 86 % 4.43 C
3817 08-02-2019 06:00:00 6.5 C 86 % 4.33 C
3818 08-02-2019 06:05:00 6.4 C 86 % 4.23 C
3819 08-02-2019 06:10:00 6.3 C 86 % 4.14 C
3820 08-02-2019 06:15:00 6.3 C 86 % 4.14 C
3821 08-02-2019 06:20:00 6.3 C 87 % 4.3 C
3822 08-02-2019 06:25:00 6.3 C 87 % 4.3 C
3823 08-02-2019 06:30:00 6.3 C 87 % 4.3 C
3824 08-02-2019 06:35:00 6.3 C 87 % 4.3 C
3825 08-02-2019 06:40:00 6.3 C 87 % 4.3 C
Sensor: Nr:Datum:Temp:Feuchte:Taupunkt:
Aussen-T/F 3826 08-02-2019 06:45:00 6.3 C 87 % 4.3 C
3827 08-02-2019 06:50:00 6.3 C 87 % 4.3 C
3828 08-02-2019 06:55:00 6.3 C 87 % 4.3 C
3829 08-02-2019 07:00:00 6.3 C 87 % 4.3 C
3830 08-02-2019 07:05:00 6.3 C 87 % 4.3 C
3831 08-02-2019 07:10:00 6.3 C 87 % 4.3 C
3832 08-02-2019 07:15:00 6.3 C 87 % 4.3 C
3833 08-02-2019 07:20:00 6.3 C 87 % 4.3 C
3834 08-02-2019 07:25:00 6.3 C 87 % 4.3 C
3835 08-02-2019 07:30:00 6.3 C 87 % 4.3 C
3836 08-02-2019 07:35:00 6.4 C 87 % 4.4 C
3837 08-02-2019 07:40:00 6.4 C 87 % 4.4 C
3838 08-02-2019 07:45:00 6.5 C 86 % 4.33 C
3839 08-02-2019 07:50:00 6.6 C 86 % 4.43 C
3840 08-02-2019 07:55:00 6.6 C 86 % 4.43 C
3841 08-02-2019 08:00:00 6.6 C 86 % 4.43 C
3842 08-02-2019 08:05:00 6.6 C 86 % 4.43 C
3843 08-02-2019 08:10:00 6.6 C 86 % 4.43 C
3844 08-02-2019 08:15:00 6.6 C 86 % 4.43 C
3845 08-02-2019 08:20:00 6.6 C 86 % 4.43 C
3846 08-02-2019 08:25:00 6.7 C 86 % 4.53 C
3847 08-02-2019 08:30:00 6.7 C 86 % 4.53 C
3848 08-02-2019 08:35:00 6.7 C 86 % 4.53 C
3849 08-02-2019 08:40:00 6.7 C 86 % 4.53 C
3850 08-02-2019 08:45:00 6.7 C 86 % 4.53 C
Sensor: Nr:Datum:Temp:Feuchte:Taupunkt:
Aussen-T/F 3851 08-02-2019 08:50:00 6.8 C 86 % 4.63 C
3852 08-02-2019 08:55:00 6.8 C 86 % 4.63 C
3853 08-02-2019 09:00:00 6.8 C 86 % 4.63 C
3854 08-02-2019 09:05:00 6.9 C 86 % 4.72 C
3855 08-02-2019 09:10:00 6.9 C 86 % 4.72 C
3856 08-02-2019 09:15:00 6.9 C 86 % 4.72 C
3857 08-02-2019 09:20:00 7 C 86 % 4.82 C
3858 08-02-2019 09:25:00 7.1 C 86 % 4.92 C
3859 08-02-2019 09:30:00 7.1 C 86 % 4.92 C
3860 08-02-2019 09:35:00 7.1 C 85 % 4.75 C
3861 08-02-2019 09:40:00 7.2 C 85 % 4.85 C
3862 08-02-2019 09:45:00 7.2 C 85 % 4.85 C
3863 08-02-2019 09:50:00 7.2 C 85 % 4.85 C
3864 08-02-2019 09:55:00 7.2 C 85 % 4.85 C
3865 08-02-2019 10:00:00 7.2 C 85 % 4.85 C
3866 08-02-2019 10:05:00 7.3 C 85 % 4.95 C
3867 08-02-2019 10:10:00 7.3 C 85 % 4.95 C
3868 08-02-2019 10:15:00 7.3 C 85 % 4.95 C
3869 08-02-2019 10:20:00 7.3 C 85 % 4.95 C
3870 08-02-2019 10:25:00 7.3 C 85 % 4.95 C
3871 08-02-2019 10:30:00 7.4 C 86 % 5.22 C
3872 08-02-2019 10:35:00 7.4 C 85 % 5.05 C
3873 08-02-2019 10:40:00 7.5 C 85 % 5.15 C
3874 08-02-2019 10:45:00 7.6 C 85 % 5.24 C
3875 08-02-2019 10:50:00 7.7 C 85 % 5.34 C
Sensor: Nr:Datum:Temp:Feuchte:Taupunkt:
Aussen-T/F 3876 08-02-2019 10:55:00 7.8 C 85 % 5.44 C
3877 08-02-2019 11:00:00 7.9 C 84 % 5.37 C
3878 08-02-2019 11:05:00 8 C 84 % 5.47 C
3879 08-02-2019 11:10:00 8.1 C 84 % 5.56 C
3880 08-02-2019 11:15:00 8.3 C 83 % 5.59 C
3881 08-02-2019 11:20:00 8.3 C 83 % 5.59 C
3882 08-02-2019 11:25:00 8.5 C 83 % 5.78 C
3883 08-02-2019 11:30:00 8.6 C 82 % 5.71 C
3884 08-02-2019 11:35:00 8.7 C 82 % 5.8 C
3885 08-02-2019 11:40:00 8.7 C 81 % 5.63 C
3886 08-02-2019 11:45:00 8.7 C 81 % 5.63 C
3887 08-02-2019 11:50:00 8.8 C 81 % 5.72 C
3888 08-02-2019 11:55:00 8.8 C 81 % 5.72 C
3889 08-02-2019 12:00:00 8.9 C 82 % 6 C
3890 08-02-2019 12:05:00 9.1 C 80 % 5.84 C
3891 08-02-2019 12:10:00 9.2 C 80 % 5.94 C
3892 08-02-2019 12:15:00 9.3 C 80 % 6.03 C
3893 08-02-2019 12:20:00 9.4 C 80 % 6.13 C
3894 08-02-2019 12:25:00 9.4 C 79 % 5.95 C
3895 08-02-2019 12:30:00 9.6 C 79 % 6.14 C
3896 08-02-2019 12:35:00 9.6 C 79 % 6.14 C
3897 08-02-2019 12:40:00 9.7 C 79 % 6.24 C
3898 08-02-2019 12:45:00 9.7 C 79 % 6.24 C
3899 08-02-2019 12:50:00 9.7 C 78 % 6.06 C